<?xml version="1.0" encoding="UTF-8" standalone="no" ?>
<gpx xmlns="http://www.topografix.com/GPX/1/1" xmlns:xsi="http://www.w3.org/2001/XMLSchema-instance" xsi:schemaLocation="http://www.topografix.com/GPX/1/1 http://www.topografix.com/GPX/1/1/gpx.xsd" version="1.1" creator="VisuGPX - https://www.visugpx.com">
  <metadata>
    <name> Boucle col Pommerol&gt;col des Tourettes</name>
    <desc><![CDATA[comment ...]]></desc>
  </metadata>
  <trk>
    <name><![CDATA[9 mai 2021]]></name>
    <desc><![CDATA[comment ...]]></desc>
    <extensions>
      <line xmlns="http://www.topografix.com/GPX/gpx_style/0/2">
        <color>0000FF</color>
        <width>4</width>
      </line>
    </extensions>
    <trkseg>
      <trkpt lat="44.41403" lon="5.55446">
        <ele>859.3</ele>
        <time>2021-05-09T09:03:11Z</time>
      </trkpt>
      <trkpt lat="44.41403" lon="5.55446">
        <ele>859.3</ele>
        <time>2021-05-09T09:03:12Z</time>
      </trkpt>
      <trkpt lat="44.41401" lon="5.5544">
        <ele>859.4</ele>
        <time>2021-05-09T09:04:33Z</time>
      </trkpt>
      <trkpt lat="44.41399" lon="5.55433">
        <ele>859.5</ele>
        <time>2021-05-09T09:04:38Z</time>
      </trkpt>
      <trkpt lat="44.41401" lon="5.55426">
        <ele>859.9</ele>
        <time>2021-05-09T09:04:40Z</time>
      </trkpt>
      <trkpt lat="44.41429" lon="5.55303">
        <ele>867.3</ele>
        <time>2021-05-09T09:05:11Z</time>
      </trkpt>
      <trkpt lat="44.41429" lon="5.55289">
        <ele>867</ele>
        <time>2021-05-09T09:05:16Z</time>
      </trkpt>
      <trkpt lat="44.4143" lon="5.55281">
        <ele>866.9</ele>
        <time>2021-05-09T09:05:19Z</time>
      </trkpt>
      <trkpt lat="44.41431" lon="5.55234">
        <ele>866.1</ele>
        <time>2021-05-09T09:05:28Z</time>
      </trkpt>
      <trkpt lat="44.41429" lon="5.55227">
        <ele>865.8</ele>
        <time>2021-05-09T09:05:29Z</time>
      </trkpt>
      <trkpt lat="44.41418" lon="5.55206">
        <ele>864.1</ele>
        <time>2021-05-09T09:05:32Z</time>
      </trkpt>
      <trkpt lat="44.41386" lon="5.55157">
        <ele>860</ele>
        <time>2021-05-09T09:05:38Z</time>
      </trkpt>
      <trkpt lat="44.41375" lon="5.5513">
        <ele>858.3</ele>
        <time>2021-05-09T09:05:41Z</time>
      </trkpt>
      <trkpt lat="44.41368" lon="5.55103">
        <ele>856.7</ele>
        <time>2021-05-09T09:05:44Z</time>
      </trkpt>
      <trkpt lat="44.41362" lon="5.55086">
        <ele>855.2</ele>
        <time>2021-05-09T09:05:46Z</time>
      </trkpt>
      <trkpt lat="44.41352" lon="5.5507">
        <ele>853.5</ele>
        <time>2021-05-09T09:05:48Z</time>
      </trkpt>
      <trkpt lat="44.41333" lon="5.55037">
        <ele>850.5</ele>
        <time>2021-05-09T09:05:52Z</time>
      </trkpt>
      <trkpt lat="44.41327" lon="5.55017">
        <ele>850</ele>
        <time>2021-05-09T09:05:54Z</time>
      </trkpt>
      <trkpt lat="44.41326" lon="5.54997">
        <ele>850.2</ele>
        <time>2021-05-09T09:05:56Z</time>
      </trkpt>
      <trkpt lat="44.41324" lon="5.5499">
        <ele>850.1</ele>
        <time>2021-05-09T09:05:57Z</time>
      </trkpt>
      <trkpt lat="44.4132" lon="5.54986">
        <ele>849.8</ele>
        <time>2021-05-09T09:05:58Z</time>
      </trkpt>
      <trkpt lat="44.41297" lon="5.54988">
        <ele>847</ele>
        <time>2021-05-09T09:06:02Z</time>
      </trkpt>
      <trkpt lat="44.41291" lon="5.54987">
        <ele>846.3</ele>
        <time>2021-05-09T09:06:03Z</time>
      </trkpt>
      <trkpt lat="44.41285" lon="5.54985">
        <ele>845.7</ele>
        <time>2021-05-09T09:06:04Z</time>
      </trkpt>
      <trkpt lat="44.41275" lon="5.54974">
        <ele>844.8</ele>
        <time>2021-05-09T09:06:06Z</time>
      </trkpt>
      <trkpt lat="44.41183" lon="5.54816">
        <ele>842.2</ele>
        <time>2021-05-09T09:06:28Z</time>
      </trkpt>
      <trkpt lat="44.41118" lon="5.54734">
        <ele>841.1</ele>
        <time>2021-05-09T09:06:42Z</time>
      </trkpt>
      <trkpt lat="44.41051" lon="5.54617">
        <ele>839.8</ele>
        <time>2021-05-09T09:07:03Z</time>
      </trkpt>
      <trkpt lat="44.41035" lon="5.54574">
        <ele>839.8</ele>
        <time>2021-05-09T09:07:09Z</time>
      </trkpt>
      <trkpt lat="44.41031" lon="5.54567">
        <ele>839.6</ele>
        <time>2021-05-09T09:07:10Z</time>
      </trkpt>
      <trkpt lat="44.41026" lon="5.54562">
        <ele>838.8</ele>
        <time>2021-05-09T09:07:11Z</time>
      </trkpt>
      <trkpt lat="44.41015" lon="5.54544">
        <ele>838.2</ele>
        <time>2021-05-09T09:07:14Z</time>
      </trkpt>
      <trkpt lat="44.41013" lon="5.54538">
        <ele>838.4</ele>
        <time>2021-05-09T09:07:15Z</time>
      </trkpt>
      <trkpt lat="44.4101" lon="5.54533">
        <ele>838.3</ele>
        <time>2021-05-09T09:07:16Z</time>
      </trkpt>
      <trkpt lat="44.40974" lon="5.54422">
        <ele>844.4</ele>
        <time>2021-05-09T09:07:40Z</time>
      </trkpt>
      <trkpt lat="44.40959" lon="5.54363">
        <ele>844.2</ele>
        <time>2021-05-09T09:07:54Z</time>
      </trkpt>
      <trkpt lat="44.40963" lon="5.54289">
        <ele>844.8</ele>
        <time>2021-05-09T09:08:08Z</time>
      </trkpt>
      <trkpt lat="44.40974" lon="5.54216">
        <ele>843.3</ele>
        <time>2021-05-09T09:08:19Z</time>
      </trkpt>
      <trkpt lat="44.40989" lon="5.54172">
        <ele>842.7</ele>
        <time>2021-05-09T09:08:25Z</time>
      </trkpt>
      <trkpt lat="44.41026" lon="5.54106">
        <ele>841.6</ele>
        <time>2021-05-09T09:08:34Z</time>
      </trkpt>
      <trkpt lat="44.41105" lon="5.54003">
        <ele>842.7</ele>
        <time>2021-05-09T09:08:50Z</time>
      </trkpt>
      <trkpt lat="44.41117" lon="5.53971">
        <ele>843.3</ele>
        <time>2021-05-09T09:08:54Z</time>
      </trkpt>
      <trkpt lat="44.41126" lon="5.5393">
        <ele>843.1</ele>
        <time>2021-05-09T09:08:59Z</time>
      </trkpt>
      <trkpt lat="44.41127" lon="5.53898">
        <ele>843.3</ele>
        <time>2021-05-09T09:09:03Z</time>
      </trkpt>
      <trkpt lat="44.41107" lon="5.53776">
        <ele>844.8</ele>
        <time>2021-05-09T09:09:20Z</time>
      </trkpt>
      <trkpt lat="44.40998" lon="5.53464">
        <ele>830.1</ele>
        <time>2021-05-09T09:09:50Z</time>
      </trkpt>
      <trkpt lat="44.40971" lon="5.534">
        <ele>827.4</ele>
        <time>2021-05-09T09:09:55Z</time>
      </trkpt>
      <trkpt lat="44.40949" lon="5.53368">
        <ele>826.1</ele>
        <time>2021-05-09T09:09:58Z</time>
      </trkpt>
      <trkpt lat="44.40921" lon="5.53343">
        <ele>823.9</ele>
        <time>2021-05-09T09:10:01Z</time>
      </trkpt>
      <trkpt lat="44.40817" lon="5.53291">
        <ele>821.9</ele>
        <time>2021-05-09T09:10:11Z</time>
      </trkpt>
      <trkpt lat="44.40742" lon="5.53286">
        <ele>814.5</ele>
        <time>2021-05-09T09:10:20Z</time>
      </trkpt>
      <trkpt lat="44.40663" lon="5.53222">
        <ele>815.4</ele>
        <time>2021-05-09T09:10:33Z</time>
      </trkpt>
      <trkpt lat="44.40599" lon="5.53192">
        <ele>814.7</ele>
        <time>2021-05-09T09:10:43Z</time>
      </trkpt>
      <trkpt lat="44.40581" lon="5.53179">
        <ele>814.8</ele>
        <time>2021-05-09T09:10:46Z</time>
      </trkpt>
      <trkpt lat="44.40571" lon="5.53167">
        <ele>814.6</ele>
        <time>2021-05-09T09:10:48Z</time>
      </trkpt>
      <trkpt lat="44.4056" lon="5.53143">
        <ele>812.4</ele>
        <time>2021-05-09T09:10:51Z</time>
      </trkpt>
      <trkpt lat="44.40553" lon="5.53118">
        <ele>811</ele>
        <time>2021-05-09T09:10:54Z</time>
      </trkpt>
      <trkpt lat="44.4055" lon="5.53099">
        <ele>810.3</ele>
        <time>2021-05-09T09:10:56Z</time>
      </trkpt>
      <trkpt lat="44.40551" lon="5.53089">
        <ele>810.4</ele>
        <time>2021-05-09T09:10:58Z</time>
      </trkpt>
      <trkpt lat="44.4056" lon="5.53062">
        <ele>808.5</ele>
        <time>2021-05-09T09:11:00Z</time>
      </trkpt>
      <trkpt lat="44.40572" lon="5.5304">
        <ele>807</ele>
        <time>2021-05-09T09:11:03Z</time>
      </trkpt>
      <trkpt lat="44.40588" lon="5.53023">
        <ele>807.3</ele>
        <time>2021-05-09T09:11:06Z</time>
      </trkpt>
      <trkpt lat="44.40632" lon="5.52991">
        <ele>814.4</ele>
        <time>2021-05-09T09:11:12Z</time>
      </trkpt>
      <trkpt lat="44.40639" lon="5.52983">
        <ele>815.5</ele>
        <time>2021-05-09T09:11:13Z</time>
      </trkpt>
      <trkpt lat="44.40651" lon="5.52963">
        <ele>816.4</ele>
        <time>2021-05-09T09:11:15Z</time>
      </trkpt>
      <trkpt lat="44.4066" lon="5.52938">
        <ele>815.8</ele>
        <time>2021-05-09T09:11:17Z</time>
      </trkpt>
      <trkpt lat="44.40663" lon="5.5291">
        <ele>814</ele>
        <time>2021-05-09T09:11:19Z</time>
      </trkpt>
      <trkpt lat="44.40658" lon="5.52869">
        <ele>812.8</ele>
        <time>2021-05-09T09:11:22Z</time>
      </trkpt>
      <trkpt lat="44.40649" lon="5.52844">
        <ele>811.3</ele>
        <time>2021-05-09T09:11:24Z</time>
      </trkpt>
      <trkpt lat="44.40642" lon="5.52833">
        <ele>810.5</ele>
        <time>2021-05-09T09:11:25Z</time>
      </trkpt>
      <trkpt lat="44.40615" lon="5.5281">
        <ele>810.7</ele>
        <time>2021-05-09T09:11:28Z</time>
      </trkpt>
      <trkpt lat="44.40513" lon="5.52768">
        <ele>801.2</ele>
        <time>2021-05-09T09:11:38Z</time>
      </trkpt>
      <trkpt lat="44.40484" lon="5.52744">
        <ele>799</ele>
        <time>2021-05-09T09:11:41Z</time>
      </trkpt>
      <trkpt lat="44.40418" lon="5.52653">
        <ele>796.9</ele>
        <time>2021-05-09T09:11:51Z</time>
      </trkpt>
      <trkpt lat="44.4034" lon="5.52588">
        <ele>796.4</ele>
        <time>2021-05-09T09:12:03Z</time>
      </trkpt>
      <trkpt lat="44.4032" lon="5.5255">
        <ele>797.2</ele>
        <time>2021-05-09T09:12:07Z</time>
      </trkpt>
      <trkpt lat="44.40313" lon="5.52528">
        <ele>797.8</ele>
        <time>2021-05-09T09:12:09Z</time>
      </trkpt>
      <trkpt lat="44.40307" lon="5.5249">
        <ele>797.9</ele>
        <time>2021-05-09T09:12:12Z</time>
      </trkpt>
      <trkpt lat="44.40309" lon="5.52463">
        <ele>796.8</ele>
        <time>2021-05-09T09:12:14Z</time>
      </trkpt>
      <trkpt lat="44.40319" lon="5.52418">
        <ele>794.3</ele>
        <time>2021-05-09T09:12:17Z</time>
      </trkpt>
      <trkpt lat="44.4033" lon="5.52392">
        <ele>790.4</ele>
        <time>2021-05-09T09:12:19Z</time>
      </trkpt>
      <trkpt lat="44.40344" lon="5.52368">
        <ele>788</ele>
        <time>2021-05-09T09:12:21Z</time>
      </trkpt>
      <trkpt lat="44.40365" lon="5.52349">
        <ele>786.6</ele>
        <time>2021-05-09T09:12:23Z</time>
      </trkpt>
      <trkpt lat="44.40535" lon="5.52266">
        <ele>774.4</ele>
        <time>2021-05-09T09:12:37Z</time>
      </trkpt>
      <trkpt lat="44.40605" lon="5.52197">
        <ele>767.9</ele>
        <time>2021-05-09T09:12:44Z</time>
      </trkpt>
      <trkpt lat="44.40622" lon="5.52172">
        <ele>765.7</ele>
        <time>2021-05-09T09:12:46Z</time>
      </trkpt>
      <trkpt lat="44.40635" lon="5.52142">
        <ele>764.1</ele>
        <time>2021-05-09T09:12:48Z</time>
      </trkpt>
      <trkpt lat="44.40641" lon="5.5211">
        <ele>761.5</ele>
        <time>2021-05-09T09:12:50Z</time>
      </trkpt>
      <trkpt lat="44.40639" lon="5.52064">
        <ele>759.6</ele>
        <time>2021-05-09T09:12:53Z</time>
      </trkpt>
      <trkpt lat="44.40582" lon="5.51726">
        <ele>762.7</ele>
        <time>2021-05-09T09:13:24Z</time>
      </trkpt>
      <trkpt lat="44.40564" lon="5.51677">
        <ele>762.3</ele>
        <time>2021-05-09T09:13:30Z</time>
      </trkpt>
      <trkpt lat="44.40529" lon="5.51599">
        <ele>757.6</ele>
        <time>2021-05-09T09:13:40Z</time>
      </trkpt>
      <trkpt lat="44.4052" lon="5.51563">
        <ele>756.2</ele>
        <time>2021-05-09T09:13:44Z</time>
      </trkpt>
      <trkpt lat="44.40517" lon="5.51536">
        <ele>755.7</ele>
        <time>2021-05-09T09:13:47Z</time>
      </trkpt>
      <trkpt lat="44.40524" lon="5.51489">
        <ele>756.9</ele>
        <time>2021-05-09T09:13:52Z</time>
      </trkpt>
      <trkpt lat="44.40533" lon="5.51463">
        <ele>756.9</ele>
        <time>2021-05-09T09:13:55Z</time>
      </trkpt>
      <trkpt lat="44.40602" lon="5.51342">
        <ele>758.8</ele>
        <time>2021-05-09T09:14:12Z</time>
      </trkpt>
      <trkpt lat="44.4061" lon="5.51316">
        <ele>759.5</ele>
        <time>2021-05-09T09:14:15Z</time>
      </trkpt>
      <trkpt lat="44.40612" lon="5.51288">
        <ele>760.4</ele>
        <time>2021-05-09T09:14:18Z</time>
      </trkpt>
      <trkpt lat="44.40608" lon="5.51253">
        <ele>760.3</ele>
        <time>2021-05-09T09:14:22Z</time>
      </trkpt>
      <trkpt lat="44.40596" lon="5.51192">
        <ele>760.1</ele>
        <time>2021-05-09T09:14:29Z</time>
      </trkpt>
      <trkpt lat="44.40595" lon="5.51156">
        <ele>760.8</ele>
        <time>2021-05-09T09:14:33Z</time>
      </trkpt>
      <trkpt lat="44.40604" lon="5.51068">
        <ele>762.6</ele>
        <time>2021-05-09T09:14:43Z</time>
      </trkpt>
      <trkpt lat="44.40586" lon="5.50892">
        <ele>761.3</ele>
        <time>2021-05-09T09:15:03Z</time>
      </trkpt>
      <trkpt lat="44.40582" lon="5.50878">
        <ele>761.6</ele>
        <time>2021-05-09T09:15:05Z</time>
      </trkpt>
      <trkpt lat="44.40571" lon="5.50853">
        <ele>762.2</ele>
        <time>2021-05-09T09:15:09Z</time>
      </trkpt>
      <trkpt lat="44.40556" lon="5.50833">
        <ele>762.1</ele>
        <time>2021-05-09T09:15:13Z</time>
      </trkpt>
      <trkpt lat="44.40538" lon="5.50817">
        <ele>762.5</ele>
        <time>2021-05-09T09:15:17Z</time>
      </trkpt>
      <trkpt lat="44.40516" lon="5.50805">
        <ele>762.6</ele>
        <time>2021-05-09T09:15:21Z</time>
      </trkpt>
      <trkpt lat="44.40415" lon="5.50789">
        <ele>757.7</ele>
        <time>2021-05-09T09:15:35Z</time>
      </trkpt>
      <trkpt lat="44.40399" lon="5.50778">
        <ele>757.3</ele>
        <time>2021-05-09T09:15:37Z</time>
      </trkpt>
      <trkpt lat="44.40342" lon="5.50718">
        <ele>758.4</ele>
        <time>2021-05-09T09:15:44Z</time>
      </trkpt>
      <trkpt lat="44.40229" lon="5.50671">
        <ele>753.2</ele>
        <time>2021-05-09T09:15:56Z</time>
      </trkpt>
      <trkpt lat="44.40155" lon="5.50597">
        <ele>754.4</ele>
        <time>2021-05-09T09:16:07Z</time>
      </trkpt>
      <trkpt lat="44.39968" lon="5.50487">
        <ele>751.4</ele>
        <time>2021-05-09T09:16:38Z</time>
      </trkpt>
      <trkpt lat="44.39964" lon="5.50482">
        <ele>751.5</ele>
        <time>2021-05-09T09:16:39Z</time>
      </trkpt>
      <trkpt lat="44.39961" lon="5.50475">
        <ele>751.8</ele>
        <time>2021-05-09T09:16:40Z</time>
      </trkpt>
      <trkpt lat="44.3996" lon="5.5046">
        <ele>753</ele>
        <time>2021-05-09T09:16:42Z</time>
      </trkpt>
      <trkpt lat="44.39961" lon="5.50419">
        <ele>756.6</ele>
        <time>2021-05-09T09:16:47Z</time>
      </trkpt>
      <trkpt lat="44.3996" lon="5.50402">
        <ele>758.2</ele>
        <time>2021-05-09T09:16:49Z</time>
      </trkpt>
      <trkpt lat="44.39956" lon="5.50386">
        <ele>759.3</ele>
        <time>2021-05-09T09:16:51Z</time>
      </trkpt>
      <trkpt lat="44.39949" lon="5.50372">
        <ele>759.6</ele>
        <time>2021-05-09T09:16:53Z</time>
      </trkpt>
      <trkpt lat="44.39922" lon="5.50349">
        <ele>757</ele>
        <time>2021-05-09T09:16:58Z</time>
      </trkpt>
      <trkpt lat="44.39788" lon="5.50253">
        <ele>753.6</ele>
        <time>2021-05-09T09:17:29Z</time>
      </trkpt>
      <trkpt lat="44.39769" lon="5.50239">
        <ele>752.7</ele>
        <time>2021-05-09T09:17:33Z</time>
      </trkpt>
      <trkpt lat="44.3976" lon="5.50229">
        <ele>752.5</ele>
        <time>2021-05-09T09:17:35Z</time>
      </trkpt>
      <trkpt lat="44.3975" lon="5.50209">
        <ele>752.9</ele>
        <time>2021-05-09T09:17:38Z</time>
      </trkpt>
      <trkpt lat="44.39726" lon="5.50121">
        <ele>756.7</ele>
        <time>2021-05-09T09:17:50Z</time>
      </trkpt>
      <trkpt lat="44.3972" lon="5.50108">
        <ele>757</ele>
        <time>2021-05-09T09:17:52Z</time>
      </trkpt>
      <trkpt lat="44.39702" lon="5.50088">
        <ele>755.4</ele>
        <time>2021-05-09T09:17:56Z</time>
      </trkpt>
      <trkpt lat="44.39635" lon="5.50048">
        <ele>747.5</ele>
        <time>2021-05-09T09:18:07Z</time>
      </trkpt>
      <trkpt lat="44.39624" lon="5.50034">
        <ele>746.8</ele>
        <time>2021-05-09T09:18:09Z</time>
      </trkpt>
      <trkpt lat="44.39524" lon="5.49862">
        <ele>735.6</ele>
        <time>2021-05-09T09:18:26Z</time>
      </trkpt>
      <trkpt lat="44.39514" lon="5.49833">
        <ele>737.2</ele>
        <time>2021-05-09T09:18:28Z</time>
      </trkpt>
      <trkpt lat="44.39511" lon="5.498">
        <ele>735.6</ele>
        <time>2021-05-09T09:18:30Z</time>
      </trkpt>
      <trkpt lat="44.3952" lon="5.49728">
        <ele>738.2</ele>
        <time>2021-05-09T09:18:34Z</time>
      </trkpt>
      <trkpt lat="44.39516" lon="5.49692">
        <ele>736.4</ele>
        <time>2021-05-09T09:18:36Z</time>
      </trkpt>
      <trkpt lat="44.39428" lon="5.49512">
        <ele>723.2</ele>
        <time>2021-05-09T09:18:48Z</time>
      </trkpt>
      <trkpt lat="44.39412" lon="5.49488">
        <ele>723.4</ele>
        <time>2021-05-09T09:18:50Z</time>
      </trkpt>
      <trkpt lat="44.3939" lon="5.4947">
        <ele>724.1</ele>
        <time>2021-05-09T09:18:52Z</time>
      </trkpt>
      <trkpt lat="44.39281" lon="5.49425">
        <ele>713.8</ele>
        <time>2021-05-09T09:19:01Z</time>
      </trkpt>
      <trkpt lat="44.39258" lon="5.49401">
        <ele>712.1</ele>
        <time>2021-05-09T09:19:03Z</time>
      </trkpt>
      <trkpt lat="44.39239" lon="5.4937">
        <ele>710.4</ele>
        <time>2021-05-09T09:19:05Z</time>
      </trkpt>
      <trkpt lat="44.3922" lon="5.49314">
        <ele>705.2</ele>
        <time>2021-05-09T09:19:08Z</time>
      </trkpt>
      <trkpt lat="44.39204" lon="5.49216">
        <ele>693.3</ele>
        <time>2021-05-09T09:19:13Z</time>
      </trkpt>
      <trkpt lat="44.3919" lon="5.49181">
        <ele>692.8</ele>
        <time>2021-05-09T09:19:15Z</time>
      </trkpt>
      <trkpt lat="44.3917" lon="5.49155">
        <ele>694.4</ele>
        <time>2021-05-09T09:19:17Z</time>
      </trkpt>
      <trkpt lat="44.39136" lon="5.49131">
        <ele>695.1</ele>
        <time>2021-05-09T09:19:20Z</time>
      </trkpt>
      <trkpt lat="44.3907" lon="5.49104">
        <ele>693.3</ele>
        <time>2021-05-09T09:19:26Z</time>
      </trkpt>
      <trkpt lat="44.39034" lon="5.49073">
        <ele>694.3</ele>
        <time>2021-05-09T09:19:30Z</time>
      </trkpt>
      <trkpt lat="44.38893" lon="5.48857">
        <ele>687.3</ele>
        <time>2021-05-09T09:20:00Z</time>
      </trkpt>
      <trkpt lat="44.38843" lon="5.48776">
        <ele>688.6</ele>
        <time>2021-05-09T09:20:14Z</time>
      </trkpt>
      <trkpt lat="44.38806" lon="5.48677">
        <ele>688.6</ele>
        <time>2021-05-09T09:20:27Z</time>
      </trkpt>
      <trkpt lat="44.38802" lon="5.48652">
        <ele>688.4</ele>
        <time>2021-05-09T09:20:30Z</time>
      </trkpt>
      <trkpt lat="44.38802" lon="5.48625">
        <ele>688.3</ele>
        <time>2021-05-09T09:20:33Z</time>
      </trkpt>
      <trkpt lat="44.38807" lon="5.48598">
        <ele>688.9</ele>
        <time>2021-05-09T09:20:36Z</time>
      </trkpt>
      <trkpt lat="44.38833" lon="5.4852">
        <ele>689.9</ele>
        <time>2021-05-09T09:20:45Z</time>
      </trkpt>
      <trkpt lat="44.38873" lon="5.48219">
        <ele>686.9</ele>
        <time>2021-05-09T09:21:14Z</time>
      </trkpt>
      <trkpt lat="44.38944" lon="5.47963">
        <ele>683.2</ele>
        <time>2021-05-09T09:21:33Z</time>
      </trkpt>
      <trkpt lat="44.38947" lon="5.4795">
        <ele>683.1</ele>
        <time>2021-05-09T09:21:34Z</time>
      </trkpt>
      <trkpt lat="44.38947" lon="5.47936">
        <ele>682</ele>
        <time>2021-05-09T09:21:35Z</time>
      </trkpt>
      <trkpt lat="44.38941" lon="5.47909">
        <ele>680.1</ele>
        <time>2021-05-09T09:21:37Z</time>
      </trkpt>
      <trkpt lat="44.38929" lon="5.47888">
        <ele>680.4</ele>
        <time>2021-05-09T09:21:39Z</time>
      </trkpt>
      <trkpt lat="44.38913" lon="5.47877">
        <ele>679.4</ele>
        <time>2021-05-09T09:21:41Z</time>
      </trkpt>
      <trkpt lat="44.3885" lon="5.47859">
        <ele>675.9</ele>
        <time>2021-05-09T09:21:49Z</time>
      </trkpt>
      <trkpt lat="44.38823" lon="5.47832">
        <ele>676.9</ele>
        <time>2021-05-09T09:21:53Z</time>
      </trkpt>
      <trkpt lat="44.38812" lon="5.47816">
        <ele>676.6</ele>
        <time>2021-05-09T09:21:55Z</time>
      </trkpt>
      <trkpt lat="44.388" lon="5.47789">
        <ele>676.8</ele>
        <time>2021-05-09T09:21:58Z</time>
      </trkpt>
      <trkpt lat="44.3879" lon="5.47752">
        <ele>677.6</ele>
        <time>2021-05-09T09:22:02Z</time>
      </trkpt>
      <trkpt lat="44.3879" lon="5.47715">
        <ele>678.2</ele>
        <time>2021-05-09T09:22:06Z</time>
      </trkpt>
      <trkpt lat="44.38835" lon="5.47465">
        <ele>678.3</ele>
        <time>2021-05-09T09:22:36Z</time>
      </trkpt>
      <trkpt lat="44.38857" lon="5.47377">
        <ele>678.5</ele>
        <time>2021-05-09T09:22:47Z</time>
      </trkpt>
      <trkpt lat="44.38859" lon="5.4737">
        <ele>678.4</ele>
        <time>2021-05-09T09:22:48Z</time>
      </trkpt>
      <trkpt lat="44.38863" lon="5.47365">
        <ele>678.5</ele>
        <time>2021-05-09T09:22:49Z</time>
      </trkpt>
      <trkpt lat="44.38873" lon="5.47361">
        <ele>679.3</ele>
        <time>2021-05-09T09:22:51Z</time>
      </trkpt>
      <trkpt lat="44.3888" lon="5.47359">
        <ele>679.9</ele>
        <time>2021-05-09T09:22:53Z</time>
      </trkpt>
      <trkpt lat="44.38946" lon="5.47301">
        <ele>681.1</ele>
        <time>2021-05-09T09:23:24Z</time>
      </trkpt>
      <trkpt lat="44.38961" lon="5.47283">
        <ele>679.9</ele>
        <time>2021-05-09T09:23:32Z</time>
      </trkpt>
      <trkpt lat="44.38975" lon="5.47271">
        <ele>679.4</ele>
        <time>2021-05-09T09:23:39Z</time>
      </trkpt>
      <trkpt lat="44.38979" lon="5.47266">
        <ele>678.9</ele>
        <time>2021-05-09T09:24:59Z</time>
      </trkpt>
      <trkpt lat="44.38993" lon="5.4726">
        <ele>679.2</ele>
        <time>2021-05-09T09:25:05Z</time>
      </trkpt>
      <trkpt lat="44.39019" lon="5.47262">
        <ele>679.8</ele>
        <time>2021-05-09T09:25:13Z</time>
      </trkpt>
      <trkpt lat="44.39056" lon="5.4729">
        <ele>683.6</ele>
        <time>2021-05-09T09:25:25Z</time>
      </trkpt>
      <trkpt lat="44.39069" lon="5.47308">
        <ele>685.9</ele>
        <time>2021-05-09T09:25:31Z</time>
      </trkpt>
      <trkpt lat="44.39075" lon="5.47323">
        <ele>687.9</ele>
        <time>2021-05-09T09:25:35Z</time>
      </trkpt>
      <trkpt lat="44.39079" lon="5.47331">
        <ele>688.9</ele>
        <time>2021-05-09T09:25:37Z</time>
      </trkpt>
      <trkpt lat="44.39088" lon="5.47345">
        <ele>690.6</ele>
        <time>2021-05-09T09:25:40Z</time>
      </trkpt>
      <trkpt lat="44.39104" lon="5.47357">
        <ele>691.1</ele>
        <time>2021-05-09T09:25:43Z</time>
      </trkpt>
      <trkpt lat="44.39218" lon="5.47407">
        <ele>688.2</ele>
        <time>2021-05-09T09:26:06Z</time>
      </trkpt>
      <trkpt lat="44.39239" lon="5.47428">
        <ele>688.9</ele>
        <time>2021-05-09T09:26:11Z</time>
      </trkpt>
      <trkpt lat="44.39265" lon="5.47458">
        <ele>692.1</ele>
        <time>2021-05-09T09:26:18Z</time>
      </trkpt>
      <trkpt lat="44.39278" lon="5.47468">
        <ele>693</ele>
        <time>2021-05-09T09:26:21Z</time>
      </trkpt>
      <trkpt lat="44.39294" lon="5.47474">
        <ele>693.3</ele>
        <time>2021-05-09T09:26:24Z</time>
      </trkpt>
      <trkpt lat="44.39299" lon="5.47476">
        <ele>693.3</ele>
        <time>2021-05-09T09:26:25Z</time>
      </trkpt>
      <trkpt lat="44.39307" lon="5.47474">
        <ele>693.1</ele>
        <time>2021-05-09T09:26:27Z</time>
      </trkpt>
      <trkpt lat="44.39314" lon="5.47469">
        <ele>692.8</ele>
        <time>2021-05-09T09:26:29Z</time>
      </trkpt>
      <trkpt lat="44.39319" lon="5.47461">
        <ele>692.5</ele>
        <time>2021-05-09T09:26:31Z</time>
      </trkpt>
      <trkpt lat="44.39322" lon="5.4745">
        <ele>692.2</ele>
        <time>2021-05-09T09:26:33Z</time>
      </trkpt>
      <trkpt lat="44.393" lon="5.47316">
        <ele>694.8</ele>
        <time>2021-05-09T09:27:03Z</time>
      </trkpt>
      <trkpt lat="44.39304" lon="5.47283">
        <ele>697.7</ele>
        <time>2021-05-09T09:27:11Z</time>
      </trkpt>
      <trkpt lat="44.39305" lon="5.47275">
        <ele>698.4</ele>
        <time>2021-05-09T09:27:13Z</time>
      </trkpt>
      <trkpt lat="44.39309" lon="5.47237">
        <ele>702.3</ele>
        <time>2021-05-09T09:27:23Z</time>
      </trkpt>
      <trkpt lat="44.39308" lon="5.47223">
        <ele>703.5</ele>
        <time>2021-05-09T09:27:27Z</time>
      </trkpt>
      <trkpt lat="44.39297" lon="5.47197">
        <ele>704.5</ele>
        <time>2021-05-09T09:27:35Z</time>
      </trkpt>
      <trkpt lat="44.39295" lon="5.47191">
        <ele>704.9</ele>
        <time>2021-05-09T09:27:37Z</time>
      </trkpt>
      <trkpt lat="44.39289" lon="5.47177">
        <ele>705.5</ele>
        <time>2021-05-09T09:27:42Z</time>
      </trkpt>
      <trkpt lat="44.39281" lon="5.47158">
        <ele>705.9</ele>
        <time>2021-05-09T09:27:48Z</time>
      </trkpt>
      <trkpt lat="44.39276" lon="5.47146">
        <ele>705.8</ele>
        <time>2021-05-09T09:27:52Z</time>
      </trkpt>
      <trkpt lat="44.3927" lon="5.47134">
        <ele>705.6</ele>
        <time>2021-05-09T09:27:56Z</time>
      </trkpt>
      <trkpt lat="44.39262" lon="5.47122">
        <ele>705.2</ele>
        <time>2021-05-09T09:28:03Z</time>
      </trkpt>
      <trkpt lat="44.39259" lon="5.47108">
        <ele>705.6</ele>
        <time>2021-05-09T09:28:10Z</time>
      </trkpt>
      <trkpt lat="44.39259" lon="5.47102">
        <ele>705.9</ele>
        <time>2021-05-09T09:28:13Z</time>
      </trkpt>
      <trkpt lat="44.39262" lon="5.47096">
        <ele>706.6</ele>
        <time>2021-05-09T09:28:15Z</time>
      </trkpt>
      <trkpt lat="44.39275" lon="5.4708">
        <ele>708.5</ele>
        <time>2021-05-09T09:28:23Z</time>
      </trkpt>
      <trkpt lat="44.3929" lon="5.47056">
        <ele>708.5</ele>
        <time>2021-05-09T09:28:33Z</time>
      </trkpt>
      <trkpt lat="44.39295" lon="5.47051">
        <ele>708.7</ele>
        <time>2021-05-09T09:28:36Z</time>
      </trkpt>
      <trkpt lat="44.39326" lon="5.47042">
        <ele>711.3</ele>
        <time>2021-05-09T09:28:49Z</time>
      </trkpt>
      <trkpt lat="44.39334" lon="5.47035">
        <ele>711.6</ele>
        <time>2021-05-09T09:28:53Z</time>
      </trkpt>
      <trkpt lat="44.39366" lon="5.46992">
        <ele>713.6</ele>
        <time>2021-05-09T09:29:07Z</time>
      </trkpt>
      <trkpt lat="44.3938" lon="5.4697">
        <ele>714.5</ele>
        <time>2021-05-09T09:29:13Z</time>
      </trkpt>
      <trkpt lat="44.39407" lon="5.46895">
        <ele>714.3</ele>
        <time>2021-05-09T09:29:29Z</time>
      </trkpt>
      <trkpt lat="44.39414" lon="5.4686">
        <ele>713.3</ele>
        <time>2021-05-09T09:29:35Z</time>
      </trkpt>
      <trkpt lat="44.3942" lon="5.46843">
        <ele>712.9</ele>
        <time>2021-05-09T09:29:38Z</time>
      </trkpt>
      <trkpt lat="44.39428" lon="5.46833">
        <ele>713.1</ele>
        <time>2021-05-09T09:29:40Z</time>
      </trkpt>
      <trkpt lat="44.39473" lon="5.46802">
        <ele>714</ele>
        <time>2021-05-09T09:29:49Z</time>
      </trkpt>
      <trkpt lat="44.39496" lon="5.46773">
        <ele>711.9</ele>
        <time>2021-05-09T09:29:54Z</time>
      </trkpt>
      <trkpt lat="44.39508" lon="5.46755">
        <ele>710.5</ele>
        <time>2021-05-09T09:29:57Z</time>
      </trkpt>
      <trkpt lat="44.39523" lon="5.46743">
        <ele>710.7</ele>
        <time>2021-05-09T09:30:00Z</time>
      </trkpt>
      <trkpt lat="44.39528" lon="5.46739">
        <ele>710.9</ele>
        <time>2021-05-09T09:30:01Z</time>
      </trkpt>
      <trkpt lat="44.39544" lon="5.46715">
        <ele>710.7</ele>
        <time>2021-05-09T09:30:05Z</time>
      </trkpt>
      <trkpt lat="44.3955" lon="5.46696">
        <ele>710</ele>
        <time>2021-05-09T09:30:07Z</time>
      </trkpt>
      <trkpt lat="44.39552" lon="5.46685">
        <ele>709.4</ele>
        <time>2021-05-09T09:30:08Z</time>
      </trkpt>
      <trkpt lat="44.39548" lon="5.46662">
        <ele>707</ele>
        <time>2021-05-09T09:30:10Z</time>
      </trkpt>
      <trkpt lat="44.39538" lon="5.46629">
        <ele>703.2</ele>
        <time>2021-05-09T09:30:13Z</time>
      </trkpt>
      <trkpt lat="44.39535" lon="5.46618">
        <ele>702</ele>
        <time>2021-05-09T09:30:14Z</time>
      </trkpt>
      <trkpt lat="44.39534" lon="5.46606">
        <ele>701.2</ele>
        <time>2021-05-09T09:30:15Z</time>
      </trkpt>
      <trkpt lat="44.39541" lon="5.46584">
        <ele>701.4</ele>
        <time>2021-05-09T09:30:17Z</time>
      </trkpt>
      <trkpt lat="44.39572" lon="5.46536">
        <ele>705.9</ele>
        <time>2021-05-09T09:30:22Z</time>
      </trkpt>
      <trkpt lat="44.39579" lon="5.46516">
        <ele>706.6</ele>
        <time>2021-05-09T09:30:24Z</time>
      </trkpt>
      <trkpt lat="44.3958" lon="5.46504">
        <ele>706.4</ele>
        <time>2021-05-09T09:30:25Z</time>
      </trkpt>
      <trkpt lat="44.39578" lon="5.46493">
        <ele>706.7</ele>
        <time>2021-05-09T09:30:26Z</time>
      </trkpt>
      <trkpt lat="44.39564" lon="5.46473">
        <ele>705.8</ele>
        <time>2021-05-09T09:30:29Z</time>
      </trkpt>
      <trkpt lat="44.39555" lon="5.46466">
        <ele>704.5</ele>
        <time>2021-05-09T09:30:31Z</time>
      </trkpt>
      <trkpt lat="44.39549" lon="5.4646">
        <ele>703.8</ele>
        <time>2021-05-09T09:30:33Z</time>
      </trkpt>
      <trkpt lat="44.39536" lon="5.46406">
        <ele>705.3</ele>
        <time>2021-05-09T09:30:42Z</time>
      </trkpt>
      <trkpt lat="44.3953" lon="5.46367">
        <ele>704.6</ele>
        <time>2021-05-09T09:30:48Z</time>
      </trkpt>
      <trkpt lat="44.39536" lon="5.46318">
        <ele>706.3</ele>
        <time>2021-05-09T09:30:55Z</time>
      </trkpt>
      <trkpt lat="44.39551" lon="5.46259">
        <ele>707.5</ele>
        <time>2021-05-09T09:31:04Z</time>
      </trkpt>
      <trkpt lat="44.39555" lon="5.46229">
        <ele>707.3</ele>
        <time>2021-05-09T09:31:08Z</time>
      </trkpt>
      <trkpt lat="44.39556" lon="5.46077">
        <ele>706</ele>
        <time>2021-05-09T09:31:31Z</time>
      </trkpt>
      <trkpt lat="44.39566" lon="5.46032">
        <ele>705.3</ele>
        <time>2021-05-09T09:31:38Z</time>
      </trkpt>
      <trkpt lat="44.3957" lon="5.46021">
        <ele>705.3</ele>
        <time>2021-05-09T09:31:40Z</time>
      </trkpt>
      <trkpt lat="44.39582" lon="5.46007">
        <ele>706.4</ele>
        <time>2021-05-09T09:31:44Z</time>
      </trkpt>
      <trkpt lat="44.3967" lon="5.45976">
        <ele>713</ele>
        <time>2021-05-09T09:32:12Z</time>
      </trkpt>
      <trkpt lat="44.39755" lon="5.45991">
        <ele>720.5</ele>
        <time>2021-05-09T09:32:42Z</time>
      </trkpt>
      <trkpt lat="44.3978" lon="5.46045">
        <ele>730.1</ele>
        <time>2021-05-09T09:32:58Z</time>
      </trkpt>
      <trkpt lat="44.39792" lon="5.46047">
        <ele>731.5</ele>
        <time>2021-05-09T09:33:02Z</time>
      </trkpt>
      <trkpt lat="44.39797" lon="5.46047">
        <ele>732</ele>
        <time>2021-05-09T09:33:54Z</time>
      </trkpt>
      <trkpt lat="44.39799" lon="5.4604">
        <ele>731.7</ele>
        <time>2021-05-09T09:33:59Z</time>
      </trkpt>
      <trkpt lat="44.39801" lon="5.46031">
        <ele>731.2</ele>
        <time>2021-05-09T09:34:02Z</time>
      </trkpt>
      <trkpt lat="44.39798" lon="5.45963">
        <ele>723.7</ele>
        <time>2021-05-09T09:34:20Z</time>
      </trkpt>
      <trkpt lat="44.39798" lon="5.45955">
        <ele>722.6</ele>
        <time>2021-05-09T09:34:22Z</time>
      </trkpt>
      <trkpt lat="44.39801" lon="5.45948">
        <ele>722.2</ele>
        <time>2021-05-09T09:34:24Z</time>
      </trkpt>
      <trkpt lat="44.39805" lon="5.45942">
        <ele>722.1</ele>
        <time>2021-05-09T09:34:26Z</time>
      </trkpt>
      <trkpt lat="44.3989" lon="5.45907">
        <ele>734</ele>
        <time>2021-05-09T09:34:56Z</time>
      </trkpt>
      <trkpt lat="44.39901" lon="5.45903">
        <ele>735.8</ele>
        <time>2021-05-09T09:35:00Z</time>
      </trkpt>
      <trkpt lat="44.39906" lon="5.459">
        <ele>736.5</ele>
        <time>2021-05-09T09:35:02Z</time>
      </trkpt>
      <trkpt lat="44.39917" lon="5.45895">
        <ele>738.3</ele>
        <time>2021-05-09T09:35:06Z</time>
      </trkpt>
      <trkpt lat="44.39931" lon="5.45885">
        <ele>741.1</ele>
        <time>2021-05-09T09:35:12Z</time>
      </trkpt>
      <trkpt lat="44.39935" lon="5.4588">
        <ele>741.8</ele>
        <time>2021-05-09T09:35:14Z</time>
      </trkpt>
      <trkpt lat="44.39942" lon="5.45865">
        <ele>742.3</ele>
        <time>2021-05-09T09:35:18Z</time>
      </trkpt>
      <trkpt lat="44.39945" lon="5.45843">
        <ele>741.3</ele>
        <time>2021-05-09T09:35:24Z</time>
      </trkpt>
      <trkpt lat="44.39972" lon="5.45762">
        <ele>743.3</ele>
        <time>2021-05-09T09:35:48Z</time>
      </trkpt>
      <trkpt lat="44.39983" lon="5.45747">
        <ele>744.6</ele>
        <time>2021-05-09T09:35:54Z</time>
      </trkpt>
      <trkpt lat="44.39988" lon="5.4574">
        <ele>744.4</ele>
        <time>2021-05-09T09:35:57Z</time>
      </trkpt>
      <trkpt lat="44.39992" lon="5.45738">
        <ele>744.8</ele>
        <time>2021-05-09T09:35:59Z</time>
      </trkpt>
      <trkpt lat="44.40005" lon="5.45723">
        <ele>744</ele>
        <time>2021-05-09T09:36:05Z</time>
      </trkpt>
      <trkpt lat="44.40026" lon="5.45711">
        <ele>743.5</ele>
        <time>2021-05-09T09:36:13Z</time>
      </trkpt>
      <trkpt lat="44.40036" lon="5.45707">
        <ele>743.4</ele>
        <time>2021-05-09T09:36:17Z</time>
      </trkpt>
      <trkpt lat="44.40117" lon="5.45717">
        <ele>749.5</ele>
        <time>2021-05-09T09:36:47Z</time>
      </trkpt>
      <trkpt lat="44.40198" lon="5.45762">
        <ele>759.7</ele>
        <time>2021-05-09T09:37:19Z</time>
      </trkpt>
      <trkpt lat="44.40269" lon="5.45813">
        <ele>770.4</ele>
        <time>2021-05-09T09:37:49Z</time>
      </trkpt>
      <trkpt lat="44.40345" lon="5.4587">
        <ele>774.4</ele>
        <time>2021-05-09T09:38:21Z</time>
      </trkpt>
      <trkpt lat="44.40391" lon="5.45968">
        <ele>788.4</ele>
        <time>2021-05-09T09:38:53Z</time>
      </trkpt>
      <trkpt lat="44.40445" lon="5.46049">
        <ele>799.7</ele>
        <time>2021-05-09T09:39:23Z</time>
      </trkpt>
      <trkpt lat="44.40526" lon="5.46095">
        <ele>805.4</ele>
        <time>2021-05-09T09:39:55Z</time>
      </trkpt>
      <trkpt lat="44.40552" lon="5.4609">
        <ele>805.8</ele>
        <time>2021-05-09T09:40:06Z</time>
      </trkpt>
      <trkpt lat="44.4057" lon="5.46086">
        <ele>806.3</ele>
        <time>2021-05-09T09:40:14Z</time>
      </trkpt>
      <trkpt lat="44.40574" lon="5.46084">
        <ele>806.2</ele>
        <time>2021-05-09T09:40:16Z</time>
      </trkpt>
      <trkpt lat="44.4058" lon="5.46079">
        <ele>806.7</ele>
        <time>2021-05-09T09:40:19Z</time>
      </trkpt>
      <trkpt lat="44.40582" lon="5.46073">
        <ele>807</ele>
        <time>2021-05-09T09:40:21Z</time>
      </trkpt>
      <trkpt lat="44.4058" lon="5.46065">
        <ele>806.8</ele>
        <time>2021-05-09T09:40:23Z</time>
      </trkpt>
      <trkpt lat="44.40571" lon="5.46053">
        <ele>805.4</ele>
        <time>2021-05-09T09:40:27Z</time>
      </trkpt>
      <trkpt lat="44.40565" lon="5.46047">
        <ele>804.3</ele>
        <time>2021-05-09T09:40:29Z</time>
      </trkpt>
      <trkpt lat="44.40559" lon="5.46031">
        <ele>802.7</ele>
        <time>2021-05-09T09:40:33Z</time>
      </trkpt>
      <trkpt lat="44.40558" lon="5.46025">
        <ele>802.3</ele>
        <time>2021-05-09T09:40:35Z</time>
      </trkpt>
      <trkpt lat="44.40555" lon="5.4601">
        <ele>801</ele>
        <time>2021-05-09T09:40:39Z</time>
      </trkpt>
      <trkpt lat="44.40554" lon="5.46">
        <ele>800.3</ele>
        <time>2021-05-09T09:40:41Z</time>
      </trkpt>
      <trkpt lat="44.40572" lon="5.4594">
        <ele>802.8</ele>
        <time>2021-05-09T09:40:53Z</time>
      </trkpt>
      <trkpt lat="44.40581" lon="5.45924">
        <ele>804.6</ele>
        <time>2021-05-09T09:40:57Z</time>
      </trkpt>
      <trkpt lat="44.40607" lon="5.45911">
        <ele>812</ele>
        <time>2021-05-09T09:41:05Z</time>
      </trkpt>
      <trkpt lat="44.40613" lon="5.45907">
        <ele>813.9</ele>
        <time>2021-05-09T09:41:07Z</time>
      </trkpt>
      <trkpt lat="44.40616" lon="5.45901">
        <ele>815</ele>
        <time>2021-05-09T09:41:09Z</time>
      </trkpt>
      <trkpt lat="44.40618" lon="5.45893">
        <ele>815.9</ele>
        <time>2021-05-09T09:41:11Z</time>
      </trkpt>
      <trkpt lat="44.40613" lon="5.45878">
        <ele>814.8</ele>
        <time>2021-05-09T09:41:15Z</time>
      </trkpt>
      <trkpt lat="44.40593" lon="5.45851">
        <ele>809</ele>
        <time>2021-05-09T09:41:23Z</time>
      </trkpt>
      <trkpt lat="44.40571" lon="5.4581">
        <ele>806.9</ele>
        <time>2021-05-09T09:41:37Z</time>
      </trkpt>
      <trkpt lat="44.40561" lon="5.4579">
        <ele>807.6</ele>
        <time>2021-05-09T09:41:43Z</time>
      </trkpt>
      <trkpt lat="44.40559" lon="5.45783">
        <ele>808.2</ele>
        <time>2021-05-09T09:41:45Z</time>
      </trkpt>
      <trkpt lat="44.40558" lon="5.45776">
        <ele>809.2</ele>
        <time>2021-05-09T09:41:47Z</time>
      </trkpt>
      <trkpt lat="44.40557" lon="5.45759">
        <ele>811.9</ele>
        <time>2021-05-09T09:41:52Z</time>
      </trkpt>
      <trkpt lat="44.40556" lon="5.45744">
        <ele>814</ele>
        <time>2021-05-09T09:41:56Z</time>
      </trkpt>
      <trkpt lat="44.40557" lon="5.45735">
        <ele>815.5</ele>
        <time>2021-05-09T09:41:58Z</time>
      </trkpt>
      <trkpt lat="44.40563" lon="5.45704">
        <ele>821.5</ele>
        <time>2021-05-09T09:42:07Z</time>
      </trkpt>
      <trkpt lat="44.4057" lon="5.45692">
        <ele>825.1</ele>
        <time>2021-05-09T09:42:12Z</time>
      </trkpt>
      <trkpt lat="44.40572" lon="5.45683">
        <ele>826.8</ele>
        <time>2021-05-09T09:42:15Z</time>
      </trkpt>
      <trkpt lat="44.40566" lon="5.45669">
        <ele>826.9</ele>
        <time>2021-05-09T09:42:19Z</time>
      </trkpt>
      <trkpt lat="44.40528" lon="5.45646">
        <ele>821.4</ele>
        <time>2021-05-09T09:42:33Z</time>
      </trkpt>
      <trkpt lat="44.40522" lon="5.45641">
        <ele>820.8</ele>
        <time>2021-05-09T09:42:35Z</time>
      </trkpt>
      <trkpt lat="44.40516" lon="5.45626">
        <ele>822.6</ele>
        <time>2021-05-09T09:42:39Z</time>
      </trkpt>
      <trkpt lat="44.40514" lon="5.45603">
        <ele>827.3</ele>
        <time>2021-05-09T09:42:46Z</time>
      </trkpt>
      <trkpt lat="44.40511" lon="5.45596">
        <ele>828</ele>
        <time>2021-05-09T09:42:48Z</time>
      </trkpt>
      <trkpt lat="44.40469" lon="5.45537">
        <ele>833.1</ele>
        <time>2021-05-09T09:43:14Z</time>
      </trkpt>
      <trkpt lat="44.40464" lon="5.45531">
        <ele>833.5</ele>
        <time>2021-05-09T09:43:17Z</time>
      </trkpt>
      <trkpt lat="44.40455" lon="5.45526">
        <ele>832.4</ele>
        <time>2021-05-09T09:43:21Z</time>
      </trkpt>
      <trkpt lat="44.40395" lon="5.45467">
        <ele>830</ele>
        <time>2021-05-09T09:43:50Z</time>
      </trkpt>
      <trkpt lat="44.40383" lon="5.45445">
        <ele>831.5</ele>
        <time>2021-05-09T09:43:58Z</time>
      </trkpt>
      <trkpt lat="44.40378" lon="5.45426">
        <ele>834.2</ele>
        <time>2021-05-09T09:44:04Z</time>
      </trkpt>
      <trkpt lat="44.40373" lon="5.45384">
        <ele>836.8</ele>
        <time>2021-05-09T09:44:17Z</time>
      </trkpt>
      <trkpt lat="44.40375" lon="5.45354">
        <ele>838.9</ele>
        <time>2021-05-09T09:44:25Z</time>
      </trkpt>
      <trkpt lat="44.40388" lon="5.45301">
        <ele>841.4</ele>
        <time>2021-05-09T09:44:41Z</time>
      </trkpt>
      <trkpt lat="44.40432" lon="5.45207">
        <ele>847.6</ele>
        <time>2021-05-09T09:45:13Z</time>
      </trkpt>
      <trkpt lat="44.4048" lon="5.45125">
        <ele>854.8</ele>
        <time>2021-05-09T09:45:43Z</time>
      </trkpt>
      <trkpt lat="44.40502" lon="5.45081">
        <ele>857.3</ele>
        <time>2021-05-09T09:45:58Z</time>
      </trkpt>
      <trkpt lat="44.40509" lon="5.45073">
        <ele>858.4</ele>
        <time>2021-05-09T09:46:02Z</time>
      </trkpt>
      <trkpt lat="44.40513" lon="5.45061">
        <ele>858.2</ele>
        <time>2021-05-09T09:46:06Z</time>
      </trkpt>
      <trkpt lat="44.40521" lon="5.45048">
        <ele>858.7</ele>
        <time>2021-05-09T09:46:12Z</time>
      </trkpt>
      <trkpt lat="44.40553" lon="5.4502">
        <ele>862.2</ele>
        <time>2021-05-09T09:46:28Z</time>
      </trkpt>
      <trkpt lat="44.40558" lon="5.45017">
        <ele>862.8</ele>
        <time>2021-05-09T09:46:30Z</time>
      </trkpt>
      <trkpt lat="44.406" lon="5.45013">
        <ele>868.6</ele>
        <time>2021-05-09T09:46:48Z</time>
      </trkpt>
      <trkpt lat="44.40607" lon="5.45013">
        <ele>869.2</ele>
        <time>2021-05-09T09:46:51Z</time>
      </trkpt>
      <trkpt lat="44.40612" lon="5.45012">
        <ele>869.3</ele>
        <time>2021-05-09T09:46:53Z</time>
      </trkpt>
      <trkpt lat="44.40627" lon="5.45007">
        <ele>869.3</ele>
        <time>2021-05-09T09:46:59Z</time>
      </trkpt>
      <trkpt lat="44.40658" lon="5.44998">
        <ele>868.8</ele>
        <time>2021-05-09T09:47:13Z</time>
      </trkpt>
      <trkpt lat="44.40735" lon="5.45011">
        <ele>873</ele>
        <time>2021-05-09T09:47:45Z</time>
      </trkpt>
      <trkpt lat="44.40772" lon="5.45034">
        <ele>881.1</ele>
        <time>2021-05-09T09:48:02Z</time>
      </trkpt>
      <trkpt lat="44.40799" lon="5.45053">
        <ele>887</ele>
        <time>2021-05-09T09:48:14Z</time>
      </trkpt>
      <trkpt lat="44.40809" lon="5.45058">
        <ele>888.3</ele>
        <time>2021-05-09T09:48:18Z</time>
      </trkpt>
      <trkpt lat="44.40829" lon="5.45058">
        <ele>887.8</ele>
        <time>2021-05-09T09:48:26Z</time>
      </trkpt>
      <trkpt lat="44.40847" lon="5.45057">
        <ele>888.6</ele>
        <time>2021-05-09T09:48:33Z</time>
      </trkpt>
      <trkpt lat="44.40871" lon="5.45049">
        <ele>888.7</ele>
        <time>2021-05-09T09:48:42Z</time>
      </trkpt>
      <trkpt lat="44.40889" lon="5.4504">
        <ele>888.3</ele>
        <time>2021-05-09T09:48:50Z</time>
      </trkpt>
      <trkpt lat="44.40936" lon="5.45036">
        <ele>894.4</ele>
        <time>2021-05-09T09:49:10Z</time>
      </trkpt>
      <trkpt lat="44.40956" lon="5.45025">
        <ele>896.7</ele>
        <time>2021-05-09T09:49:18Z</time>
      </trkpt>
      <trkpt lat="44.40972" lon="5.45005">
        <ele>897.1</ele>
        <time>2021-05-09T09:49:28Z</time>
      </trkpt>
      <trkpt lat="44.40986" lon="5.44997">
        <ele>899.3</ele>
        <time>2021-05-09T09:49:34Z</time>
      </trkpt>
      <trkpt lat="44.4099" lon="5.44994">
        <ele>899.9</ele>
        <time>2021-05-09T09:49:36Z</time>
      </trkpt>
      <trkpt lat="44.40995" lon="5.44979">
        <ele>899.5</ele>
        <time>2021-05-09T09:49:41Z</time>
      </trkpt>
      <trkpt lat="44.41001" lon="5.44938">
        <ele>896.5</ele>
        <time>2021-05-09T09:49:55Z</time>
      </trkpt>
      <trkpt lat="44.41005" lon="5.44913">
        <ele>894.4</ele>
        <time>2021-05-09T09:50:04Z</time>
      </trkpt>
      <trkpt lat="44.4101" lon="5.44901">
        <ele>892.9</ele>
        <time>2021-05-09T09:50:08Z</time>
      </trkpt>
      <trkpt lat="44.41014" lon="5.44894">
        <ele>892.1</ele>
        <time>2021-05-09T09:50:11Z</time>
      </trkpt>
      <trkpt lat="44.41018" lon="5.44891">
        <ele>892.2</ele>
        <time>2021-05-09T09:50:13Z</time>
      </trkpt>
      <trkpt lat="44.41094" lon="5.44882">
        <ele>901.9</ele>
        <time>2021-05-09T09:50:44Z</time>
      </trkpt>
      <trkpt lat="44.4116" lon="5.44905">
        <ele>910.8</ele>
        <time>2021-05-09T09:51:16Z</time>
      </trkpt>
      <trkpt lat="44.4117" lon="5.44914">
        <ele>913.5</ele>
        <time>2021-05-09T09:51:22Z</time>
      </trkpt>
      <trkpt lat="44.4123" lon="5.44966">
        <ele>921.4</ele>
        <time>2021-05-09T09:51:55Z</time>
      </trkpt>
      <trkpt lat="44.41293" lon="5.45019">
        <ele>930</ele>
        <time>2021-05-09T09:52:27Z</time>
      </trkpt>
      <trkpt lat="44.41318" lon="5.45039">
        <ele>931.8</ele>
        <time>2021-05-09T09:52:38Z</time>
      </trkpt>
      <trkpt lat="44.41343" lon="5.45054">
        <ele>933.8</ele>
        <time>2021-05-09T09:52:50Z</time>
      </trkpt>
      <trkpt lat="44.41349" lon="5.45057">
        <ele>934.6</ele>
        <time>2021-05-09T09:52:53Z</time>
      </trkpt>
      <trkpt lat="44.41359" lon="5.45064">
        <ele>936.5</ele>
        <time>2021-05-09T09:52:58Z</time>
      </trkpt>
      <trkpt lat="44.41369" lon="5.45068">
        <ele>937.3</ele>
        <time>2021-05-09T09:53:02Z</time>
      </trkpt>
      <trkpt lat="44.41436" lon="5.45076">
        <ele>940.2</ele>
        <time>2021-05-09T09:53:31Z</time>
      </trkpt>
      <trkpt lat="44.41448" lon="5.45074">
        <ele>941.5</ele>
        <time>2021-05-09T09:53:35Z</time>
      </trkpt>
      <trkpt lat="44.41458" lon="5.4507">
        <ele>942.2</ele>
        <time>2021-05-09T09:53:39Z</time>
      </trkpt>
      <trkpt lat="44.4147" lon="5.45057">
        <ele>941.8</ele>
        <time>2021-05-09T09:53:45Z</time>
      </trkpt>
      <trkpt lat="44.41482" lon="5.45032">
        <ele>939.7</ele>
        <time>2021-05-09T09:53:54Z</time>
      </trkpt>
      <trkpt lat="44.41488" lon="5.45016">
        <ele>938.3</ele>
        <time>2021-05-09T09:54:00Z</time>
      </trkpt>
      <trkpt lat="44.41492" lon="5.45007">
        <ele>937.6</ele>
        <time>2021-05-09T09:54:03Z</time>
      </trkpt>
      <trkpt lat="44.41498" lon="5.45">
        <ele>937.6</ele>
        <time>2021-05-09T09:54:06Z</time>
      </trkpt>
      <trkpt lat="44.41504" lon="5.44998">
        <ele>936.2</ele>
        <time>2021-05-09T09:54:08Z</time>
      </trkpt>
      <trkpt lat="44.41535" lon="5.45085">
        <ele>941.9</ele>
        <time>2021-05-09T09:54:39Z</time>
      </trkpt>
      <trkpt lat="44.41558" lon="5.45197">
        <ele>958.7</ele>
        <time>2021-05-09T09:55:11Z</time>
      </trkpt>
      <trkpt lat="44.4156" lon="5.45231">
        <ele>965.5</ele>
        <time>2021-05-09T09:55:20Z</time>
      </trkpt>
      <trkpt lat="44.41561" lon="5.45241">
        <ele>967.3</ele>
        <time>2021-05-09T09:55:23Z</time>
      </trkpt>
      <trkpt lat="44.41562" lon="5.45269">
        <ele>973.4</ele>
        <time>2021-05-09T09:55:32Z</time>
      </trkpt>
      <trkpt lat="44.41587" lon="5.45385">
        <ele>988.7</ele>
        <time>2021-05-09T09:56:02Z</time>
      </trkpt>
      <trkpt lat="44.41592" lon="5.45396">
        <ele>988.4</ele>
        <time>2021-05-09T09:56:05Z</time>
      </trkpt>
      <trkpt lat="44.41631" lon="5.45498">
        <ele>991.5</ele>
        <time>2021-05-09T09:56:35Z</time>
      </trkpt>
      <trkpt lat="44.41677" lon="5.45596">
        <ele>993.6</ele>
        <time>2021-05-09T09:57:06Z</time>
      </trkpt>
      <trkpt lat="44.41684" lon="5.45603">
        <ele>992.7</ele>
        <time>2021-05-09T09:57:09Z</time>
      </trkpt>
      <trkpt lat="44.41703" lon="5.45624">
        <ele>990.6</ele>
        <time>2021-05-09T09:57:18Z</time>
      </trkpt>
      <trkpt lat="44.41708" lon="5.45633">
        <ele>991.1</ele>
        <time>2021-05-09T09:57:21Z</time>
      </trkpt>
      <trkpt lat="44.41715" lon="5.45643">
        <ele>990.8</ele>
        <time>2021-05-09T09:57:25Z</time>
      </trkpt>
      <trkpt lat="44.4172" lon="5.45653">
        <ele>991.4</ele>
        <time>2021-05-09T09:57:29Z</time>
      </trkpt>
      <trkpt lat="44.41747" lon="5.45704">
        <ele>993.2</ele>
        <time>2021-05-09T09:57:44Z</time>
      </trkpt>
      <trkpt lat="44.41756" lon="5.45724">
        <ele>995.6</ele>
        <time>2021-05-09T09:57:50Z</time>
      </trkpt>
      <trkpt lat="44.41763" lon="5.45742">
        <ele>998.4</ele>
        <time>2021-05-09T09:57:56Z</time>
      </trkpt>
      <trkpt lat="44.41771" lon="5.45761">
        <ele>1000.4</ele>
        <time>2021-05-09T09:58:04Z</time>
      </trkpt>
      <trkpt lat="44.41776" lon="5.45776">
        <ele>1001.9</ele>
        <time>2021-05-09T09:58:09Z</time>
      </trkpt>
      <trkpt lat="44.41779" lon="5.4579">
        <ele>1003.9</ele>
        <time>2021-05-09T09:58:14Z</time>
      </trkpt>
      <trkpt lat="44.41783" lon="5.45804">
        <ele>1005.5</ele>
        <time>2021-05-09T09:58:19Z</time>
      </trkpt>
      <trkpt lat="44.41787" lon="5.4582">
        <ele>1007.4</ele>
        <time>2021-05-09T09:58:24Z</time>
      </trkpt>
      <trkpt lat="44.41793" lon="5.45836">
        <ele>1008.6</ele>
        <time>2021-05-09T09:58:28Z</time>
      </trkpt>
      <trkpt lat="44.41814" lon="5.45879">
        <ele>1009.2</ele>
        <time>2021-05-09T09:58:35Z</time>
      </trkpt>
      <trkpt lat="44.41824" lon="5.45898">
        <ele>1008.6</ele>
        <time>2021-05-09T09:58:41Z</time>
      </trkpt>
      <trkpt lat="44.41828" lon="5.45907">
        <ele>1008.6</ele>
        <time>2021-05-09T09:58:44Z</time>
      </trkpt>
      <trkpt lat="44.41829" lon="5.45918">
        <ele>1010.1</ele>
        <time>2021-05-09T09:58:48Z</time>
      </trkpt>
      <trkpt lat="44.41832" lon="5.45933">
        <ele>1010.6</ele>
        <time>2021-05-09T09:58:53Z</time>
      </trkpt>
      <trkpt lat="44.41842" lon="5.4596">
        <ele>1010.2</ele>
        <time>2021-05-09T09:59:01Z</time>
      </trkpt>
      <trkpt lat="44.41846" lon="5.46004">
        <ele>1014</ele>
        <time>2021-05-09T09:59:13Z</time>
      </trkpt>
      <trkpt lat="44.41851" lon="5.4603">
        <ele>1015.4</ele>
        <time>2021-05-09T09:59:20Z</time>
      </trkpt>
      <trkpt lat="44.41853" lon="5.46044">
        <ele>1016.5</ele>
        <time>2021-05-09T09:59:24Z</time>
      </trkpt>
      <trkpt lat="44.4186" lon="5.46073">
        <ele>1017.5</ele>
        <time>2021-05-09T09:59:33Z</time>
      </trkpt>
      <trkpt lat="44.41864" lon="5.46087">
        <ele>1017.7</ele>
        <time>2021-05-09T09:59:37Z</time>
      </trkpt>
      <trkpt lat="44.41864" lon="5.46114">
        <ele>1021.1</ele>
        <time>2021-05-09T09:59:44Z</time>
      </trkpt>
      <trkpt lat="44.41885" lon="5.4622">
        <ele>1026.1</ele>
        <time>2021-05-09T10:00:12Z</time>
      </trkpt>
      <trkpt lat="44.4189" lon="5.46231">
        <ele>1025.5</ele>
        <time>2021-05-09T10:00:15Z</time>
      </trkpt>
      <trkpt lat="44.41901" lon="5.46252">
        <ele>1024</ele>
        <time>2021-05-09T10:00:21Z</time>
      </trkpt>
      <trkpt lat="44.41918" lon="5.46277">
        <ele>1023.3</ele>
        <time>2021-05-09T10:00:29Z</time>
      </trkpt>
      <trkpt lat="44.41921" lon="5.46289">
        <ele>1025.1</ele>
        <time>2021-05-09T10:00:33Z</time>
      </trkpt>
      <trkpt lat="44.4192" lon="5.46301">
        <ele>1028.5</ele>
        <time>2021-05-09T10:00:37Z</time>
      </trkpt>
      <trkpt lat="44.41923" lon="5.46315">
        <ele>1030.8</ele>
        <time>2021-05-09T10:00:41Z</time>
      </trkpt>
      <trkpt lat="44.41929" lon="5.46328">
        <ele>1031.5</ele>
        <time>2021-05-09T10:00:45Z</time>
      </trkpt>
      <trkpt lat="44.41935" lon="5.46339">
        <ele>1031.4</ele>
        <time>2021-05-09T10:00:48Z</time>
      </trkpt>
      <trkpt lat="44.41945" lon="5.46348">
        <ele>1029</ele>
        <time>2021-05-09T10:00:51Z</time>
      </trkpt>
      <trkpt lat="44.41953" lon="5.46357">
        <ele>1027.5</ele>
        <time>2021-05-09T10:00:54Z</time>
      </trkpt>
      <trkpt lat="44.4196" lon="5.46363">
        <ele>1025.9</ele>
        <time>2021-05-09T10:00:57Z</time>
      </trkpt>
      <trkpt lat="44.41965" lon="5.46369">
        <ele>1025.1</ele>
        <time>2021-05-09T10:00:58Z</time>
      </trkpt>
      <trkpt lat="44.41971" lon="5.46378">
        <ele>1024.6</ele>
        <time>2021-05-09T10:01:01Z</time>
      </trkpt>
      <trkpt lat="44.41988" lon="5.46442">
        <ele>1031.3</ele>
        <time>2021-05-09T10:01:19Z</time>
      </trkpt>
      <trkpt lat="44.4199" lon="5.46467">
        <ele>1035.3</ele>
        <time>2021-05-09T10:01:26Z</time>
      </trkpt>
      <trkpt lat="44.4199" lon="5.46481">
        <ele>1038</ele>
        <time>2021-05-09T10:01:30Z</time>
      </trkpt>
      <trkpt lat="44.4199" lon="5.46491">
        <ele>1039.9</ele>
        <time>2021-05-09T10:01:33Z</time>
      </trkpt>
      <trkpt lat="44.41992" lon="5.465">
        <ele>1040.9</ele>
        <time>2021-05-09T10:01:36Z</time>
      </trkpt>
      <trkpt lat="44.41997" lon="5.46512">
        <ele>1041.5</ele>
        <time>2021-05-09T10:01:40Z</time>
      </trkpt>
      <trkpt lat="44.42091" lon="5.46465">
        <ele>1029.2</ele>
        <time>2021-05-09T10:02:12Z</time>
      </trkpt>
      <trkpt lat="44.42137" lon="5.46368">
        <ele>1025.5</ele>
        <time>2021-05-09T10:02:43Z</time>
      </trkpt>
      <trkpt lat="44.42173" lon="5.4628">
        <ele>1021.3</ele>
        <time>2021-05-09T10:03:13Z</time>
      </trkpt>
      <trkpt lat="44.42183" lon="5.46275">
        <ele>1022.4</ele>
        <time>2021-05-09T10:03:17Z</time>
      </trkpt>
      <trkpt lat="44.42189" lon="5.46277">
        <ele>1023.9</ele>
        <time>2021-05-09T10:03:19Z</time>
      </trkpt>
      <trkpt lat="44.42196" lon="5.46288">
        <ele>1027.4</ele>
        <time>2021-05-09T10:03:23Z</time>
      </trkpt>
      <trkpt lat="44.42198" lon="5.46294">
        <ele>1029</ele>
        <time>2021-05-09T10:03:25Z</time>
      </trkpt>
      <trkpt lat="44.42199" lon="5.46313">
        <ele>1033.1</ele>
        <time>2021-05-09T10:03:31Z</time>
      </trkpt>
      <trkpt lat="44.42196" lon="5.46322">
        <ele>1034.2</ele>
        <time>2021-05-09T10:03:34Z</time>
      </trkpt>
      <trkpt lat="44.42197" lon="5.46328">
        <ele>1035.6</ele>
        <time>2021-05-09T10:03:36Z</time>
      </trkpt>
      <trkpt lat="44.42218" lon="5.46333">
        <ele>1041.9</ele>
        <time>2021-05-09T10:03:43Z</time>
      </trkpt>
      <trkpt lat="44.42223" lon="5.4633">
        <ele>1042.4</ele>
        <time>2021-05-09T10:03:45Z</time>
      </trkpt>
      <trkpt lat="44.42278" lon="5.46263">
        <ele>1046.9</ele>
        <time>2021-05-09T10:04:16Z</time>
      </trkpt>
      <trkpt lat="44.42306" lon="5.46144">
        <ele>1035.7</ele>
        <time>2021-05-09T10:04:48Z</time>
      </trkpt>
      <trkpt lat="44.42314" lon="5.46124">
        <ele>1033.8</ele>
        <time>2021-05-09T10:04:54Z</time>
      </trkpt>
      <trkpt lat="44.42319" lon="5.4612">
        <ele>1034.4</ele>
        <time>2021-05-09T10:04:56Z</time>
      </trkpt>
      <trkpt lat="44.42324" lon="5.46119">
        <ele>1035.8</ele>
        <time>2021-05-09T10:04:58Z</time>
      </trkpt>
      <trkpt lat="44.42353" lon="5.46145">
        <ele>1047.4</ele>
        <time>2021-05-09T10:05:08Z</time>
      </trkpt>
      <trkpt lat="44.42379" lon="5.46153">
        <ele>1051.6</ele>
        <time>2021-05-09T10:05:18Z</time>
      </trkpt>
      <trkpt lat="44.42416" lon="5.4617">
        <ele>1060.3</ele>
        <time>2021-05-09T10:05:33Z</time>
      </trkpt>
      <trkpt lat="44.42422" lon="5.46172">
        <ele>1060.9</ele>
        <time>2021-05-09T10:05:36Z</time>
      </trkpt>
      <trkpt lat="44.42448" lon="5.46182">
        <ele>1063.5</ele>
        <time>2021-05-09T10:05:47Z</time>
      </trkpt>
      <trkpt lat="44.42466" lon="5.46191">
        <ele>1065.6</ele>
        <time>2021-05-09T10:05:55Z</time>
      </trkpt>
      <trkpt lat="44.42504" lon="5.46209">
        <ele>1068.8</ele>
        <time>2021-05-09T10:06:08Z</time>
      </trkpt>
      <trkpt lat="44.42568" lon="5.46248">
        <ele>1073.5</ele>
        <time>2021-05-09T10:06:36Z</time>
      </trkpt>
      <trkpt lat="44.42607" lon="5.46251">
        <ele>1073.1</ele>
        <time>2021-05-09T10:06:48Z</time>
      </trkpt>
      <trkpt lat="44.42655" lon="5.46244">
        <ele>1075.4</ele>
        <time>2021-05-09T10:07:05Z</time>
      </trkpt>
      <trkpt lat="44.42659" lon="5.46245">
        <ele>1075.4</ele>
        <time>2021-05-09T10:07:08Z</time>
      </trkpt>
      <trkpt lat="44.42665" lon="5.46245">
        <ele>1075.7</ele>
        <time>2021-05-09T10:08:35Z</time>
      </trkpt>
      <trkpt lat="44.4267" lon="5.46242">
        <ele>1075.7</ele>
        <time>2021-05-09T10:08:37Z</time>
      </trkpt>
      <trkpt lat="44.42721" lon="5.46211">
        <ele>1073.1</ele>
        <time>2021-05-09T10:08:50Z</time>
      </trkpt>
      <trkpt lat="44.4275" lon="5.46204">
        <ele>1070.5</ele>
        <time>2021-05-09T10:08:56Z</time>
      </trkpt>
      <trkpt lat="44.42791" lon="5.46187">
        <ele>1068.6</ele>
        <time>2021-05-09T10:09:01Z</time>
      </trkpt>
      <trkpt lat="44.42812" lon="5.46187">
        <ele>1065.7</ele>
        <time>2021-05-09T10:09:03Z</time>
      </trkpt>
      <trkpt lat="44.42941" lon="5.46227">
        <ele>1042</ele>
        <time>2021-05-09T10:09:19Z</time>
      </trkpt>
      <trkpt lat="44.42955" lon="5.46226">
        <ele>1041.1</ele>
        <time>2021-05-09T10:09:21Z</time>
      </trkpt>
      <trkpt lat="44.43037" lon="5.46182">
        <ele>1041.9</ele>
        <time>2021-05-09T10:09:30Z</time>
      </trkpt>
      <trkpt lat="44.43101" lon="5.46172">
        <ele>1035.6</ele>
        <time>2021-05-09T10:09:38Z</time>
      </trkpt>
      <trkpt lat="44.43117" lon="5.46176">
        <ele>1033.8</ele>
        <time>2021-05-09T10:09:40Z</time>
      </trkpt>
      <trkpt lat="44.43158" lon="5.46195">
        <ele>1027.3</ele>
        <time>2021-05-09T10:09:46Z</time>
      </trkpt>
      <trkpt lat="44.43168" lon="5.46196">
        <ele>1026.5</ele>
        <time>2021-05-09T10:09:48Z</time>
      </trkpt>
      <trkpt lat="44.43174" lon="5.46202">
        <ele>1024.3</ele>
        <time>2021-05-09T10:09:50Z</time>
      </trkpt>
      <trkpt lat="44.43171" lon="5.4621">
        <ele>1023</ele>
        <time>2021-05-09T10:09:52Z</time>
      </trkpt>
      <trkpt lat="44.43118" lon="5.46213">
        <ele>1024.9</ele>
        <time>2021-05-09T10:10:01Z</time>
      </trkpt>
      <trkpt lat="44.43103" lon="5.46221">
        <ele>1023.6</ele>
        <time>2021-05-09T10:10:03Z</time>
      </trkpt>
      <trkpt lat="44.43087" lon="5.4623">
        <ele>1021.9</ele>
        <time>2021-05-09T10:10:05Z</time>
      </trkpt>
      <trkpt lat="44.4299" lon="5.46372">
        <ele>1012.7</ele>
        <time>2021-05-09T10:10:21Z</time>
      </trkpt>
      <trkpt lat="44.42985" lon="5.4638">
        <ele>1012.4</ele>
        <time>2021-05-09T10:10:22Z</time>
      </trkpt>
      <trkpt lat="44.42983" lon="5.46389">
        <ele>1011.7</ele>
        <time>2021-05-09T10:10:23Z</time>
      </trkpt>
      <trkpt lat="44.42987" lon="5.46409">
        <ele>1009.3</ele>
        <time>2021-05-09T10:10:25Z</time>
      </trkpt>
      <trkpt lat="44.43046" lon="5.46511">
        <ele>998.8</ele>
        <time>2021-05-09T10:10:37Z</time>
      </trkpt>
      <trkpt lat="44.4305" lon="5.46519">
        <ele>997.4</ele>
        <time>2021-05-09T10:10:38Z</time>
      </trkpt>
      <trkpt lat="44.43052" lon="5.46536">
        <ele>995.7</ele>
        <time>2021-05-09T10:10:40Z</time>
      </trkpt>
      <trkpt lat="44.43051" lon="5.46544">
        <ele>995.2</ele>
        <time>2021-05-09T10:10:41Z</time>
      </trkpt>
      <trkpt lat="44.43036" lon="5.46566">
        <ele>996.5</ele>
        <time>2021-05-09T10:10:44Z</time>
      </trkpt>
      <trkpt lat="44.4302" lon="5.46588">
        <ele>997.9</ele>
        <time>2021-05-09T10:10:47Z</time>
      </trkpt>
      <trkpt lat="44.42999" lon="5.46634">
        <ele>995.4</ele>
        <time>2021-05-09T10:10:52Z</time>
      </trkpt>
      <trkpt lat="44.42978" lon="5.46658">
        <ele>997.1</ele>
        <time>2021-05-09T10:10:56Z</time>
      </trkpt>
      <trkpt lat="44.42952" lon="5.4668">
        <ele>1001</ele>
        <time>2021-05-09T10:11:02Z</time>
      </trkpt>
      <trkpt lat="44.42923" lon="5.46723">
        <ele>1002.4</ele>
        <time>2021-05-09T10:11:09Z</time>
      </trkpt>
      <trkpt lat="44.42921" lon="5.46731">
        <ele>1001.7</ele>
        <time>2021-05-09T10:11:10Z</time>
      </trkpt>
      <trkpt lat="44.4292" lon="5.46739">
        <ele>1000.8</ele>
        <time>2021-05-09T10:11:11Z</time>
      </trkpt>
      <trkpt lat="44.42923" lon="5.46759">
        <ele>999.2</ele>
        <time>2021-05-09T10:11:13Z</time>
      </trkpt>
      <trkpt lat="44.42948" lon="5.46816">
        <ele>998.2</ele>
        <time>2021-05-09T10:11:21Z</time>
      </trkpt>
      <trkpt lat="44.42952" lon="5.46821">
        <ele>997.8</ele>
        <time>2021-05-09T10:11:22Z</time>
      </trkpt>
      <trkpt lat="44.42971" lon="5.46829">
        <ele>994.5</ele>
        <time>2021-05-09T10:11:26Z</time>
      </trkpt>
      <trkpt lat="44.42984" lon="5.46838">
        <ele>993.1</ele>
        <time>2021-05-09T10:11:29Z</time>
      </trkpt>
      <trkpt lat="44.42998" lon="5.4684">
        <ele>990.5</ele>
        <time>2021-05-09T10:11:31Z</time>
      </trkpt>
      <trkpt lat="44.43006" lon="5.46839">
        <ele>989.6</ele>
        <time>2021-05-09T10:11:32Z</time>
      </trkpt>
      <trkpt lat="44.43014" lon="5.46838">
        <ele>989</ele>
        <time>2021-05-09T10:11:33Z</time>
      </trkpt>
      <trkpt lat="44.43043" lon="5.46815">
        <ele>983.9</ele>
        <time>2021-05-09T10:11:38Z</time>
      </trkpt>
      <trkpt lat="44.43053" lon="5.46808">
        <ele>982</ele>
        <time>2021-05-09T10:11:40Z</time>
      </trkpt>
      <trkpt lat="44.4314" lon="5.46802">
        <ele>975.1</ele>
        <time>2021-05-09T10:11:51Z</time>
      </trkpt>
      <trkpt lat="44.43155" lon="5.46803">
        <ele>974.5</ele>
        <time>2021-05-09T10:11:53Z</time>
      </trkpt>
      <trkpt lat="44.43191" lon="5.46803">
        <ele>971.8</ele>
        <time>2021-05-09T10:12:01Z</time>
      </trkpt>
      <trkpt lat="44.43211" lon="5.46824">
        <ele>974.4</ele>
        <time>2021-05-09T10:12:06Z</time>
      </trkpt>
      <trkpt lat="44.43217" lon="5.46829">
        <ele>974.9</ele>
        <time>2021-05-09T10:12:07Z</time>
      </trkpt>
      <trkpt lat="44.43224" lon="5.46832">
        <ele>974.9</ele>
        <time>2021-05-09T10:12:08Z</time>
      </trkpt>
      <trkpt lat="44.43232" lon="5.46833">
        <ele>974.4</ele>
        <time>2021-05-09T10:12:09Z</time>
      </trkpt>
      <trkpt lat="44.43238" lon="5.46831">
        <ele>973.5</ele>
        <time>2021-05-09T10:12:10Z</time>
      </trkpt>
      <trkpt lat="44.43276" lon="5.4678">
        <ele>961.8</ele>
        <time>2021-05-09T10:12:16Z</time>
      </trkpt>
      <trkpt lat="44.43286" lon="5.46761">
        <ele>958.3</ele>
        <time>2021-05-09T10:12:18Z</time>
      </trkpt>
      <trkpt lat="44.43292" lon="5.4674">
        <ele>954.3</ele>
        <time>2021-05-09T10:12:20Z</time>
      </trkpt>
      <trkpt lat="44.43295" lon="5.46731">
        <ele>952.3</ele>
        <time>2021-05-09T10:12:21Z</time>
      </trkpt>
      <trkpt lat="44.43298" lon="5.46726">
        <ele>951.2</ele>
        <time>2021-05-09T10:12:22Z</time>
      </trkpt>
      <trkpt lat="44.43301" lon="5.4672">
        <ele>949.8</ele>
        <time>2021-05-09T10:12:23Z</time>
      </trkpt>
      <trkpt lat="44.43298" lon="5.4671">
        <ele>947.6</ele>
        <time>2021-05-09T10:12:25Z</time>
      </trkpt>
      <trkpt lat="44.4329" lon="5.46709">
        <ele>947.4</ele>
        <time>2021-05-09T10:12:27Z</time>
      </trkpt>
      <trkpt lat="44.43271" lon="5.46739">
        <ele>953.9</ele>
        <time>2021-05-09T10:12:32Z</time>
      </trkpt>
      <trkpt lat="44.43266" lon="5.46743">
        <ele>954.7</ele>
        <time>2021-05-09T10:12:33Z</time>
      </trkpt>
      <trkpt lat="44.43252" lon="5.46748">
        <ele>955.6</ele>
        <time>2021-05-09T10:12:35Z</time>
      </trkpt>
      <trkpt lat="44.43231" lon="5.46745">
        <ele>956.6</ele>
        <time>2021-05-09T10:12:38Z</time>
      </trkpt>
      <trkpt lat="44.43227" lon="5.46743">
        <ele>956.6</ele>
        <time>2021-05-09T10:12:39Z</time>
      </trkpt>
      <trkpt lat="44.43221" lon="5.46737">
        <ele>956.1</ele>
        <time>2021-05-09T10:12:41Z</time>
      </trkpt>
      <trkpt lat="44.43223" lon="5.46728">
        <ele>954.2</ele>
        <time>2021-05-09T10:12:43Z</time>
      </trkpt>
      <trkpt lat="44.43227" lon="5.46728">
        <ele>953.8</ele>
        <time>2021-05-09T10:12:44Z</time>
      </trkpt>
      <trkpt lat="44.43246" lon="5.4673">
        <ele>952.3</ele>
        <time>2021-05-09T10:12:47Z</time>
      </trkpt>
      <trkpt lat="44.43253" lon="5.4673">
        <ele>951.9</ele>
        <time>2021-05-09T10:12:48Z</time>
      </trkpt>
      <trkpt lat="44.43263" lon="5.46719">
        <ele>949.7</ele>
        <time>2021-05-09T10:12:50Z</time>
      </trkpt>
      <trkpt lat="44.4327" lon="5.467">
        <ele>945.6</ele>
        <time>2021-05-09T10:12:52Z</time>
      </trkpt>
      <trkpt lat="44.43275" lon="5.46691">
        <ele>943.6</ele>
        <time>2021-05-09T10:12:53Z</time>
      </trkpt>
      <trkpt lat="44.43286" lon="5.4668">
        <ele>941.1</ele>
        <time>2021-05-09T10:12:55Z</time>
      </trkpt>
      <trkpt lat="44.43292" lon="5.46678">
        <ele>940.5</ele>
        <time>2021-05-09T10:12:56Z</time>
      </trkpt>
      <trkpt lat="44.43299" lon="5.46677">
        <ele>940.2</ele>
        <time>2021-05-09T10:12:57Z</time>
      </trkpt>
      <trkpt lat="44.43306" lon="5.46676">
        <ele>939.8</ele>
        <time>2021-05-09T10:12:58Z</time>
      </trkpt>
      <trkpt lat="44.43328" lon="5.46685">
        <ele>941.5</ele>
        <time>2021-05-09T10:13:01Z</time>
      </trkpt>
      <trkpt lat="44.43337" lon="5.46689">
        <ele>941.7</ele>
        <time>2021-05-09T10:13:02Z</time>
      </trkpt>
      <trkpt lat="44.43346" lon="5.4669">
        <ele>940.5</ele>
        <time>2021-05-09T10:13:03Z</time>
      </trkpt>
      <trkpt lat="44.43383" lon="5.46676">
        <ele>930.9</ele>
        <time>2021-05-09T10:13:08Z</time>
      </trkpt>
      <trkpt lat="44.43414" lon="5.4669">
        <ele>929</ele>
        <time>2021-05-09T10:13:12Z</time>
      </trkpt>
      <trkpt lat="44.43433" lon="5.46692">
        <ele>928.2</ele>
        <time>2021-05-09T10:13:14Z</time>
      </trkpt>
      <trkpt lat="44.43451" lon="5.46685">
        <ele>925.7</ele>
        <time>2021-05-09T10:13:16Z</time>
      </trkpt>
      <trkpt lat="44.43482" lon="5.4666">
        <ele>919.2</ele>
        <time>2021-05-09T10:13:20Z</time>
      </trkpt>
      <trkpt lat="44.43497" lon="5.46654">
        <ele>917.3</ele>
        <time>2021-05-09T10:13:22Z</time>
      </trkpt>
      <trkpt lat="44.43536" lon="5.46656">
        <ele>910.2</ele>
        <time>2021-05-09T10:13:28Z</time>
      </trkpt>
      <trkpt lat="44.43544" lon="5.46662">
        <ele>909.7</ele>
        <time>2021-05-09T10:13:30Z</time>
      </trkpt>
      <trkpt lat="44.43551" lon="5.46681">
        <ele>910.7</ele>
        <time>2021-05-09T10:13:33Z</time>
      </trkpt>
      <trkpt lat="44.4355" lon="5.4669">
        <ele>912.1</ele>
        <time>2021-05-09T10:13:34Z</time>
      </trkpt>
      <trkpt lat="44.43533" lon="5.46741">
        <ele>923.4</ele>
        <time>2021-05-09T10:13:41Z</time>
      </trkpt>
      <trkpt lat="44.43528" lon="5.46788">
        <ele>928.7</ele>
        <time>2021-05-09T10:13:47Z</time>
      </trkpt>
      <trkpt lat="44.43528" lon="5.46819">
        <ele>930.7</ele>
        <time>2021-05-09T10:13:51Z</time>
      </trkpt>
      <trkpt lat="44.43531" lon="5.46832">
        <ele>931.2</ele>
        <time>2021-05-09T10:13:53Z</time>
      </trkpt>
      <trkpt lat="44.43541" lon="5.46837">
        <ele>930.6</ele>
        <time>2021-05-09T10:13:56Z</time>
      </trkpt>
      <trkpt lat="44.43567" lon="5.46801">
        <ele>922</ele>
        <time>2021-05-09T10:14:02Z</time>
      </trkpt>
      <trkpt lat="44.436" lon="5.46726">
        <ele>908.7</ele>
        <time>2021-05-09T10:14:10Z</time>
      </trkpt>
      <trkpt lat="44.43633" lon="5.46674">
        <ele>903.2</ele>
        <time>2021-05-09T10:14:16Z</time>
      </trkpt>
      <trkpt lat="44.43645" lon="5.46644">
        <ele>897.4</ele>
        <time>2021-05-09T10:14:19Z</time>
      </trkpt>
      <trkpt lat="44.43697" lon="5.46585">
        <ele>886.4</ele>
        <time>2021-05-09T10:14:26Z</time>
      </trkpt>
      <trkpt lat="44.43719" lon="5.46561">
        <ele>883.1</ele>
        <time>2021-05-09T10:14:29Z</time>
      </trkpt>
      <trkpt lat="44.4374" lon="5.46533">
        <ele>876.6</ele>
        <time>2021-05-09T10:14:33Z</time>
      </trkpt>
      <trkpt lat="44.43746" lon="5.46531">
        <ele>876</ele>
        <time>2021-05-09T10:14:34Z</time>
      </trkpt>
      <trkpt lat="44.43774" lon="5.46536">
        <ele>878.2</ele>
        <time>2021-05-09T10:14:38Z</time>
      </trkpt>
      <trkpt lat="44.43781" lon="5.46535">
        <ele>878.1</ele>
        <time>2021-05-09T10:14:39Z</time>
      </trkpt>
      <trkpt lat="44.43789" lon="5.46532">
        <ele>877.3</ele>
        <time>2021-05-09T10:14:40Z</time>
      </trkpt>
      <trkpt lat="44.43796" lon="5.46527">
        <ele>875.6</ele>
        <time>2021-05-09T10:14:41Z</time>
      </trkpt>
      <trkpt lat="44.4381" lon="5.46502">
        <ele>866.3</ele>
        <time>2021-05-09T10:14:44Z</time>
      </trkpt>
      <trkpt lat="44.43817" lon="5.46496">
        <ele>864.7</ele>
        <time>2021-05-09T10:14:45Z</time>
      </trkpt>
      <trkpt lat="44.43836" lon="5.46484">
        <ele>862</ele>
        <time>2021-05-09T10:14:47Z</time>
      </trkpt>
      <trkpt lat="44.43877" lon="5.46481">
        <ele>865.6</ele>
        <time>2021-05-09T10:14:51Z</time>
      </trkpt>
      <trkpt lat="44.43896" lon="5.46475">
        <ele>865.5</ele>
        <time>2021-05-09T10:14:53Z</time>
      </trkpt>
      <trkpt lat="44.43919" lon="5.46461">
        <ele>862.4</ele>
        <time>2021-05-09T10:14:56Z</time>
      </trkpt>
      <trkpt lat="44.43941" lon="5.46439">
        <ele>857</ele>
        <time>2021-05-09T10:15:00Z</time>
      </trkpt>
      <trkpt lat="44.43945" lon="5.46434">
        <ele>855.6</ele>
        <time>2021-05-09T10:15:01Z</time>
      </trkpt>
      <trkpt lat="44.43951" lon="5.46432">
        <ele>855.5</ele>
        <time>2021-05-09T10:15:02Z</time>
      </trkpt>
      <trkpt lat="44.43963" lon="5.4643">
        <ele>856.3</ele>
        <time>2021-05-09T10:15:04Z</time>
      </trkpt>
      <trkpt lat="44.43976" lon="5.46425">
        <ele>855.8</ele>
        <time>2021-05-09T10:15:06Z</time>
      </trkpt>
      <trkpt lat="44.43996" lon="5.46409">
        <ele>852.4</ele>
        <time>2021-05-09T10:15:12Z</time>
      </trkpt>
      <trkpt lat="44.44005" lon="5.46403">
        <ele>850.7</ele>
        <time>2021-05-09T10:15:15Z</time>
      </trkpt>
      <trkpt lat="44.44012" lon="5.46398">
        <ele>848.9</ele>
        <time>2021-05-09T10:15:19Z</time>
      </trkpt>
      <trkpt lat="44.44024" lon="5.46397">
        <ele>847.8</ele>
        <time>2021-05-09T10:16:21Z</time>
      </trkpt>
      <trkpt lat="44.4407" lon="5.46384">
        <ele>841.5</ele>
        <time>2021-05-09T10:16:31Z</time>
      </trkpt>
      <trkpt lat="44.44077" lon="5.464">
        <ele>845.2</ele>
        <time>2021-05-09T10:16:34Z</time>
      </trkpt>
      <trkpt lat="44.4408" lon="5.46424">
        <ele>851.1</ele>
        <time>2021-05-09T10:16:37Z</time>
      </trkpt>
      <trkpt lat="44.44084" lon="5.46432">
        <ele>852.7</ele>
        <time>2021-05-09T10:16:39Z</time>
      </trkpt>
      <trkpt lat="44.44091" lon="5.46429">
        <ele>852.5</ele>
        <time>2021-05-09T10:16:46Z</time>
      </trkpt>
      <trkpt lat="44.44095" lon="5.46425">
        <ele>851.9</ele>
        <time>2021-05-09T10:18:10Z</time>
      </trkpt>
      <trkpt lat="44.44112" lon="5.46344">
        <ele>834.6</ele>
        <time>2021-05-09T10:18:21Z</time>
      </trkpt>
      <trkpt lat="44.44115" lon="5.46336">
        <ele>833.2</ele>
        <time>2021-05-09T10:18:22Z</time>
      </trkpt>
      <trkpt lat="44.44119" lon="5.46328">
        <ele>832.2</ele>
        <time>2021-05-09T10:18:23Z</time>
      </trkpt>
      <trkpt lat="44.44125" lon="5.46322">
        <ele>831.9</ele>
        <time>2021-05-09T10:18:24Z</time>
      </trkpt>
      <trkpt lat="44.44153" lon="5.46307">
        <ele>831.5</ele>
        <time>2021-05-09T10:18:28Z</time>
      </trkpt>
      <trkpt lat="44.44182" lon="5.46309">
        <ele>834.6</ele>
        <time>2021-05-09T10:18:32Z</time>
      </trkpt>
      <trkpt lat="44.44205" lon="5.46299">
        <ele>833.6</ele>
        <time>2021-05-09T10:18:35Z</time>
      </trkpt>
      <trkpt lat="44.44231" lon="5.46261">
        <ele>824.2</ele>
        <time>2021-05-09T10:18:40Z</time>
      </trkpt>
      <trkpt lat="44.44242" lon="5.4625">
        <ele>821.5</ele>
        <time>2021-05-09T10:18:42Z</time>
      </trkpt>
      <trkpt lat="44.44265" lon="5.46238">
        <ele>820.2</ele>
        <time>2021-05-09T10:18:45Z</time>
      </trkpt>
      <trkpt lat="44.44328" lon="5.46209">
        <ele>816</ele>
        <time>2021-05-09T10:18:55Z</time>
      </trkpt>
      <trkpt lat="44.44339" lon="5.462">
        <ele>814.8</ele>
        <time>2021-05-09T10:18:57Z</time>
      </trkpt>
      <trkpt lat="44.44372" lon="5.46158">
        <ele>809.3</ele>
        <time>2021-05-09T10:19:03Z</time>
      </trkpt>
      <trkpt lat="44.44428" lon="5.46111">
        <ele>805.4</ele>
        <time>2021-05-09T10:19:13Z</time>
      </trkpt>
      <trkpt lat="44.44435" lon="5.46103">
        <ele>804.9</ele>
        <time>2021-05-09T10:19:15Z</time>
      </trkpt>
      <trkpt lat="44.44435" lon="5.46095">
        <ele>803</ele>
        <time>2021-05-09T10:19:17Z</time>
      </trkpt>
      <trkpt lat="44.44414" lon="5.46097">
        <ele>800.5</ele>
        <time>2021-05-09T10:19:22Z</time>
      </trkpt>
      <trkpt lat="44.4438" lon="5.46096">
        <ele>798.9</ele>
        <time>2021-05-09T10:19:30Z</time>
      </trkpt>
      <trkpt lat="44.44374" lon="5.4609">
        <ele>797.6</ele>
        <time>2021-05-09T10:19:32Z</time>
      </trkpt>
      <trkpt lat="44.44373" lon="5.46078">
        <ele>796.1</ele>
        <time>2021-05-09T10:19:34Z</time>
      </trkpt>
      <trkpt lat="44.44379" lon="5.46071">
        <ele>795.8</ele>
        <time>2021-05-09T10:19:36Z</time>
      </trkpt>
      <trkpt lat="44.44392" lon="5.46071">
        <ele>796</ele>
        <time>2021-05-09T10:19:39Z</time>
      </trkpt>
      <trkpt lat="44.44422" lon="5.46067">
        <ele>796.3</ele>
        <time>2021-05-09T10:19:48Z</time>
      </trkpt>
      <trkpt lat="44.44436" lon="5.4606">
        <ele>796.2</ele>
        <time>2021-05-09T10:19:52Z</time>
      </trkpt>
      <trkpt lat="44.44457" lon="5.46057">
        <ele>796.9</ele>
        <time>2021-05-09T10:19:58Z</time>
      </trkpt>
      <trkpt lat="44.44479" lon="5.4606">
        <ele>799</ele>
        <time>2021-05-09T10:20:04Z</time>
      </trkpt>
      <trkpt lat="44.44487" lon="5.4606">
        <ele>799.6</ele>
        <time>2021-05-09T10:20:06Z</time>
      </trkpt>
      <trkpt lat="44.44501" lon="5.4605">
        <ele>797.6</ele>
        <time>2021-05-09T10:20:10Z</time>
      </trkpt>
      <trkpt lat="44.44513" lon="5.46036">
        <ele>797.2</ele>
        <time>2021-05-09T10:20:14Z</time>
      </trkpt>
      <trkpt lat="44.44526" lon="5.46026">
        <ele>798</ele>
        <time>2021-05-09T10:20:17Z</time>
      </trkpt>
      <trkpt lat="44.44548" lon="5.46002">
        <ele>795.1</ele>
        <time>2021-05-09T10:20:22Z</time>
      </trkpt>
      <trkpt lat="44.44571" lon="5.45968">
        <ele>792.9</ele>
        <time>2021-05-09T10:20:29Z</time>
      </trkpt>
      <trkpt lat="44.44575" lon="5.45959">
        <ele>791.2</ele>
        <time>2021-05-09T10:20:31Z</time>
      </trkpt>
      <trkpt lat="44.44602" lon="5.45915">
        <ele>784.8</ele>
        <time>2021-05-09T10:20:39Z</time>
      </trkpt>
      <trkpt lat="44.4461" lon="5.45889">
        <ele>783.3</ele>
        <time>2021-05-09T10:20:43Z</time>
      </trkpt>
      <trkpt lat="44.44619" lon="5.45873">
        <ele>781.6</ele>
        <time>2021-05-09T10:20:47Z</time>
      </trkpt>
      <trkpt lat="44.4463" lon="5.45859">
        <ele>778.8</ele>
        <time>2021-05-09T10:20:50Z</time>
      </trkpt>
      <trkpt lat="44.44642" lon="5.45847">
        <ele>774.9</ele>
        <time>2021-05-09T10:20:54Z</time>
      </trkpt>
      <trkpt lat="44.44649" lon="5.4584">
        <ele>772</ele>
        <time>2021-05-09T10:20:57Z</time>
      </trkpt>
      <trkpt lat="44.44658" lon="5.45837">
        <ele>769.7</ele>
        <time>2021-05-09T10:21:00Z</time>
      </trkpt>
      <trkpt lat="44.44695" lon="5.45837">
        <ele>770.8</ele>
        <time>2021-05-09T10:21:10Z</time>
      </trkpt>
      <trkpt lat="44.44711" lon="5.45832">
        <ele>770.1</ele>
        <time>2021-05-09T10:21:14Z</time>
      </trkpt>
      <trkpt lat="44.44718" lon="5.45827">
        <ele>770.2</ele>
        <time>2021-05-09T10:21:16Z</time>
      </trkpt>
      <trkpt lat="44.44724" lon="5.45824">
        <ele>770.2</ele>
        <time>2021-05-09T10:21:18Z</time>
      </trkpt>
      <trkpt lat="44.44736" lon="5.45815">
        <ele>769.5</ele>
        <time>2021-05-09T10:21:22Z</time>
      </trkpt>
      <trkpt lat="44.44783" lon="5.45768">
        <ele>764.4</ele>
        <time>2021-05-09T10:21:35Z</time>
      </trkpt>
      <trkpt lat="44.448" lon="5.45751">
        <ele>759</ele>
        <time>2021-05-09T10:21:39Z</time>
      </trkpt>
      <trkpt lat="44.44815" lon="5.45736">
        <ele>758.1</ele>
        <time>2021-05-09T10:21:43Z</time>
      </trkpt>
      <trkpt lat="44.44825" lon="5.45721">
        <ele>755.8</ele>
        <time>2021-05-09T10:21:48Z</time>
      </trkpt>
      <trkpt lat="44.44834" lon="5.45704">
        <ele>752</ele>
        <time>2021-05-09T10:21:53Z</time>
      </trkpt>
      <trkpt lat="44.4486" lon="5.45684">
        <ele>752.1</ele>
        <time>2021-05-09T10:21:59Z</time>
      </trkpt>
      <trkpt lat="44.44872" lon="5.45681">
        <ele>752.4</ele>
        <time>2021-05-09T10:22:02Z</time>
      </trkpt>
      <trkpt lat="44.4488" lon="5.45681">
        <ele>753.3</ele>
        <time>2021-05-09T10:22:06Z</time>
      </trkpt>
      <trkpt lat="44.44887" lon="5.45682">
        <ele>754.5</ele>
        <time>2021-05-09T10:22:20Z</time>
      </trkpt>
      <trkpt lat="44.44896" lon="5.45677">
        <ele>752.9</ele>
        <time>2021-05-09T10:22:23Z</time>
      </trkpt>
      <trkpt lat="44.44905" lon="5.45668">
        <ele>748.5</ele>
        <time>2021-05-09T10:22:26Z</time>
      </trkpt>
      <trkpt lat="44.44914" lon="5.45657">
        <ele>747.1</ele>
        <time>2021-05-09T10:22:30Z</time>
      </trkpt>
      <trkpt lat="44.44924" lon="5.45652">
        <ele>750</ele>
        <time>2021-05-09T10:22:34Z</time>
      </trkpt>
      <trkpt lat="44.44933" lon="5.45648">
        <ele>753.2</ele>
        <time>2021-05-09T10:22:37Z</time>
      </trkpt>
      <trkpt lat="44.44934" lon="5.45631">
        <ele>749.9</ele>
        <time>2021-05-09T10:22:42Z</time>
      </trkpt>
      <trkpt lat="44.44948" lon="5.45614">
        <ele>748.7</ele>
        <time>2021-05-09T10:22:48Z</time>
      </trkpt>
      <trkpt lat="44.44958" lon="5.45601">
        <ele>745.5</ele>
        <time>2021-05-09T10:22:52Z</time>
      </trkpt>
      <trkpt lat="44.44963" lon="5.4559">
        <ele>741.2</ele>
        <time>2021-05-09T10:22:56Z</time>
      </trkpt>
      <trkpt lat="44.44972" lon="5.45583">
        <ele>738</ele>
        <time>2021-05-09T10:23:00Z</time>
      </trkpt>
      <trkpt lat="44.44981" lon="5.45578">
        <ele>738</ele>
        <time>2021-05-09T10:23:05Z</time>
      </trkpt>
      <trkpt lat="44.44985" lon="5.45588">
        <ele>740.3</ele>
        <time>2021-05-09T10:23:16Z</time>
      </trkpt>
      <trkpt lat="44.44993" lon="5.45585">
        <ele>738.3</ele>
        <time>2021-05-09T10:23:47Z</time>
      </trkpt>
      <trkpt lat="44.44999" lon="5.4558">
        <ele>737</ele>
        <time>2021-05-09T10:23:50Z</time>
      </trkpt>
      <trkpt lat="44.45002" lon="5.45572">
        <ele>737.7</ele>
        <time>2021-05-09T10:23:52Z</time>
      </trkpt>
      <trkpt lat="44.45004" lon="5.4556">
        <ele>738</ele>
        <time>2021-05-09T10:23:54Z</time>
      </trkpt>
      <trkpt lat="44.45014" lon="5.45547">
        <ele>739.8</ele>
        <time>2021-05-09T10:23:57Z</time>
      </trkpt>
      <trkpt lat="44.45057" lon="5.455">
        <ele>731.9</ele>
        <time>2021-05-09T10:24:06Z</time>
      </trkpt>
      <trkpt lat="44.45078" lon="5.45487">
        <ele>730.8</ele>
        <time>2021-05-09T10:24:10Z</time>
      </trkpt>
      <trkpt lat="44.45089" lon="5.45481">
        <ele>730.4</ele>
        <time>2021-05-09T10:24:13Z</time>
      </trkpt>
      <trkpt lat="44.45089" lon="5.45463">
        <ele>730.4</ele>
        <time>2021-05-09T10:24:41Z</time>
      </trkpt>
      <trkpt lat="44.45102" lon="5.4546">
        <ele>730.3</ele>
        <time>2021-05-09T10:24:52Z</time>
      </trkpt>
      <trkpt lat="44.45127" lon="5.45472">
        <ele>731</ele>
        <time>2021-05-09T10:24:58Z</time>
      </trkpt>
      <trkpt lat="44.45145" lon="5.45479">
        <ele>732.1</ele>
        <time>2021-05-09T10:25:01Z</time>
      </trkpt>
      <trkpt lat="44.45171" lon="5.45474">
        <ele>732</ele>
        <time>2021-05-09T10:25:04Z</time>
      </trkpt>
      <trkpt lat="44.45179" lon="5.45456">
        <ele>728.9</ele>
        <time>2021-05-09T10:25:07Z</time>
      </trkpt>
      <trkpt lat="44.45188" lon="5.45451">
        <ele>727.6</ele>
        <time>2021-05-09T10:25:10Z</time>
      </trkpt>
      <trkpt lat="44.45203" lon="5.45438">
        <ele>724.1</ele>
        <time>2021-05-09T10:25:14Z</time>
      </trkpt>
      <trkpt lat="44.45207" lon="5.45433">
        <ele>722.6</ele>
        <time>2021-05-09T10:25:15Z</time>
      </trkpt>
      <trkpt lat="44.45213" lon="5.45424">
        <ele>719.9</ele>
        <time>2021-05-09T10:25:17Z</time>
      </trkpt>
      <trkpt lat="44.45219" lon="5.45403">
        <ele>721.3</ele>
        <time>2021-05-09T10:25:31Z</time>
      </trkpt>
      <trkpt lat="44.4522" lon="5.4541">
        <ele>719.2</ele>
        <time>2021-05-09T10:25:46Z</time>
      </trkpt>
      <trkpt lat="44.45239" lon="5.4542">
        <ele>716.2</ele>
        <time>2021-05-09T10:25:50Z</time>
      </trkpt>
      <trkpt lat="44.45254" lon="5.45433">
        <ele>719</ele>
        <time>2021-05-09T10:25:53Z</time>
      </trkpt>
      <trkpt lat="44.4527" lon="5.45448">
        <ele>721.7</ele>
        <time>2021-05-09T10:25:55Z</time>
      </trkpt>
      <trkpt lat="44.45289" lon="5.4546">
        <ele>722.4</ele>
        <time>2021-05-09T10:25:57Z</time>
      </trkpt>
      <trkpt lat="44.45299" lon="5.45463">
        <ele>721.6</ele>
        <time>2021-05-09T10:25:58Z</time>
      </trkpt>
      <trkpt lat="44.45309" lon="5.45464">
        <ele>720.2</ele>
        <time>2021-05-09T10:25:59Z</time>
      </trkpt>
      <trkpt lat="44.4532" lon="5.45463">
        <ele>718.2</ele>
        <time>2021-05-09T10:26:00Z</time>
      </trkpt>
      <trkpt lat="44.45342" lon="5.45463">
        <ele>714.9</ele>
        <time>2021-05-09T10:26:02Z</time>
      </trkpt>
      <trkpt lat="44.45497" lon="5.45484">
        <ele>703.5</ele>
        <time>2021-05-09T10:26:18Z</time>
      </trkpt>
      <trkpt lat="44.45593" lon="5.45514">
        <ele>699.6</ele>
        <time>2021-05-09T10:26:30Z</time>
      </trkpt>
      <trkpt lat="44.45611" lon="5.45515">
        <ele>698.4</ele>
        <time>2021-05-09T10:26:32Z</time>
      </trkpt>
      <trkpt lat="44.45629" lon="5.45518">
        <ele>698.1</ele>
        <time>2021-05-09T10:26:34Z</time>
      </trkpt>
      <trkpt lat="44.45648" lon="5.45521">
        <ele>697.6</ele>
        <time>2021-05-09T10:26:36Z</time>
      </trkpt>
      <trkpt lat="44.45668" lon="5.4552">
        <ele>695.6</ele>
        <time>2021-05-09T10:26:38Z</time>
      </trkpt>
      <trkpt lat="44.45685" lon="5.4551">
        <ele>693.3</ele>
        <time>2021-05-09T10:26:40Z</time>
      </trkpt>
      <trkpt lat="44.45701" lon="5.45488">
        <ele>690.1</ele>
        <time>2021-05-09T10:26:43Z</time>
      </trkpt>
      <trkpt lat="44.45715" lon="5.45476">
        <ele>690</ele>
        <time>2021-05-09T10:26:48Z</time>
      </trkpt>
      <trkpt lat="44.45748" lon="5.45467">
        <ele>689.3</ele>
        <time>2021-05-09T10:26:57Z</time>
      </trkpt>
      <trkpt lat="44.45817" lon="5.45458">
        <ele>686.7</ele>
        <time>2021-05-09T10:27:08Z</time>
      </trkpt>
      <trkpt lat="44.45863" lon="5.45443">
        <ele>681.9</ele>
        <time>2021-05-09T10:27:15Z</time>
      </trkpt>
      <trkpt lat="44.45871" lon="5.45443">
        <ele>681.6</ele>
        <time>2021-05-09T10:27:16Z</time>
      </trkpt>
      <trkpt lat="44.45889" lon="5.4545">
        <ele>682.6</ele>
        <time>2021-05-09T10:27:18Z</time>
      </trkpt>
      <trkpt lat="44.45906" lon="5.45463">
        <ele>684.9</ele>
        <time>2021-05-09T10:27:20Z</time>
      </trkpt>
      <trkpt lat="44.46022" lon="5.45478">
        <ele>676.5</ele>
        <time>2021-05-09T10:27:33Z</time>
      </trkpt>
      <trkpt lat="44.46034" lon="5.45476">
        <ele>675.3</ele>
        <time>2021-05-09T10:27:35Z</time>
      </trkpt>
      <trkpt lat="44.46043" lon="5.45471">
        <ele>673.7</ele>
        <time>2021-05-09T10:27:37Z</time>
      </trkpt>
      <trkpt lat="44.46048" lon="5.45469">
        <ele>673</ele>
        <time>2021-05-09T10:27:39Z</time>
      </trkpt>
      <trkpt lat="44.46055" lon="5.45467">
        <ele>672.2</ele>
        <time>2021-05-09T10:27:44Z</time>
      </trkpt>
      <trkpt lat="44.46059" lon="5.45465">
        <ele>671.6</ele>
        <time>2021-05-09T10:28:43Z</time>
      </trkpt>
      <trkpt lat="44.46059" lon="5.45458">
        <ele>670.3</ele>
        <time>2021-05-09T10:29:30Z</time>
      </trkpt>
      <trkpt lat="44.46059" lon="5.45463">
        <ele>671.2</ele>
        <time>2021-05-09T10:29:36Z</time>
      </trkpt>
      <trkpt lat="44.46135" lon="5.45428">
        <ele>666.4</ele>
        <time>2021-05-09T10:30:07Z</time>
      </trkpt>
      <trkpt lat="44.46196" lon="5.45416">
        <ele>666.3</ele>
        <time>2021-05-09T10:30:32Z</time>
      </trkpt>
      <trkpt lat="44.46211" lon="5.45423">
        <ele>667.5</ele>
        <time>2021-05-09T10:30:39Z</time>
      </trkpt>
      <trkpt lat="44.46215" lon="5.45426">
        <ele>668</ele>
        <time>2021-05-09T10:30:41Z</time>
      </trkpt>
      <trkpt lat="44.46218" lon="5.45434">
        <ele>669.1</ele>
        <time>2021-05-09T10:30:44Z</time>
      </trkpt>
      <trkpt lat="44.46218" lon="5.45443">
        <ele>670.5</ele>
        <time>2021-05-09T10:30:47Z</time>
      </trkpt>
      <trkpt lat="44.46211" lon="5.45451">
        <ele>671.6</ele>
        <time>2021-05-09T10:30:51Z</time>
      </trkpt>
      <trkpt lat="44.46162" lon="5.45483">
        <ele>676.9</ele>
        <time>2021-05-09T10:31:16Z</time>
      </trkpt>
      <trkpt lat="44.46158" lon="5.45489">
        <ele>677.7</ele>
        <time>2021-05-09T10:31:19Z</time>
      </trkpt>
      <trkpt lat="44.46156" lon="5.45496">
        <ele>678.8</ele>
        <time>2021-05-09T10:31:23Z</time>
      </trkpt>
      <trkpt lat="44.46155" lon="5.45504">
        <ele>680.5</ele>
        <time>2021-05-09T10:31:25Z</time>
      </trkpt>
      <trkpt lat="44.46159" lon="5.45511">
        <ele>682.4</ele>
        <time>2021-05-09T10:31:28Z</time>
      </trkpt>
      <trkpt lat="44.46177" lon="5.45514">
        <ele>682.9</ele>
        <time>2021-05-09T10:31:35Z</time>
      </trkpt>
      <trkpt lat="44.46182" lon="5.45515">
        <ele>683</ele>
        <time>2021-05-09T10:31:37Z</time>
      </trkpt>
      <trkpt lat="44.46247" lon="5.45567">
        <ele>688</ele>
        <time>2021-05-09T10:32:09Z</time>
      </trkpt>
      <trkpt lat="44.4627" lon="5.45584">
        <ele>689</ele>
        <time>2021-05-09T10:32:21Z</time>
      </trkpt>
      <trkpt lat="44.46329" lon="5.45634">
        <ele>694.1</ele>
        <time>2021-05-09T10:32:51Z</time>
      </trkpt>
      <trkpt lat="44.46386" lon="5.45698">
        <ele>701</ele>
        <time>2021-05-09T10:33:24Z</time>
      </trkpt>
      <trkpt lat="44.46422" lon="5.45743">
        <ele>705</ele>
        <time>2021-05-09T10:33:45Z</time>
      </trkpt>
      <trkpt lat="44.46442" lon="5.45753">
        <ele>706</ele>
        <time>2021-05-09T10:33:53Z</time>
      </trkpt>
      <trkpt lat="44.4652" lon="5.45754">
        <ele>708.2</ele>
        <time>2021-05-09T10:34:24Z</time>
      </trkpt>
      <trkpt lat="44.46579" lon="5.45747">
        <ele>715.1</ele>
        <time>2021-05-09T10:34:54Z</time>
      </trkpt>
      <trkpt lat="44.4662" lon="5.45661">
        <ele>712.8</ele>
        <time>2021-05-09T10:35:25Z</time>
      </trkpt>
      <trkpt lat="44.46625" lon="5.45659">
        <ele>713.7</ele>
        <time>2021-05-09T10:35:27Z</time>
      </trkpt>
      <trkpt lat="44.46629" lon="5.45663">
        <ele>714.7</ele>
        <time>2021-05-09T10:35:29Z</time>
      </trkpt>
      <trkpt lat="44.46631" lon="5.4567">
        <ele>715.3</ele>
        <time>2021-05-09T10:35:31Z</time>
      </trkpt>
      <trkpt lat="44.4663" lon="5.45677">
        <ele>715.6</ele>
        <time>2021-05-09T10:35:33Z</time>
      </trkpt>
      <trkpt lat="44.46627" lon="5.45683">
        <ele>715.4</ele>
        <time>2021-05-09T10:35:36Z</time>
      </trkpt>
      <trkpt lat="44.46625" lon="5.45691">
        <ele>715.6</ele>
        <time>2021-05-09T10:35:54Z</time>
      </trkpt>
      <trkpt lat="44.46623" lon="5.45698">
        <ele>715.8</ele>
        <time>2021-05-09T10:35:56Z</time>
      </trkpt>
      <trkpt lat="44.4662" lon="5.45703">
        <ele>715.7</ele>
        <time>2021-05-09T10:35:58Z</time>
      </trkpt>
      <trkpt lat="44.46607" lon="5.45746">
        <ele>717.6</ele>
        <time>2021-05-09T10:36:11Z</time>
      </trkpt>
      <trkpt lat="44.46606" lon="5.45799">
        <ele>723.7</ele>
        <time>2021-05-09T10:36:25Z</time>
      </trkpt>
      <trkpt lat="44.46602" lon="5.45813">
        <ele>725.2</ele>
        <time>2021-05-09T10:36:29Z</time>
      </trkpt>
      <trkpt lat="44.46596" lon="5.45828">
        <ele>726.8</ele>
        <time>2021-05-09T10:36:33Z</time>
      </trkpt>
      <trkpt lat="44.46553" lon="5.45878">
        <ele>727.6</ele>
        <time>2021-05-09T10:36:51Z</time>
      </trkpt>
      <trkpt lat="44.46545" lon="5.45891">
        <ele>727.8</ele>
        <time>2021-05-09T10:36:55Z</time>
      </trkpt>
      <trkpt lat="44.46541" lon="5.45898">
        <ele>728</ele>
        <time>2021-05-09T10:36:57Z</time>
      </trkpt>
      <trkpt lat="44.46536" lon="5.45925">
        <ele>729</ele>
        <time>2021-05-09T10:37:03Z</time>
      </trkpt>
      <trkpt lat="44.46536" lon="5.45936">
        <ele>728.8</ele>
        <time>2021-05-09T10:37:05Z</time>
      </trkpt>
      <trkpt lat="44.46534" lon="5.45948">
        <ele>728.4</ele>
        <time>2021-05-09T10:37:07Z</time>
      </trkpt>
      <trkpt lat="44.46526" lon="5.45959">
        <ele>727.7</ele>
        <time>2021-05-09T10:37:09Z</time>
      </trkpt>
      <trkpt lat="44.46523" lon="5.45963">
        <ele>727.5</ele>
        <time>2021-05-09T10:37:10Z</time>
      </trkpt>
      <trkpt lat="44.46498" lon="5.4597">
        <ele>726.7</ele>
        <time>2021-05-09T10:37:16Z</time>
      </trkpt>
      <trkpt lat="44.46493" lon="5.45972">
        <ele>727.2</ele>
        <time>2021-05-09T10:37:17Z</time>
      </trkpt>
      <trkpt lat="44.46489" lon="5.45975">
        <ele>727.7</ele>
        <time>2021-05-09T10:37:18Z</time>
      </trkpt>
      <trkpt lat="44.46484" lon="5.45985">
        <ele>728.9</ele>
        <time>2021-05-09T10:37:20Z</time>
      </trkpt>
      <trkpt lat="44.46521" lon="5.46075">
        <ele>727.3</ele>
        <time>2021-05-09T10:37:34Z</time>
      </trkpt>
      <trkpt lat="44.46523" lon="5.46084">
        <ele>726.9</ele>
        <time>2021-05-09T10:37:35Z</time>
      </trkpt>
      <trkpt lat="44.46523" lon="5.46127">
        <ele>727.3</ele>
        <time>2021-05-09T10:37:39Z</time>
      </trkpt>
      <trkpt lat="44.46524" lon="5.46137">
        <ele>727.1</ele>
        <time>2021-05-09T10:37:40Z</time>
      </trkpt>
      <trkpt lat="44.46535" lon="5.46162">
        <ele>724.4</ele>
        <time>2021-05-09T10:37:43Z</time>
      </trkpt>
      <trkpt lat="44.46581" lon="5.46233">
        <ele>715.5</ele>
        <time>2021-05-09T10:37:53Z</time>
      </trkpt>
      <trkpt lat="44.46586" lon="5.46252">
        <ele>715.4</ele>
        <time>2021-05-09T10:37:55Z</time>
      </trkpt>
      <trkpt lat="44.46587" lon="5.46278">
        <ele>715.2</ele>
        <time>2021-05-09T10:37:58Z</time>
      </trkpt>
      <trkpt lat="44.46573" lon="5.46359">
        <ele>714.6</ele>
        <time>2021-05-09T10:38:06Z</time>
      </trkpt>
      <trkpt lat="44.46575" lon="5.46407">
        <ele>709.8</ele>
        <time>2021-05-09T10:38:10Z</time>
      </trkpt>
      <trkpt lat="44.46578" lon="5.46428">
        <ele>707.6</ele>
        <time>2021-05-09T10:38:12Z</time>
      </trkpt>
      <trkpt lat="44.46585" lon="5.46442">
        <ele>705.7</ele>
        <time>2021-05-09T10:38:14Z</time>
      </trkpt>
      <trkpt lat="44.46588" lon="5.46448">
        <ele>705</ele>
        <time>2021-05-09T10:38:15Z</time>
      </trkpt>
      <trkpt lat="44.46668" lon="5.46509">
        <ele>697.3</ele>
        <time>2021-05-09T10:38:29Z</time>
      </trkpt>
      <trkpt lat="44.46673" lon="5.46514">
        <ele>696.3</ele>
        <time>2021-05-09T10:38:30Z</time>
      </trkpt>
      <trkpt lat="44.46676" lon="5.46521">
        <ele>695.5</ele>
        <time>2021-05-09T10:38:31Z</time>
      </trkpt>
      <trkpt lat="44.46679" lon="5.46529">
        <ele>694.6</ele>
        <time>2021-05-09T10:38:32Z</time>
      </trkpt>
      <trkpt lat="44.4668" lon="5.46537">
        <ele>694</ele>
        <time>2021-05-09T10:38:33Z</time>
      </trkpt>
      <trkpt lat="44.46679" lon="5.46555">
        <ele>693.1</ele>
        <time>2021-05-09T10:38:35Z</time>
      </trkpt>
      <trkpt lat="44.46672" lon="5.46571">
        <ele>693.1</ele>
        <time>2021-05-09T10:38:37Z</time>
      </trkpt>
      <trkpt lat="44.46667" lon="5.46577">
        <ele>693.3</ele>
        <time>2021-05-09T10:38:38Z</time>
      </trkpt>
      <trkpt lat="44.46661" lon="5.46582">
        <ele>693</ele>
        <time>2021-05-09T10:38:39Z</time>
      </trkpt>
      <trkpt lat="44.46597" lon="5.46602">
        <ele>690.8</ele>
        <time>2021-05-09T10:38:48Z</time>
      </trkpt>
      <trkpt lat="44.46585" lon="5.46611">
        <ele>690.3</ele>
        <time>2021-05-09T10:38:50Z</time>
      </trkpt>
      <trkpt lat="44.4658" lon="5.46617">
        <ele>690.4</ele>
        <time>2021-05-09T10:38:51Z</time>
      </trkpt>
      <trkpt lat="44.46576" lon="5.46626">
        <ele>690.3</ele>
        <time>2021-05-09T10:38:52Z</time>
      </trkpt>
      <trkpt lat="44.46573" lon="5.4668">
        <ele>688.7</ele>
        <time>2021-05-09T10:38:57Z</time>
      </trkpt>
      <trkpt lat="44.4658" lon="5.46713">
        <ele>687.6</ele>
        <time>2021-05-09T10:39:00Z</time>
      </trkpt>
      <trkpt lat="44.46611" lon="5.46762">
        <ele>682.8</ele>
        <time>2021-05-09T10:39:06Z</time>
      </trkpt>
      <trkpt lat="44.46629" lon="5.46781">
        <ele>680.8</ele>
        <time>2021-05-09T10:39:09Z</time>
      </trkpt>
      <trkpt lat="44.46665" lon="5.46812">
        <ele>676.7</ele>
        <time>2021-05-09T10:39:14Z</time>
      </trkpt>
      <trkpt lat="44.46705" lon="5.46859">
        <ele>668.6</ele>
        <time>2021-05-09T10:39:21Z</time>
      </trkpt>
      <trkpt lat="44.46709" lon="5.46867">
        <ele>667.7</ele>
        <time>2021-05-09T10:39:22Z</time>
      </trkpt>
      <trkpt lat="44.46711" lon="5.46876">
        <ele>667.3</ele>
        <time>2021-05-09T10:39:23Z</time>
      </trkpt>
      <trkpt lat="44.4671" lon="5.46942">
        <ele>666.1</ele>
        <time>2021-05-09T10:39:29Z</time>
      </trkpt>
      <trkpt lat="44.46707" lon="5.46961">
        <ele>665.4</ele>
        <time>2021-05-09T10:39:31Z</time>
      </trkpt>
      <trkpt lat="44.46704" lon="5.4697">
        <ele>665.3</ele>
        <time>2021-05-09T10:39:32Z</time>
      </trkpt>
      <trkpt lat="44.46699" lon="5.46977">
        <ele>665.9</ele>
        <time>2021-05-09T10:39:33Z</time>
      </trkpt>
      <trkpt lat="44.46693" lon="5.46981">
        <ele>666.9</ele>
        <time>2021-05-09T10:39:34Z</time>
      </trkpt>
      <trkpt lat="44.46686" lon="5.46985">
        <ele>668.1</ele>
        <time>2021-05-09T10:39:35Z</time>
      </trkpt>
      <trkpt lat="44.46681" lon="5.4699">
        <ele>668.8</ele>
        <time>2021-05-09T10:39:36Z</time>
      </trkpt>
      <trkpt lat="44.46678" lon="5.46998">
        <ele>668.7</ele>
        <time>2021-05-09T10:39:37Z</time>
      </trkpt>
      <trkpt lat="44.46682" lon="5.47032">
        <ele>664.7</ele>
        <time>2021-05-09T10:39:41Z</time>
      </trkpt>
      <trkpt lat="44.46678" lon="5.4705">
        <ele>663.8</ele>
        <time>2021-05-09T10:39:43Z</time>
      </trkpt>
      <trkpt lat="44.46669" lon="5.47069">
        <ele>663.9</ele>
        <time>2021-05-09T10:39:45Z</time>
      </trkpt>
      <trkpt lat="44.46665" lon="5.47078">
        <ele>663.7</ele>
        <time>2021-05-09T10:39:46Z</time>
      </trkpt>
      <trkpt lat="44.46655" lon="5.47144">
        <ele>659.4</ele>
        <time>2021-05-09T10:39:53Z</time>
      </trkpt>
      <trkpt lat="44.46658" lon="5.47162">
        <ele>657.5</ele>
        <time>2021-05-09T10:39:55Z</time>
      </trkpt>
      <trkpt lat="44.46682" lon="5.47211">
        <ele>653.8</ele>
        <time>2021-05-09T10:40:03Z</time>
      </trkpt>
      <trkpt lat="44.46686" lon="5.47221">
        <ele>653.3</ele>
        <time>2021-05-09T10:40:05Z</time>
      </trkpt>
      <trkpt lat="44.46684" lon="5.4731">
        <ele>651.9</ele>
        <time>2021-05-09T10:40:23Z</time>
      </trkpt>
      <trkpt lat="44.4668" lon="5.47333">
        <ele>651.6</ele>
        <time>2021-05-09T10:40:29Z</time>
      </trkpt>
      <trkpt lat="44.46666" lon="5.47357">
        <ele>651.4</ele>
        <time>2021-05-09T10:40:37Z</time>
      </trkpt>
      <trkpt lat="44.46656" lon="5.47369">
        <ele>651.7</ele>
        <time>2021-05-09T10:40:41Z</time>
      </trkpt>
      <trkpt lat="44.4664" lon="5.47397">
        <ele>652</ele>
        <time>2021-05-09T10:40:49Z</time>
      </trkpt>
      <trkpt lat="44.46632" lon="5.47417">
        <ele>652</ele>
        <time>2021-05-09T10:40:55Z</time>
      </trkpt>
      <trkpt lat="44.46631" lon="5.47424">
        <ele>652.2</ele>
        <time>2021-05-09T10:40:57Z</time>
      </trkpt>
      <trkpt lat="44.46627" lon="5.47428">
        <ele>652.9</ele>
        <time>2021-05-09T10:41:00Z</time>
      </trkpt>
      <trkpt lat="44.46628" lon="5.47436">
        <ele>652.8</ele>
        <time>2021-05-09T10:41:07Z</time>
      </trkpt>
      <trkpt lat="44.46633" lon="5.47441">
        <ele>652.2</ele>
        <time>2021-05-09T10:43:52Z</time>
      </trkpt>
      <trkpt lat="44.46631" lon="5.4745">
        <ele>652.6</ele>
        <time>2021-05-09T10:43:54Z</time>
      </trkpt>
      <trkpt lat="44.46633" lon="5.47466">
        <ele>652.6</ele>
        <time>2021-05-09T10:44:00Z</time>
      </trkpt>
      <trkpt lat="44.46631" lon="5.47506">
        <ele>653.3</ele>
        <time>2021-05-09T10:44:08Z</time>
      </trkpt>
      <trkpt lat="44.46618" lon="5.47552">
        <ele>654.4</ele>
        <time>2021-05-09T10:44:18Z</time>
      </trkpt>
      <trkpt lat="44.46613" lon="5.47571">
        <ele>654.6</ele>
        <time>2021-05-09T10:44:22Z</time>
      </trkpt>
      <trkpt lat="44.46606" lon="5.47592">
        <ele>654.9</ele>
        <time>2021-05-09T10:44:26Z</time>
      </trkpt>
      <trkpt lat="44.46601" lon="5.47627">
        <ele>654.6</ele>
        <time>2021-05-09T10:44:32Z</time>
      </trkpt>
      <trkpt lat="44.46623" lon="5.4771">
        <ele>652.9</ele>
        <time>2021-05-09T10:44:46Z</time>
      </trkpt>
      <trkpt lat="44.46636" lon="5.47737">
        <ele>652.4</ele>
        <time>2021-05-09T10:44:51Z</time>
      </trkpt>
      <trkpt lat="44.46643" lon="5.47747">
        <ele>651.9</ele>
        <time>2021-05-09T10:44:53Z</time>
      </trkpt>
      <trkpt lat="44.46654" lon="5.47755">
        <ele>651.1</ele>
        <time>2021-05-09T10:44:55Z</time>
      </trkpt>
      <trkpt lat="44.46697" lon="5.4777">
        <ele>649.2</ele>
        <time>2021-05-09T10:45:02Z</time>
      </trkpt>
      <trkpt lat="44.46744" lon="5.47773">
        <ele>647.9</ele>
        <time>2021-05-09T10:45:11Z</time>
      </trkpt>
      <trkpt lat="44.46807" lon="5.47789">
        <ele>648.5</ele>
        <time>2021-05-09T10:45:23Z</time>
      </trkpt>
      <trkpt lat="44.46813" lon="5.47792">
        <ele>648.6</ele>
        <time>2021-05-09T10:45:24Z</time>
      </trkpt>
      <trkpt lat="44.46818" lon="5.47797">
        <ele>648.8</ele>
        <time>2021-05-09T10:45:25Z</time>
      </trkpt>
      <trkpt lat="44.46821" lon="5.47804">
        <ele>649</ele>
        <time>2021-05-09T10:45:26Z</time>
      </trkpt>
      <trkpt lat="44.46823" lon="5.47811">
        <ele>649.2</ele>
        <time>2021-05-09T10:45:27Z</time>
      </trkpt>
      <trkpt lat="44.46821" lon="5.47847">
        <ele>649.4</ele>
        <time>2021-05-09T10:45:34Z</time>
      </trkpt>
      <trkpt lat="44.46815" lon="5.48012">
        <ele>648.9</ele>
        <time>2021-05-09T10:46:06Z</time>
      </trkpt>
      <trkpt lat="44.46804" lon="5.48178">
        <ele>653.3</ele>
        <time>2021-05-09T10:46:37Z</time>
      </trkpt>
      <trkpt lat="44.468" lon="5.48382">
        <ele>659.1</ele>
        <time>2021-05-09T10:47:09Z</time>
      </trkpt>
      <trkpt lat="44.46802" lon="5.48484">
        <ele>664.5</ele>
        <time>2021-05-09T10:47:26Z</time>
      </trkpt>
      <trkpt lat="44.46792" lon="5.48515">
        <ele>663.7</ele>
        <time>2021-05-09T10:47:32Z</time>
      </trkpt>
      <trkpt lat="44.46743" lon="5.4862">
        <ele>657.4</ele>
        <time>2021-05-09T10:47:53Z</time>
      </trkpt>
      <trkpt lat="44.46735" lon="5.4866">
        <ele>656.9</ele>
        <time>2021-05-09T10:48:01Z</time>
      </trkpt>
      <trkpt lat="44.46721" lon="5.48814">
        <ele>660.1</ele>
        <time>2021-05-09T10:48:31Z</time>
      </trkpt>
      <trkpt lat="44.46702" lon="5.49005">
        <ele>662.3</ele>
        <time>2021-05-09T10:49:03Z</time>
      </trkpt>
      <trkpt lat="44.46692" lon="5.49052">
        <ele>662.3</ele>
        <time>2021-05-09T10:49:11Z</time>
      </trkpt>
      <trkpt lat="44.46647" lon="5.49217">
        <ele>665.4</ele>
        <time>2021-05-09T10:49:41Z</time>
      </trkpt>
      <trkpt lat="44.46643" lon="5.49252">
        <ele>665.8</ele>
        <time>2021-05-09T10:49:47Z</time>
      </trkpt>
      <trkpt lat="44.46644" lon="5.49279">
        <ele>666.7</ele>
        <time>2021-05-09T10:49:51Z</time>
      </trkpt>
      <trkpt lat="44.46659" lon="5.49336">
        <ele>668.9</ele>
        <time>2021-05-09T10:50:02Z</time>
      </trkpt>
      <trkpt lat="44.467" lon="5.49473">
        <ele>673.3</ele>
        <time>2021-05-09T10:50:32Z</time>
      </trkpt>
      <trkpt lat="44.4673" lon="5.49673">
        <ele>672.3</ele>
        <time>2021-05-09T10:51:02Z</time>
      </trkpt>
      <trkpt lat="44.46757" lon="5.49863">
        <ele>678.7</ele>
        <time>2021-05-09T10:51:33Z</time>
      </trkpt>
      <trkpt lat="44.46774" lon="5.50055">
        <ele>684.9</ele>
        <time>2021-05-09T10:52:04Z</time>
      </trkpt>
      <trkpt lat="44.46776" lon="5.50177">
        <ele>684.2</ele>
        <time>2021-05-09T10:52:24Z</time>
      </trkpt>
      <trkpt lat="44.46782" lon="5.50202">
        <ele>684.9</ele>
        <time>2021-05-09T10:52:28Z</time>
      </trkpt>
      <trkpt lat="44.46788" lon="5.50219">
        <ele>685.4</ele>
        <time>2021-05-09T10:52:31Z</time>
      </trkpt>
      <trkpt lat="44.46823" lon="5.50284">
        <ele>686.3</ele>
        <time>2021-05-09T10:52:45Z</time>
      </trkpt>
      <trkpt lat="44.46828" lon="5.50304">
        <ele>686.2</ele>
        <time>2021-05-09T10:52:49Z</time>
      </trkpt>
      <trkpt lat="44.46829" lon="5.50322">
        <ele>686.3</ele>
        <time>2021-05-09T10:52:53Z</time>
      </trkpt>
      <trkpt lat="44.46809" lon="5.505">
        <ele>689.8</ele>
        <time>2021-05-09T10:53:21Z</time>
      </trkpt>
      <trkpt lat="44.4681" lon="5.50543">
        <ele>688.5</ele>
        <time>2021-05-09T10:53:27Z</time>
      </trkpt>
      <trkpt lat="44.4681" lon="5.50555">
        <ele>688.2</ele>
        <time>2021-05-09T10:53:29Z</time>
      </trkpt>
      <trkpt lat="44.46802" lon="5.5059">
        <ele>688.5</ele>
        <time>2021-05-09T10:53:35Z</time>
      </trkpt>
      <trkpt lat="44.4676" lon="5.50707">
        <ele>690.8</ele>
        <time>2021-05-09T10:53:57Z</time>
      </trkpt>
      <trkpt lat="44.46754" lon="5.5074">
        <ele>691.7</ele>
        <time>2021-05-09T10:54:03Z</time>
      </trkpt>
      <trkpt lat="44.46756" lon="5.50763">
        <ele>692.2</ele>
        <time>2021-05-09T10:54:07Z</time>
      </trkpt>
      <trkpt lat="44.46759" lon="5.50774">
        <ele>692.4</ele>
        <time>2021-05-09T10:54:09Z</time>
      </trkpt>
      <trkpt lat="44.46766" lon="5.50784">
        <ele>692.5</ele>
        <time>2021-05-09T10:54:11Z</time>
      </trkpt>
      <trkpt lat="44.46773" lon="5.5079">
        <ele>692.6</ele>
        <time>2021-05-09T10:54:13Z</time>
      </trkpt>
      <trkpt lat="44.46807" lon="5.50808">
        <ele>692.2</ele>
        <time>2021-05-09T10:54:21Z</time>
      </trkpt>
      <trkpt lat="44.46884" lon="5.50869">
        <ele>696.4</ele>
        <time>2021-05-09T10:54:46Z</time>
      </trkpt>
      <trkpt lat="44.46902" lon="5.50879">
        <ele>697.9</ele>
        <time>2021-05-09T10:54:52Z</time>
      </trkpt>
      <trkpt lat="44.46908" lon="5.50884">
        <ele>698.3</ele>
        <time>2021-05-09T10:54:54Z</time>
      </trkpt>
      <trkpt lat="44.46912" lon="5.50891">
        <ele>698.6</ele>
        <time>2021-05-09T10:54:56Z</time>
      </trkpt>
      <trkpt lat="44.46914" lon="5.50898">
        <ele>698.8</ele>
        <time>2021-05-09T10:54:58Z</time>
      </trkpt>
      <trkpt lat="44.4691" lon="5.50912">
        <ele>698.5</ele>
        <time>2021-05-09T10:55:02Z</time>
      </trkpt>
      <trkpt lat="44.46872" lon="5.50968">
        <ele>697.9</ele>
        <time>2021-05-09T10:55:18Z</time>
      </trkpt>
      <trkpt lat="44.46869" lon="5.50973">
        <ele>697.8</ele>
        <time>2021-05-09T10:55:21Z</time>
      </trkpt>
      <trkpt lat="44.46871" lon="5.50978">
        <ele>698.2</ele>
        <time>2021-05-09T11:02:26Z</time>
      </trkpt>
      <trkpt lat="44.46871" lon="5.50985">
        <ele>698.5</ele>
        <time>2021-05-09T11:06:02Z</time>
      </trkpt>
      <trkpt lat="44.46875" lon="5.50988">
        <ele>699</ele>
        <time>2021-05-09T11:14:53Z</time>
      </trkpt>
      <trkpt lat="44.46879" lon="5.50983">
        <ele>699.2</ele>
        <time>2021-05-09T11:15:23Z</time>
      </trkpt>
      <trkpt lat="44.46881" lon="5.50977">
        <ele>699.1</ele>
        <time>2021-05-09T11:15:52Z</time>
      </trkpt>
      <trkpt lat="44.4688" lon="5.50969">
        <ele>698.7</ele>
        <time>2021-05-09T11:16:02Z</time>
      </trkpt>
      <trkpt lat="44.46886" lon="5.50966">
        <ele>699.1</ele>
        <time>2021-05-09T11:16:16Z</time>
      </trkpt>
      <trkpt lat="44.46896" lon="5.5097">
        <ele>700.2</ele>
        <time>2021-05-09T11:16:23Z</time>
      </trkpt>
      <trkpt lat="44.46892" lon="5.50972">
        <ele>700</ele>
        <time>2021-05-09T11:16:59Z</time>
      </trkpt>
      <trkpt lat="44.46887" lon="5.50975">
        <ele>699.6</ele>
        <time>2021-05-09T11:17:02Z</time>
      </trkpt>
      <trkpt lat="44.4688" lon="5.50978">
        <ele>699.1</ele>
        <time>2021-05-09T11:17:04Z</time>
      </trkpt>
      <trkpt lat="44.46868" lon="5.50993">
        <ele>698.5</ele>
        <time>2021-05-09T11:17:08Z</time>
      </trkpt>
      <trkpt lat="44.46823" lon="5.51044">
        <ele>697.1</ele>
        <time>2021-05-09T11:17:19Z</time>
      </trkpt>
      <trkpt lat="44.46814" lon="5.51055">
        <ele>697.1</ele>
        <time>2021-05-09T11:17:21Z</time>
      </trkpt>
      <trkpt lat="44.46809" lon="5.5107">
        <ele>697.4</ele>
        <time>2021-05-09T11:17:23Z</time>
      </trkpt>
      <trkpt lat="44.46805" lon="5.51123">
        <ele>699</ele>
        <time>2021-05-09T11:17:30Z</time>
      </trkpt>
      <trkpt lat="44.46773" lon="5.51299">
        <ele>704.2</ele>
        <time>2021-05-09T11:17:57Z</time>
      </trkpt>
      <trkpt lat="44.46774" lon="5.51393">
        <ele>707.2</ele>
        <time>2021-05-09T11:18:13Z</time>
      </trkpt>
      <trkpt lat="44.46761" lon="5.5145">
        <ele>704.4</ele>
        <time>2021-05-09T11:18:25Z</time>
      </trkpt>
      <trkpt lat="44.46756" lon="5.51485">
        <ele>703.9</ele>
        <time>2021-05-09T11:18:33Z</time>
      </trkpt>
      <trkpt lat="44.46757" lon="5.51526">
        <ele>704.7</ele>
        <time>2021-05-09T11:18:41Z</time>
      </trkpt>
      <trkpt lat="44.46756" lon="5.51537">
        <ele>704.6</ele>
        <time>2021-05-09T11:18:43Z</time>
      </trkpt>
      <trkpt lat="44.46709" lon="5.51663">
        <ele>705.4</ele>
        <time>2021-05-09T11:19:07Z</time>
      </trkpt>
      <trkpt lat="44.46662" lon="5.51746">
        <ele>703.8</ele>
        <time>2021-05-09T11:19:24Z</time>
      </trkpt>
      <trkpt lat="44.46548" lon="5.51871">
        <ele>708.5</ele>
        <time>2021-05-09T11:19:54Z</time>
      </trkpt>
      <trkpt lat="44.4653" lon="5.51897">
        <ele>709.3</ele>
        <time>2021-05-09T11:20:02Z</time>
      </trkpt>
      <trkpt lat="44.46486" lon="5.52003">
        <ele>712.9</ele>
        <time>2021-05-09T11:20:32Z</time>
      </trkpt>
      <trkpt lat="44.46442" lon="5.52113">
        <ele>717.9</ele>
        <time>2021-05-09T11:21:04Z</time>
      </trkpt>
      <trkpt lat="44.46421" lon="5.52154">
        <ele>717.9</ele>
        <time>2021-05-09T11:21:14Z</time>
      </trkpt>
      <trkpt lat="44.46375" lon="5.52212">
        <ele>716.6</ele>
        <time>2021-05-09T11:21:28Z</time>
      </trkpt>
      <trkpt lat="44.46367" lon="5.52219">
        <ele>716.4</ele>
        <time>2021-05-09T11:21:30Z</time>
      </trkpt>
      <trkpt lat="44.46359" lon="5.52224">
        <ele>716.2</ele>
        <time>2021-05-09T11:21:32Z</time>
      </trkpt>
      <trkpt lat="44.46332" lon="5.52227">
        <ele>714.9</ele>
        <time>2021-05-09T11:21:38Z</time>
      </trkpt>
      <trkpt lat="44.46319" lon="5.52233">
        <ele>715.4</ele>
        <time>2021-05-09T11:21:41Z</time>
      </trkpt>
      <trkpt lat="44.46287" lon="5.52263">
        <ele>717.3</ele>
        <time>2021-05-09T11:21:50Z</time>
      </trkpt>
      <trkpt lat="44.46193" lon="5.52361">
        <ele>721.1</ele>
        <time>2021-05-09T11:22:20Z</time>
      </trkpt>
      <trkpt lat="44.46105" lon="5.52456">
        <ele>724.5</ele>
        <time>2021-05-09T11:22:52Z</time>
      </trkpt>
      <trkpt lat="44.46078" lon="5.52487">
        <ele>726</ele>
        <time>2021-05-09T11:23:02Z</time>
      </trkpt>
      <trkpt lat="44.46064" lon="5.52512">
        <ele>726.6</ele>
        <time>2021-05-09T11:23:08Z</time>
      </trkpt>
      <trkpt lat="44.46004" lon="5.52643">
        <ele>728.3</ele>
        <time>2021-05-09T11:23:38Z</time>
      </trkpt>
      <trkpt lat="44.4595" lon="5.52731">
        <ele>728.7</ele>
        <time>2021-05-09T11:24:00Z</time>
      </trkpt>
      <trkpt lat="44.45844" lon="5.52853">
        <ele>729.5</ele>
        <time>2021-05-09T11:24:32Z</time>
      </trkpt>
      <trkpt lat="44.45753" lon="5.52959">
        <ele>734.1</ele>
        <time>2021-05-09T11:25:02Z</time>
      </trkpt>
      <trkpt lat="44.4566" lon="5.53069">
        <ele>736.9</ele>
        <time>2021-05-09T11:25:33Z</time>
      </trkpt>
      <trkpt lat="44.45566" lon="5.53175">
        <ele>739.4</ele>
        <time>2021-05-09T11:26:03Z</time>
      </trkpt>
      <trkpt lat="44.45482" lon="5.53269">
        <ele>744.1</ele>
        <time>2021-05-09T11:26:33Z</time>
      </trkpt>
      <trkpt lat="44.45384" lon="5.53369">
        <ele>746.9</ele>
        <time>2021-05-09T11:27:05Z</time>
      </trkpt>
      <trkpt lat="44.45281" lon="5.53468">
        <ele>748.6</ele>
        <time>2021-05-09T11:27:37Z</time>
      </trkpt>
      <trkpt lat="44.45199" lon="5.5357">
        <ele>753.1</ele>
        <time>2021-05-09T11:28:05Z</time>
      </trkpt>
      <trkpt lat="44.45156" lon="5.53652">
        <ele>755.8</ele>
        <time>2021-05-09T11:28:27Z</time>
      </trkpt>
      <trkpt lat="44.45141" lon="5.53683">
        <ele>756.5</ele>
        <time>2021-05-09T11:28:35Z</time>
      </trkpt>
      <trkpt lat="44.45133" lon="5.53723">
        <ele>757.3</ele>
        <time>2021-05-09T11:28:45Z</time>
      </trkpt>
      <trkpt lat="44.45134" lon="5.53817">
        <ele>761.4</ele>
        <time>2021-05-09T11:29:07Z</time>
      </trkpt>
      <trkpt lat="44.45128" lon="5.53853">
        <ele>763.3</ele>
        <time>2021-05-09T11:29:17Z</time>
      </trkpt>
      <trkpt lat="44.45129" lon="5.53862">
        <ele>764.1</ele>
        <time>2021-05-09T11:29:19Z</time>
      </trkpt>
      <trkpt lat="44.45125" lon="5.53899">
        <ele>766.6</ele>
        <time>2021-05-09T11:29:29Z</time>
      </trkpt>
      <trkpt lat="44.45121" lon="5.53958">
        <ele>770.2</ele>
        <time>2021-05-09T11:29:47Z</time>
      </trkpt>
      <trkpt lat="44.45118" lon="5.53993">
        <ele>772.1</ele>
        <time>2021-05-09T11:29:58Z</time>
      </trkpt>
      <trkpt lat="44.45114" lon="5.5401">
        <ele>773.2</ele>
        <time>2021-05-09T11:30:04Z</time>
      </trkpt>
      <trkpt lat="44.4511" lon="5.54025">
        <ele>774.4</ele>
        <time>2021-05-09T11:30:09Z</time>
      </trkpt>
      <trkpt lat="44.45081" lon="5.5412">
        <ele>780.7</ele>
        <time>2021-05-09T11:30:39Z</time>
      </trkpt>
      <trkpt lat="44.45078" lon="5.54127">
        <ele>781.1</ele>
        <time>2021-05-09T11:30:41Z</time>
      </trkpt>
      <trkpt lat="44.45077" lon="5.54134">
        <ele>781.7</ele>
        <time>2021-05-09T11:30:43Z</time>
      </trkpt>
      <trkpt lat="44.45075" lon="5.5414">
        <ele>782</ele>
        <time>2021-05-09T11:30:45Z</time>
      </trkpt>
      <trkpt lat="44.45069" lon="5.54167">
        <ele>783.8</ele>
        <time>2021-05-09T11:30:53Z</time>
      </trkpt>
      <trkpt lat="44.45067" lon="5.54174">
        <ele>783.8</ele>
        <time>2021-05-09T11:30:55Z</time>
      </trkpt>
      <trkpt lat="44.45065" lon="5.54181">
        <ele>783.8</ele>
        <time>2021-05-09T11:30:57Z</time>
      </trkpt>
      <trkpt lat="44.45053" lon="5.54212">
        <ele>783.2</ele>
        <time>2021-05-09T11:31:05Z</time>
      </trkpt>
      <trkpt lat="44.45021" lon="5.54302">
        <ele>779.7</ele>
        <time>2021-05-09T11:31:23Z</time>
      </trkpt>
      <trkpt lat="44.44951" lon="5.54468">
        <ele>781.4</ele>
        <time>2021-05-09T11:31:54Z</time>
      </trkpt>
      <trkpt lat="44.44919" lon="5.54519">
        <ele>782.4</ele>
        <time>2021-05-09T11:32:06Z</time>
      </trkpt>
      <trkpt lat="44.44912" lon="5.54537">
        <ele>783</ele>
        <time>2021-05-09T11:32:10Z</time>
      </trkpt>
      <trkpt lat="44.44892" lon="5.54656">
        <ele>788.6</ele>
        <time>2021-05-09T11:32:36Z</time>
      </trkpt>
      <trkpt lat="44.44856" lon="5.54761">
        <ele>794.2</ele>
        <time>2021-05-09T11:33:08Z</time>
      </trkpt>
      <trkpt lat="44.44852" lon="5.54766">
        <ele>794.6</ele>
        <time>2021-05-09T11:33:10Z</time>
      </trkpt>
      <trkpt lat="44.44842" lon="5.54773">
        <ele>794.9</ele>
        <time>2021-05-09T11:33:15Z</time>
      </trkpt>
      <trkpt lat="44.44811" lon="5.54775">
        <ele>795.6</ele>
        <time>2021-05-09T11:33:27Z</time>
      </trkpt>
      <trkpt lat="44.44805" lon="5.54778">
        <ele>796.2</ele>
        <time>2021-05-09T11:33:29Z</time>
      </trkpt>
      <trkpt lat="44.44795" lon="5.54787">
        <ele>797.3</ele>
        <time>2021-05-09T11:33:33Z</time>
      </trkpt>
      <trkpt lat="44.44782" lon="5.54806">
        <ele>798.8</ele>
        <time>2021-05-09T11:33:39Z</time>
      </trkpt>
      <trkpt lat="44.44773" lon="5.54829">
        <ele>799.9</ele>
        <time>2021-05-09T11:33:45Z</time>
      </trkpt>
      <trkpt lat="44.44753" lon="5.54863">
        <ele>802.4</ele>
        <time>2021-05-09T11:33:55Z</time>
      </trkpt>
      <trkpt lat="44.44749" lon="5.54869">
        <ele>803.1</ele>
        <time>2021-05-09T11:33:57Z</time>
      </trkpt>
      <trkpt lat="44.44734" lon="5.54895">
        <ele>808.1</ele>
        <time>2021-05-09T11:34:05Z</time>
      </trkpt>
      <trkpt lat="44.44724" lon="5.54933">
        <ele>813.2</ele>
        <time>2021-05-09T11:34:15Z</time>
      </trkpt>
      <trkpt lat="44.44722" lon="5.54952">
        <ele>816.1</ele>
        <time>2021-05-09T11:34:19Z</time>
      </trkpt>
      <trkpt lat="44.44718" lon="5.54962">
        <ele>817.6</ele>
        <time>2021-05-09T11:34:21Z</time>
      </trkpt>
      <trkpt lat="44.44709" lon="5.54974">
        <ele>819</ele>
        <time>2021-05-09T11:34:24Z</time>
      </trkpt>
      <trkpt lat="44.44633" lon="5.5503">
        <ele>824.9</ele>
        <time>2021-05-09T11:34:50Z</time>
      </trkpt>
      <trkpt lat="44.44571" lon="5.55104">
        <ele>828.2</ele>
        <time>2021-05-09T11:35:16Z</time>
      </trkpt>
      <trkpt lat="44.44502" lon="5.55156">
        <ele>827.7</ele>
        <time>2021-05-09T11:35:47Z</time>
      </trkpt>
      <trkpt lat="44.44498" lon="5.5516">
        <ele>827.6</ele>
        <time>2021-05-09T11:35:49Z</time>
      </trkpt>
      <trkpt lat="44.44457" lon="5.55276">
        <ele>827</ele>
        <time>2021-05-09T11:36:19Z</time>
      </trkpt>
      <trkpt lat="44.44449" lon="5.55299">
        <ele>826.9</ele>
        <time>2021-05-09T11:36:25Z</time>
      </trkpt>
      <trkpt lat="44.44423" lon="5.55344">
        <ele>826.4</ele>
        <time>2021-05-09T11:36:39Z</time>
      </trkpt>
      <trkpt lat="44.44385" lon="5.55408">
        <ele>830.3</ele>
        <time>2021-05-09T11:36:59Z</time>
      </trkpt>
      <trkpt lat="44.4437" lon="5.55421">
        <ele>831.4</ele>
        <time>2021-05-09T11:37:05Z</time>
      </trkpt>
      <trkpt lat="44.44362" lon="5.55432">
        <ele>831.8</ele>
        <time>2021-05-09T11:37:09Z</time>
      </trkpt>
      <trkpt lat="44.44301" lon="5.55501">
        <ele>837.6</ele>
        <time>2021-05-09T11:37:40Z</time>
      </trkpt>
      <trkpt lat="44.44275" lon="5.55516">
        <ele>841.7</ele>
        <time>2021-05-09T11:37:53Z</time>
      </trkpt>
      <trkpt lat="44.4427" lon="5.55521">
        <ele>842.3</ele>
        <time>2021-05-09T11:37:56Z</time>
      </trkpt>
      <trkpt lat="44.44264" lon="5.55524">
        <ele>843</ele>
        <time>2021-05-09T11:37:59Z</time>
      </trkpt>
      <trkpt lat="44.44259" lon="5.55528">
        <ele>843.5</ele>
        <time>2021-05-09T11:38:02Z</time>
      </trkpt>
      <trkpt lat="44.44243" lon="5.5554">
        <ele>845.6</ele>
        <time>2021-05-09T11:38:11Z</time>
      </trkpt>
      <trkpt lat="44.4418" lon="5.55567">
        <ele>855.7</ele>
        <time>2021-05-09T11:38:42Z</time>
      </trkpt>
      <trkpt lat="44.44141" lon="5.55605">
        <ele>856.2</ele>
        <time>2021-05-09T11:39:03Z</time>
      </trkpt>
      <trkpt lat="44.44132" lon="5.55609">
        <ele>857.4</ele>
        <time>2021-05-09T11:39:07Z</time>
      </trkpt>
      <trkpt lat="44.44125" lon="5.55609">
        <ele>858.5</ele>
        <time>2021-05-09T11:39:10Z</time>
      </trkpt>
      <trkpt lat="44.44116" lon="5.55614">
        <ele>859.6</ele>
        <time>2021-05-09T11:39:14Z</time>
      </trkpt>
      <trkpt lat="44.44103" lon="5.55626">
        <ele>860.6</ele>
        <time>2021-05-09T11:39:21Z</time>
      </trkpt>
      <trkpt lat="44.44094" lon="5.55639">
        <ele>860.9</ele>
        <time>2021-05-09T11:39:27Z</time>
      </trkpt>
      <trkpt lat="44.44088" lon="5.55654">
        <ele>860.4</ele>
        <time>2021-05-09T11:39:33Z</time>
      </trkpt>
      <trkpt lat="44.44086" lon="5.55662">
        <ele>860</ele>
        <time>2021-05-09T11:39:36Z</time>
      </trkpt>
      <trkpt lat="44.44082" lon="5.5567">
        <ele>860.3</ele>
        <time>2021-05-09T11:39:39Z</time>
      </trkpt>
      <trkpt lat="44.44078" lon="5.55685">
        <ele>861.3</ele>
        <time>2021-05-09T11:39:45Z</time>
      </trkpt>
      <trkpt lat="44.44075" lon="5.55693">
        <ele>861.9</ele>
        <time>2021-05-09T11:39:48Z</time>
      </trkpt>
      <trkpt lat="44.44067" lon="5.55715">
        <ele>863.4</ele>
        <time>2021-05-09T11:39:57Z</time>
      </trkpt>
      <trkpt lat="44.44061" lon="5.55729">
        <ele>864.3</ele>
        <time>2021-05-09T11:40:03Z</time>
      </trkpt>
      <trkpt lat="44.4404" lon="5.55745">
        <ele>867.5</ele>
        <time>2021-05-09T11:40:15Z</time>
      </trkpt>
      <trkpt lat="44.4403" lon="5.55748">
        <ele>869.1</ele>
        <time>2021-05-09T11:40:21Z</time>
      </trkpt>
      <trkpt lat="44.44015" lon="5.55756">
        <ele>871.5</ele>
        <time>2021-05-09T11:40:30Z</time>
      </trkpt>
      <trkpt lat="44.44009" lon="5.55758">
        <ele>872.4</ele>
        <time>2021-05-09T11:40:33Z</time>
      </trkpt>
      <trkpt lat="44.44003" lon="5.55758">
        <ele>873.4</ele>
        <time>2021-05-09T11:40:36Z</time>
      </trkpt>
      <trkpt lat="44.43997" lon="5.55758">
        <ele>874.4</ele>
        <time>2021-05-09T11:40:39Z</time>
      </trkpt>
      <trkpt lat="44.4397" lon="5.55763">
        <ele>879.6</ele>
        <time>2021-05-09T11:40:53Z</time>
      </trkpt>
      <trkpt lat="44.4396" lon="5.55768">
        <ele>881.1</ele>
        <time>2021-05-09T11:40:58Z</time>
      </trkpt>
      <trkpt lat="44.43905" lon="5.55819">
        <ele>884.2</ele>
        <time>2021-05-09T11:41:31Z</time>
      </trkpt>
      <trkpt lat="44.43897" lon="5.55826">
        <ele>884.9</ele>
        <time>2021-05-09T11:41:35Z</time>
      </trkpt>
      <trkpt lat="44.43871" lon="5.55851">
        <ele>888.8</ele>
        <time>2021-05-09T11:41:50Z</time>
      </trkpt>
      <trkpt lat="44.4385" lon="5.55869">
        <ele>892.7</ele>
        <time>2021-05-09T11:42:01Z</time>
      </trkpt>
      <trkpt lat="44.43844" lon="5.55871">
        <ele>893.9</ele>
        <time>2021-05-09T11:42:04Z</time>
      </trkpt>
      <trkpt lat="44.43838" lon="5.55868">
        <ele>895.3</ele>
        <time>2021-05-09T11:42:07Z</time>
      </trkpt>
      <trkpt lat="44.43835" lon="5.5586">
        <ele>896.4</ele>
        <time>2021-05-09T11:42:10Z</time>
      </trkpt>
      <trkpt lat="44.43839" lon="5.55849">
        <ele>896</ele>
        <time>2021-05-09T11:42:13Z</time>
      </trkpt>
      <trkpt lat="44.43851" lon="5.55842">
        <ele>893.6</ele>
        <time>2021-05-09T11:42:18Z</time>
      </trkpt>
      <trkpt lat="44.43856" lon="5.55842">
        <ele>892.5</ele>
        <time>2021-05-09T11:42:21Z</time>
      </trkpt>
      <trkpt lat="44.4386" lon="5.55837">
        <ele>891.8</ele>
        <time>2021-05-09T11:42:23Z</time>
      </trkpt>
      <trkpt lat="44.43905" lon="5.55748">
        <ele>896.8</ele>
        <time>2021-05-09T11:42:55Z</time>
      </trkpt>
      <trkpt lat="44.43912" lon="5.55729">
        <ele>898.1</ele>
        <time>2021-05-09T11:43:01Z</time>
      </trkpt>
      <trkpt lat="44.43911" lon="5.55723">
        <ele>899.7</ele>
        <time>2021-05-09T11:43:03Z</time>
      </trkpt>
      <trkpt lat="44.43906" lon="5.55719">
        <ele>902.5</ele>
        <time>2021-05-09T11:43:05Z</time>
      </trkpt>
      <trkpt lat="44.43901" lon="5.55717">
        <ele>904.9</ele>
        <time>2021-05-09T11:43:07Z</time>
      </trkpt>
      <trkpt lat="44.43895" lon="5.55719">
        <ele>906.8</ele>
        <time>2021-05-09T11:43:09Z</time>
      </trkpt>
      <trkpt lat="44.4389" lon="5.55723">
        <ele>907.8</ele>
        <time>2021-05-09T11:43:11Z</time>
      </trkpt>
      <trkpt lat="44.43887" lon="5.5573">
        <ele>907.5</ele>
        <time>2021-05-09T11:43:13Z</time>
      </trkpt>
      <trkpt lat="44.43879" lon="5.55749">
        <ele>906.2</ele>
        <time>2021-05-09T11:43:19Z</time>
      </trkpt>
      <trkpt lat="44.43876" lon="5.55754">
        <ele>906.2</ele>
        <time>2021-05-09T11:43:21Z</time>
      </trkpt>
      <trkpt lat="44.43853" lon="5.55799">
        <ele>902.6</ele>
        <time>2021-05-09T11:43:39Z</time>
      </trkpt>
      <trkpt lat="44.43845" lon="5.55811">
        <ele>901.6</ele>
        <time>2021-05-09T11:43:45Z</time>
      </trkpt>
      <trkpt lat="44.43841" lon="5.55814">
        <ele>901.8</ele>
        <time>2021-05-09T11:43:48Z</time>
      </trkpt>
      <trkpt lat="44.43826" lon="5.5581">
        <ele>907</ele>
        <time>2021-05-09T11:43:57Z</time>
      </trkpt>
      <trkpt lat="44.43815" lon="5.55804">
        <ele>911.9</ele>
        <time>2021-05-09T11:44:03Z</time>
      </trkpt>
      <trkpt lat="44.43799" lon="5.55794">
        <ele>919.3</ele>
        <time>2021-05-09T11:44:11Z</time>
      </trkpt>
      <trkpt lat="44.4377" lon="5.55794">
        <ele>927.3</ele>
        <time>2021-05-09T11:44:27Z</time>
      </trkpt>
      <trkpt lat="44.43752" lon="5.55802">
        <ele>929.8</ele>
        <time>2021-05-09T11:44:35Z</time>
      </trkpt>
      <trkpt lat="44.43736" lon="5.55824">
        <ele>925.3</ele>
        <time>2021-05-09T11:44:45Z</time>
      </trkpt>
      <trkpt lat="44.43732" lon="5.55832">
        <ele>923.5</ele>
        <time>2021-05-09T11:44:48Z</time>
      </trkpt>
      <trkpt lat="44.43713" lon="5.55866">
        <ele>923</ele>
        <time>2021-05-09T11:45:03Z</time>
      </trkpt>
      <trkpt lat="44.43704" lon="5.55876">
        <ele>922.6</ele>
        <time>2021-05-09T11:45:09Z</time>
      </trkpt>
      <trkpt lat="44.43699" lon="5.55877">
        <ele>922.6</ele>
        <time>2021-05-09T11:45:12Z</time>
      </trkpt>
      <trkpt lat="44.43688" lon="5.55875">
        <ele>923.2</ele>
        <time>2021-05-09T11:45:18Z</time>
      </trkpt>
      <trkpt lat="44.43683" lon="5.55872">
        <ele>923.8</ele>
        <time>2021-05-09T11:45:21Z</time>
      </trkpt>
      <trkpt lat="44.43671" lon="5.55858">
        <ele>926.6</ele>
        <time>2021-05-09T11:45:27Z</time>
      </trkpt>
      <trkpt lat="44.43653" lon="5.55805">
        <ele>937.4</ele>
        <time>2021-05-09T11:45:47Z</time>
      </trkpt>
      <trkpt lat="44.43626" lon="5.55758">
        <ele>946.6</ele>
        <time>2021-05-09T11:46:08Z</time>
      </trkpt>
      <trkpt lat="44.43616" lon="5.55749">
        <ele>948.1</ele>
        <time>2021-05-09T11:46:14Z</time>
      </trkpt>
      <trkpt lat="44.4361" lon="5.55747">
        <ele>948.5</ele>
        <time>2021-05-09T11:46:17Z</time>
      </trkpt>
      <trkpt lat="44.43604" lon="5.55749">
        <ele>947.8</ele>
        <time>2021-05-09T11:46:20Z</time>
      </trkpt>
      <trkpt lat="44.43581" lon="5.55772">
        <ele>944.7</ele>
        <time>2021-05-09T11:46:33Z</time>
      </trkpt>
      <trkpt lat="44.43578" lon="5.55777">
        <ele>945.1</ele>
        <time>2021-05-09T11:46:35Z</time>
      </trkpt>
      <trkpt lat="44.43555" lon="5.55817">
        <ele>947.2</ele>
        <time>2021-05-09T11:46:53Z</time>
      </trkpt>
      <trkpt lat="44.43551" lon="5.55824">
        <ele>947.4</ele>
        <time>2021-05-09T11:46:56Z</time>
      </trkpt>
      <trkpt lat="44.43531" lon="5.55893">
        <ele>948</ele>
        <time>2021-05-09T11:47:22Z</time>
      </trkpt>
      <trkpt lat="44.43525" lon="5.55903">
        <ele>948.8</ele>
        <time>2021-05-09T11:47:26Z</time>
      </trkpt>
      <trkpt lat="44.43512" lon="5.55917">
        <ele>951</ele>
        <time>2021-05-09T11:47:32Z</time>
      </trkpt>
      <trkpt lat="44.43502" lon="5.55923">
        <ele>953.6</ele>
        <time>2021-05-09T11:47:37Z</time>
      </trkpt>
      <trkpt lat="44.43497" lon="5.55929">
        <ele>955.1</ele>
        <time>2021-05-09T11:47:40Z</time>
      </trkpt>
      <trkpt lat="44.43489" lon="5.55947">
        <ele>957.6</ele>
        <time>2021-05-09T11:47:46Z</time>
      </trkpt>
      <trkpt lat="44.43485" lon="5.55961">
        <ele>959</ele>
        <time>2021-05-09T11:47:50Z</time>
      </trkpt>
      <trkpt lat="44.43485" lon="5.55981">
        <ele>959.5</ele>
        <time>2021-05-09T11:47:56Z</time>
      </trkpt>
      <trkpt lat="44.4351" lon="5.5607">
        <ele>960</ele>
        <time>2021-05-09T11:48:27Z</time>
      </trkpt>
      <trkpt lat="44.43524" lon="5.56133">
        <ele>961.8</ele>
        <time>2021-05-09T11:48:45Z</time>
      </trkpt>
      <trkpt lat="44.43525" lon="5.56141">
        <ele>962.2</ele>
        <time>2021-05-09T11:48:47Z</time>
      </trkpt>
      <trkpt lat="44.43527" lon="5.56149">
        <ele>962.3</ele>
        <time>2021-05-09T11:48:50Z</time>
      </trkpt>
      <trkpt lat="44.43527" lon="5.56159">
        <ele>963.2</ele>
        <time>2021-05-09T11:48:53Z</time>
      </trkpt>
      <trkpt lat="44.43527" lon="5.56201">
        <ele>965.8</ele>
        <time>2021-05-09T11:49:03Z</time>
      </trkpt>
      <trkpt lat="44.43525" lon="5.56212">
        <ele>966.9</ele>
        <time>2021-05-09T11:49:05Z</time>
      </trkpt>
      <trkpt lat="44.43528" lon="5.56252">
        <ele>968.4</ele>
        <time>2021-05-09T11:49:11Z</time>
      </trkpt>
      <trkpt lat="44.43574" lon="5.56374">
        <ele>965.7</ele>
        <time>2021-05-09T11:49:27Z</time>
      </trkpt>
      <trkpt lat="44.436" lon="5.56423">
        <ele>969.9</ele>
        <time>2021-05-09T11:49:34Z</time>
      </trkpt>
      <trkpt lat="44.43627" lon="5.5653">
        <ele>978.8</ele>
        <time>2021-05-09T11:49:59Z</time>
      </trkpt>
      <trkpt lat="44.43628" lon="5.56538">
        <ele>978.9</ele>
        <time>2021-05-09T11:50:01Z</time>
      </trkpt>
      <trkpt lat="44.43629" lon="5.56547">
        <ele>979.1</ele>
        <time>2021-05-09T11:50:03Z</time>
      </trkpt>
      <trkpt lat="44.43628" lon="5.56606">
        <ele>979.4</ele>
        <time>2021-05-09T11:50:19Z</time>
      </trkpt>
      <trkpt lat="44.43619" lon="5.56683">
        <ele>980.4</ele>
        <time>2021-05-09T11:50:39Z</time>
      </trkpt>
      <trkpt lat="44.43613" lon="5.56697">
        <ele>980.1</ele>
        <time>2021-05-09T11:50:43Z</time>
      </trkpt>
      <trkpt lat="44.43609" lon="5.56719">
        <ele>980.2</ele>
        <time>2021-05-09T11:50:49Z</time>
      </trkpt>
      <trkpt lat="44.43607" lon="5.56733">
        <ele>980.3</ele>
        <time>2021-05-09T11:50:53Z</time>
      </trkpt>
      <trkpt lat="44.43605" lon="5.56745">
        <ele>980.3</ele>
        <time>2021-05-09T11:50:57Z</time>
      </trkpt>
      <trkpt lat="44.43589" lon="5.56782">
        <ele>979.6</ele>
        <time>2021-05-09T11:51:09Z</time>
      </trkpt>
      <trkpt lat="44.43588" lon="5.56795">
        <ele>980.2</ele>
        <time>2021-05-09T11:51:13Z</time>
      </trkpt>
      <trkpt lat="44.43597" lon="5.56838">
        <ele>983.2</ele>
        <time>2021-05-09T11:51:27Z</time>
      </trkpt>
      <trkpt lat="44.43598" lon="5.56847">
        <ele>983.9</ele>
        <time>2021-05-09T11:51:30Z</time>
      </trkpt>
      <trkpt lat="44.43598" lon="5.56865">
        <ele>985.3</ele>
        <time>2021-05-09T11:51:36Z</time>
      </trkpt>
      <trkpt lat="44.43599" lon="5.56872">
        <ele>985.9</ele>
        <time>2021-05-09T11:51:38Z</time>
      </trkpt>
      <trkpt lat="44.43602" lon="5.5688">
        <ele>986.5</ele>
        <time>2021-05-09T11:51:41Z</time>
      </trkpt>
      <trkpt lat="44.43605" lon="5.56885">
        <ele>986.8</ele>
        <time>2021-05-09T11:51:43Z</time>
      </trkpt>
      <trkpt lat="44.43628" lon="5.56901">
        <ele>987.3</ele>
        <time>2021-05-09T11:51:55Z</time>
      </trkpt>
      <trkpt lat="44.43642" lon="5.56916">
        <ele>987.2</ele>
        <time>2021-05-09T11:52:04Z</time>
      </trkpt>
      <trkpt lat="44.4366" lon="5.56944">
        <ele>988.4</ele>
        <time>2021-05-09T11:52:16Z</time>
      </trkpt>
      <trkpt lat="44.43665" lon="5.56957">
        <ele>989</ele>
        <time>2021-05-09T11:52:20Z</time>
      </trkpt>
      <trkpt lat="44.43666" lon="5.56963">
        <ele>989.4</ele>
        <time>2021-05-09T11:52:22Z</time>
      </trkpt>
      <trkpt lat="44.43668" lon="5.56976">
        <ele>990.4</ele>
        <time>2021-05-09T11:52:26Z</time>
      </trkpt>
      <trkpt lat="44.43673" lon="5.56991">
        <ele>991.9</ele>
        <time>2021-05-09T11:52:32Z</time>
      </trkpt>
      <trkpt lat="44.43676" lon="5.56998">
        <ele>992.5</ele>
        <time>2021-05-09T11:52:35Z</time>
      </trkpt>
      <trkpt lat="44.4369" lon="5.5701">
        <ele>994.6</ele>
        <time>2021-05-09T11:52:44Z</time>
      </trkpt>
      <trkpt lat="44.437" lon="5.57023">
        <ele>996.3</ele>
        <time>2021-05-09T11:52:50Z</time>
      </trkpt>
      <trkpt lat="44.43708" lon="5.57045">
        <ele>998.5</ele>
        <time>2021-05-09T11:52:58Z</time>
      </trkpt>
      <trkpt lat="44.43712" lon="5.57052">
        <ele>999.2</ele>
        <time>2021-05-09T11:53:01Z</time>
      </trkpt>
      <trkpt lat="44.43721" lon="5.57056">
        <ele>999.8</ele>
        <time>2021-05-09T11:53:05Z</time>
      </trkpt>
      <trkpt lat="44.43726" lon="5.57055">
        <ele>999.9</ele>
        <time>2021-05-09T11:53:07Z</time>
      </trkpt>
      <trkpt lat="44.43761" lon="5.57026">
        <ele>1002.2</ele>
        <time>2021-05-09T11:53:24Z</time>
      </trkpt>
      <trkpt lat="44.43766" lon="5.57012">
        <ele>1003</ele>
        <time>2021-05-09T11:53:28Z</time>
      </trkpt>
      <trkpt lat="44.43771" lon="5.56993">
        <ele>1003.9</ele>
        <time>2021-05-09T11:53:34Z</time>
      </trkpt>
      <trkpt lat="44.43779" lon="5.569">
        <ele>1010.1</ele>
        <time>2021-05-09T11:54:01Z</time>
      </trkpt>
      <trkpt lat="44.43779" lon="5.56893">
        <ele>1011.2</ele>
        <time>2021-05-09T11:54:03Z</time>
      </trkpt>
      <trkpt lat="44.43778" lon="5.56885">
        <ele>1012.3</ele>
        <time>2021-05-09T11:54:05Z</time>
      </trkpt>
      <trkpt lat="44.43775" lon="5.56878">
        <ele>1012.6</ele>
        <time>2021-05-09T11:54:07Z</time>
      </trkpt>
      <trkpt lat="44.43771" lon="5.56873">
        <ele>1012.3</ele>
        <time>2021-05-09T11:54:09Z</time>
      </trkpt>
      <trkpt lat="44.43756" lon="5.56867">
        <ele>1009</ele>
        <time>2021-05-09T11:54:15Z</time>
      </trkpt>
      <trkpt lat="44.43746" lon="5.5686">
        <ele>1007.5</ele>
        <time>2021-05-09T11:54:19Z</time>
      </trkpt>
      <trkpt lat="44.4373" lon="5.56841">
        <ele>1005.8</ele>
        <time>2021-05-09T11:54:27Z</time>
      </trkpt>
      <trkpt lat="44.43712" lon="5.56796">
        <ele>1003.7</ele>
        <time>2021-05-09T11:54:42Z</time>
      </trkpt>
      <trkpt lat="44.43713" lon="5.56782">
        <ele>1005</ele>
        <time>2021-05-09T11:54:47Z</time>
      </trkpt>
      <trkpt lat="44.43719" lon="5.56751">
        <ele>1009.4</ele>
        <time>2021-05-09T11:54:57Z</time>
      </trkpt>
      <trkpt lat="44.43741" lon="5.56681">
        <ele>1015</ele>
        <time>2021-05-09T11:55:17Z</time>
      </trkpt>
      <trkpt lat="44.43754" lon="5.5658">
        <ele>1018.3</ele>
        <time>2021-05-09T11:55:46Z</time>
      </trkpt>
      <trkpt lat="44.43756" lon="5.56572">
        <ele>1018.7</ele>
        <time>2021-05-09T11:55:48Z</time>
      </trkpt>
      <trkpt lat="44.43758" lon="5.56564">
        <ele>1019.1</ele>
        <time>2021-05-09T11:55:50Z</time>
      </trkpt>
      <trkpt lat="44.43763" lon="5.56558">
        <ele>1020.7</ele>
        <time>2021-05-09T11:55:52Z</time>
      </trkpt>
      <trkpt lat="44.4377" lon="5.56555">
        <ele>1023.2</ele>
        <time>2021-05-09T11:55:54Z</time>
      </trkpt>
      <trkpt lat="44.43775" lon="5.56558">
        <ele>1025.2</ele>
        <time>2021-05-09T11:55:56Z</time>
      </trkpt>
      <trkpt lat="44.43778" lon="5.56565">
        <ele>1026.6</ele>
        <time>2021-05-09T11:55:58Z</time>
      </trkpt>
      <trkpt lat="44.43765" lon="5.56671">
        <ele>1023.9</ele>
        <time>2021-05-09T11:56:29Z</time>
      </trkpt>
      <trkpt lat="44.43772" lon="5.56762">
        <ele>1026.6</ele>
        <time>2021-05-09T11:57:01Z</time>
      </trkpt>
      <trkpt lat="44.43822" lon="5.56827">
        <ele>1033.7</ele>
        <time>2021-05-09T11:57:32Z</time>
      </trkpt>
      <trkpt lat="44.43882" lon="5.56882">
        <ele>1044.2</ele>
        <time>2021-05-09T11:58:02Z</time>
      </trkpt>
      <trkpt lat="44.43893" lon="5.56895">
        <ele>1045.2</ele>
        <time>2021-05-09T11:58:08Z</time>
      </trkpt>
      <trkpt lat="44.43922" lon="5.56938">
        <ele>1048.9</ele>
        <time>2021-05-09T11:58:25Z</time>
      </trkpt>
      <trkpt lat="44.43928" lon="5.56951">
        <ele>1050.3</ele>
        <time>2021-05-09T11:58:29Z</time>
      </trkpt>
      <trkpt lat="44.43929" lon="5.56966">
        <ele>1050.8</ele>
        <time>2021-05-09T11:58:33Z</time>
      </trkpt>
      <trkpt lat="44.43927" lon="5.56982">
        <ele>1050.4</ele>
        <time>2021-05-09T11:58:37Z</time>
      </trkpt>
      <trkpt lat="44.43901" lon="5.57061">
        <ele>1047.9</ele>
        <time>2021-05-09T11:59:01Z</time>
      </trkpt>
      <trkpt lat="44.43896" lon="5.5711">
        <ele>1051.2</ele>
        <time>2021-05-09T11:59:15Z</time>
      </trkpt>
      <trkpt lat="44.43898" lon="5.57145">
        <ele>1056.1</ele>
        <time>2021-05-09T11:59:25Z</time>
      </trkpt>
      <trkpt lat="44.43898" lon="5.57152">
        <ele>1056.9</ele>
        <time>2021-05-09T11:59:27Z</time>
      </trkpt>
      <trkpt lat="44.43885" lon="5.57175">
        <ele>1054.5</ele>
        <time>2021-05-09T11:59:35Z</time>
      </trkpt>
      <trkpt lat="44.43883" lon="5.57181">
        <ele>1054.4</ele>
        <time>2021-05-09T11:59:37Z</time>
      </trkpt>
      <trkpt lat="44.43874" lon="5.57222">
        <ele>1056.1</ele>
        <time>2021-05-09T11:59:49Z</time>
      </trkpt>
      <trkpt lat="44.43881" lon="5.57255">
        <ele>1062.7</ele>
        <time>2021-05-09T11:59:59Z</time>
      </trkpt>
      <trkpt lat="44.43891" lon="5.57282">
        <ele>1069.5</ele>
        <time>2021-05-09T12:00:07Z</time>
      </trkpt>
      <trkpt lat="44.43898" lon="5.57307">
        <ele>1075.1</ele>
        <time>2021-05-09T12:00:13Z</time>
      </trkpt>
      <trkpt lat="44.43897" lon="5.57323">
        <ele>1076.8</ele>
        <time>2021-05-09T12:00:17Z</time>
      </trkpt>
      <trkpt lat="44.43895" lon="5.57329">
        <ele>1076.9</ele>
        <time>2021-05-09T12:00:19Z</time>
      </trkpt>
      <trkpt lat="44.43887" lon="5.5734">
        <ele>1075.8</ele>
        <time>2021-05-09T12:00:23Z</time>
      </trkpt>
      <trkpt lat="44.43879" lon="5.57358">
        <ele>1076.2</ele>
        <time>2021-05-09T12:00:29Z</time>
      </trkpt>
      <trkpt lat="44.43872" lon="5.57384">
        <ele>1078.7</ele>
        <time>2021-05-09T12:00:37Z</time>
      </trkpt>
      <trkpt lat="44.43869" lon="5.5739">
        <ele>1078.9</ele>
        <time>2021-05-09T12:00:39Z</time>
      </trkpt>
      <trkpt lat="44.43855" lon="5.57407">
        <ele>1078.1</ele>
        <time>2021-05-09T12:00:45Z</time>
      </trkpt>
      <trkpt lat="44.43845" lon="5.57413">
        <ele>1076.5</ele>
        <time>2021-05-09T12:00:49Z</time>
      </trkpt>
      <trkpt lat="44.4383" lon="5.57416">
        <ele>1073.6</ele>
        <time>2021-05-09T12:00:55Z</time>
      </trkpt>
      <trkpt lat="44.43806" lon="5.57434">
        <ele>1076.3</ele>
        <time>2021-05-09T12:01:05Z</time>
      </trkpt>
      <trkpt lat="44.43778" lon="5.57449">
        <ele>1077.9</ele>
        <time>2021-05-09T12:01:17Z</time>
      </trkpt>
      <trkpt lat="44.43745" lon="5.57479">
        <ele>1083.3</ele>
        <time>2021-05-09T12:01:33Z</time>
      </trkpt>
      <trkpt lat="44.43722" lon="5.57487">
        <ele>1084.6</ele>
        <time>2021-05-09T12:01:41Z</time>
      </trkpt>
      <trkpt lat="44.43696" lon="5.57489">
        <ele>1084.2</ele>
        <time>2021-05-09T12:01:51Z</time>
      </trkpt>
      <trkpt lat="44.43675" lon="5.57493">
        <ele>1084.5</ele>
        <time>2021-05-09T12:01:59Z</time>
      </trkpt>
      <trkpt lat="44.43654" lon="5.57494">
        <ele>1085.2</ele>
        <time>2021-05-09T12:02:07Z</time>
      </trkpt>
      <trkpt lat="44.4365" lon="5.57495">
        <ele>1085.7</ele>
        <time>2021-05-09T12:02:09Z</time>
      </trkpt>
      <trkpt lat="44.43645" lon="5.57496">
        <ele>1086.2</ele>
        <time>2021-05-09T12:02:11Z</time>
      </trkpt>
      <trkpt lat="44.43635" lon="5.57499">
        <ele>1087.6</ele>
        <time>2021-05-09T12:02:15Z</time>
      </trkpt>
      <trkpt lat="44.43587" lon="5.57497">
        <ele>1090</ele>
        <time>2021-05-09T12:02:38Z</time>
      </trkpt>
      <trkpt lat="44.43581" lon="5.57498">
        <ele>1091</ele>
        <time>2021-05-09T12:02:41Z</time>
      </trkpt>
      <trkpt lat="44.43571" lon="5.57506">
        <ele>1096</ele>
        <time>2021-05-09T12:02:47Z</time>
      </trkpt>
      <trkpt lat="44.43561" lon="5.57512">
        <ele>1100.2</ele>
        <time>2021-05-09T12:02:53Z</time>
      </trkpt>
      <trkpt lat="44.43555" lon="5.57511">
        <ele>1101.2</ele>
        <time>2021-05-09T12:02:56Z</time>
      </trkpt>
      <trkpt lat="44.4355" lon="5.57507">
        <ele>1101.1</ele>
        <time>2021-05-09T12:02:59Z</time>
      </trkpt>
      <trkpt lat="44.43545" lon="5.57502">
        <ele>1100.8</ele>
        <time>2021-05-09T12:03:02Z</time>
      </trkpt>
      <trkpt lat="44.43522" lon="5.5748">
        <ele>1101.6</ele>
        <time>2021-05-09T12:03:14Z</time>
      </trkpt>
      <trkpt lat="44.43481" lon="5.57408">
        <ele>1102.9</ele>
        <time>2021-05-09T12:03:41Z</time>
      </trkpt>
      <trkpt lat="44.43413" lon="5.57327">
        <ele>1115.3</ele>
        <time>2021-05-09T12:04:11Z</time>
      </trkpt>
      <trkpt lat="44.43385" lon="5.5729">
        <ele>1114.5</ele>
        <time>2021-05-09T12:04:23Z</time>
      </trkpt>
      <trkpt lat="44.43332" lon="5.57197">
        <ele>1115.6</ele>
        <time>2021-05-09T12:04:53Z</time>
      </trkpt>
      <trkpt lat="44.43298" lon="5.57145">
        <ele>1116.3</ele>
        <time>2021-05-09T12:05:11Z</time>
      </trkpt>
      <trkpt lat="44.43252" lon="5.5704">
        <ele>1124.9</ele>
        <time>2021-05-09T12:05:39Z</time>
      </trkpt>
      <trkpt lat="44.43243" lon="5.57025">
        <ele>1124.9</ele>
        <time>2021-05-09T12:05:43Z</time>
      </trkpt>
      <trkpt lat="44.43238" lon="5.5702">
        <ele>1124.9</ele>
        <time>2021-05-09T12:05:45Z</time>
      </trkpt>
      <trkpt lat="44.43226" lon="5.5702">
        <ele>1125.9</ele>
        <time>2021-05-09T12:05:49Z</time>
      </trkpt>
      <trkpt lat="44.43211" lon="5.5703">
        <ele>1127</ele>
        <time>2021-05-09T12:05:55Z</time>
      </trkpt>
      <trkpt lat="44.43206" lon="5.57036">
        <ele>1127</ele>
        <time>2021-05-09T12:05:57Z</time>
      </trkpt>
      <trkpt lat="44.43191" lon="5.5705">
        <ele>1126.4</ele>
        <time>2021-05-09T12:06:03Z</time>
      </trkpt>
      <trkpt lat="44.43183" lon="5.5706">
        <ele>1125.3</ele>
        <time>2021-05-09T12:06:07Z</time>
      </trkpt>
      <trkpt lat="44.43178" lon="5.57061">
        <ele>1124.9</ele>
        <time>2021-05-09T12:07:41Z</time>
      </trkpt>
      <trkpt lat="44.4318" lon="5.57071">
        <ele>1123.9</ele>
        <time>2021-05-09T12:11:06Z</time>
      </trkpt>
      <trkpt lat="44.432" lon="5.5717">
        <ele>1114.6</ele>
        <time>2021-05-09T12:11:18Z</time>
      </trkpt>
      <trkpt lat="44.43224" lon="5.57224">
        <ele>1113.9</ele>
        <time>2021-05-09T12:11:23Z</time>
      </trkpt>
      <trkpt lat="44.43233" lon="5.57266">
        <ele>1112.1</ele>
        <time>2021-05-09T12:11:26Z</time>
      </trkpt>
      <trkpt lat="44.43234" lon="5.57298">
        <ele>1111</ele>
        <time>2021-05-09T12:11:28Z</time>
      </trkpt>
      <trkpt lat="44.4323" lon="5.5733">
        <ele>1107.8</ele>
        <time>2021-05-09T12:11:30Z</time>
      </trkpt>
      <trkpt lat="44.43215" lon="5.57392">
        <ele>1103.4</ele>
        <time>2021-05-09T12:11:34Z</time>
      </trkpt>
      <trkpt lat="44.43212" lon="5.57455">
        <ele>1102.5</ele>
        <time>2021-05-09T12:11:38Z</time>
      </trkpt>
      <trkpt lat="44.43215" lon="5.57501">
        <ele>1103.2</ele>
        <time>2021-05-09T12:11:41Z</time>
      </trkpt>
      <trkpt lat="44.43214" lon="5.57572">
        <ele>1105</ele>
        <time>2021-05-09T12:11:46Z</time>
      </trkpt>
      <trkpt lat="44.43211" lon="5.57585">
        <ele>1104.4</ele>
        <time>2021-05-09T12:11:47Z</time>
      </trkpt>
      <trkpt lat="44.43193" lon="5.57614">
        <ele>1103.2</ele>
        <time>2021-05-09T12:11:50Z</time>
      </trkpt>
      <trkpt lat="44.43185" lon="5.57623">
        <ele>1102.2</ele>
        <time>2021-05-09T12:11:51Z</time>
      </trkpt>
      <trkpt lat="44.43166" lon="5.57634">
        <ele>1098</ele>
        <time>2021-05-09T12:11:53Z</time>
      </trkpt>
      <trkpt lat="44.43131" lon="5.57639">
        <ele>1088.9</ele>
        <time>2021-05-09T12:11:56Z</time>
      </trkpt>
      <trkpt lat="44.43098" lon="5.57633">
        <ele>1078</ele>
        <time>2021-05-09T12:11:59Z</time>
      </trkpt>
      <trkpt lat="44.43089" lon="5.57635">
        <ele>1075.8</ele>
        <time>2021-05-09T12:12:00Z</time>
      </trkpt>
      <trkpt lat="44.43075" lon="5.57649">
        <ele>1074.8</ele>
        <time>2021-05-09T12:12:02Z</time>
      </trkpt>
      <trkpt lat="44.42971" lon="5.57948">
        <ele>1057.1</ele>
        <time>2021-05-09T12:12:25Z</time>
      </trkpt>
      <trkpt lat="44.42968" lon="5.5796">
        <ele>1056</ele>
        <time>2021-05-09T12:12:26Z</time>
      </trkpt>
      <trkpt lat="44.42968" lon="5.57972">
        <ele>1055.9</ele>
        <time>2021-05-09T12:12:27Z</time>
      </trkpt>
      <trkpt lat="44.42969" lon="5.57981">
        <ele>1056.3</ele>
        <time>2021-05-09T12:12:28Z</time>
      </trkpt>
      <trkpt lat="44.42978" lon="5.57998">
        <ele>1059.4</ele>
        <time>2021-05-09T12:12:30Z</time>
      </trkpt>
      <trkpt lat="44.4298" lon="5.58005">
        <ele>1059.5</ele>
        <time>2021-05-09T12:12:31Z</time>
      </trkpt>
      <trkpt lat="44.42978" lon="5.58013">
        <ele>1057.9</ele>
        <time>2021-05-09T12:12:32Z</time>
      </trkpt>
      <trkpt lat="44.42973" lon="5.58019">
        <ele>1055.6</ele>
        <time>2021-05-09T12:12:33Z</time>
      </trkpt>
      <trkpt lat="44.42966" lon="5.58019">
        <ele>1053.3</ele>
        <time>2021-05-09T12:12:34Z</time>
      </trkpt>
      <trkpt lat="44.4296" lon="5.58015">
        <ele>1051.6</ele>
        <time>2021-05-09T12:12:35Z</time>
      </trkpt>
      <trkpt lat="44.42955" lon="5.58006">
        <ele>1050.8</ele>
        <time>2021-05-09T12:12:36Z</time>
      </trkpt>
      <trkpt lat="44.42952" lon="5.57995">
        <ele>1050.3</ele>
        <time>2021-05-09T12:12:37Z</time>
      </trkpt>
      <trkpt lat="44.4295" lon="5.57982">
        <ele>1049.6</ele>
        <time>2021-05-09T12:12:38Z</time>
      </trkpt>
      <trkpt lat="44.42949" lon="5.5797">
        <ele>1049.2</ele>
        <time>2021-05-09T12:12:39Z</time>
      </trkpt>
      <trkpt lat="44.42948" lon="5.57958">
        <ele>1048.8</ele>
        <time>2021-05-09T12:12:40Z</time>
      </trkpt>
      <trkpt lat="44.42939" lon="5.57718">
        <ele>1035.3</ele>
        <time>2021-05-09T12:12:56Z</time>
      </trkpt>
      <trkpt lat="44.42946" lon="5.57679">
        <ele>1037.6</ele>
        <time>2021-05-09T12:12:59Z</time>
      </trkpt>
      <trkpt lat="44.42947" lon="5.57669">
        <ele>1037.8</ele>
        <time>2021-05-09T12:13:00Z</time>
      </trkpt>
      <trkpt lat="44.42946" lon="5.5766">
        <ele>1037.3</ele>
        <time>2021-05-09T12:13:01Z</time>
      </trkpt>
      <trkpt lat="44.42944" lon="5.57654">
        <ele>1036.5</ele>
        <time>2021-05-09T12:13:02Z</time>
      </trkpt>
      <trkpt lat="44.42939" lon="5.57654">
        <ele>1035</ele>
        <time>2021-05-09T12:13:03Z</time>
      </trkpt>
      <trkpt lat="44.42933" lon="5.57659">
        <ele>1033.2</ele>
        <time>2021-05-09T12:13:04Z</time>
      </trkpt>
      <trkpt lat="44.4293" lon="5.57667">
        <ele>1032.3</ele>
        <time>2021-05-09T12:13:05Z</time>
      </trkpt>
      <trkpt lat="44.42928" lon="5.57738">
        <ele>1031.3</ele>
        <time>2021-05-09T12:13:11Z</time>
      </trkpt>
      <trkpt lat="44.42924" lon="5.57764">
        <ele>1030.6</ele>
        <time>2021-05-09T12:13:13Z</time>
      </trkpt>
      <trkpt lat="44.42914" lon="5.57789">
        <ele>1028.6</ele>
        <time>2021-05-09T12:13:15Z</time>
      </trkpt>
      <trkpt lat="44.42835" lon="5.57924">
        <ele>1013.7</ele>
        <time>2021-05-09T12:13:27Z</time>
      </trkpt>
      <trkpt lat="44.42807" lon="5.57996">
        <ele>1009.8</ele>
        <time>2021-05-09T12:13:33Z</time>
      </trkpt>
      <trkpt lat="44.42798" lon="5.58006">
        <ele>1007.9</ele>
        <time>2021-05-09T12:13:34Z</time>
      </trkpt>
      <trkpt lat="44.42778" lon="5.58017">
        <ele>1003.5</ele>
        <time>2021-05-09T12:13:36Z</time>
      </trkpt>
      <trkpt lat="44.42768" lon="5.58023">
        <ele>1001.5</ele>
        <time>2021-05-09T12:13:37Z</time>
      </trkpt>
      <trkpt lat="44.4276" lon="5.58032">
        <ele>1000.1</ele>
        <time>2021-05-09T12:13:38Z</time>
      </trkpt>
      <trkpt lat="44.42753" lon="5.58044">
        <ele>999.1</ele>
        <time>2021-05-09T12:13:39Z</time>
      </trkpt>
      <trkpt lat="44.42747" lon="5.58071">
        <ele>999</ele>
        <time>2021-05-09T12:13:41Z</time>
      </trkpt>
      <trkpt lat="44.42744" lon="5.58097">
        <ele>997.2</ele>
        <time>2021-05-09T12:13:43Z</time>
      </trkpt>
      <trkpt lat="44.42746" lon="5.5812">
        <ele>994.6</ele>
        <time>2021-05-09T12:13:45Z</time>
      </trkpt>
      <trkpt lat="44.42747" lon="5.58128">
        <ele>993.7</ele>
        <time>2021-05-09T12:13:46Z</time>
      </trkpt>
      <trkpt lat="44.42745" lon="5.58135">
        <ele>992.6</ele>
        <time>2021-05-09T12:13:47Z</time>
      </trkpt>
      <trkpt lat="44.4274" lon="5.58141">
        <ele>991.4</ele>
        <time>2021-05-09T12:13:48Z</time>
      </trkpt>
      <trkpt lat="44.42703" lon="5.58157">
        <ele>986.7</ele>
        <time>2021-05-09T12:13:53Z</time>
      </trkpt>
      <trkpt lat="44.42688" lon="5.5817">
        <ele>984.7</ele>
        <time>2021-05-09T12:13:55Z</time>
      </trkpt>
      <trkpt lat="44.42675" lon="5.58189">
        <ele>980.7</ele>
        <time>2021-05-09T12:13:57Z</time>
      </trkpt>
      <trkpt lat="44.42659" lon="5.58206">
        <ele>977.1</ele>
        <time>2021-05-09T12:13:59Z</time>
      </trkpt>
      <trkpt lat="44.42621" lon="5.58225">
        <ele>972.6</ele>
        <time>2021-05-09T12:14:03Z</time>
      </trkpt>
      <trkpt lat="44.42589" lon="5.5823">
        <ele>970.8</ele>
        <time>2021-05-09T12:14:06Z</time>
      </trkpt>
      <trkpt lat="44.42548" lon="5.58221">
        <ele>967.6</ele>
        <time>2021-05-09T12:14:10Z</time>
      </trkpt>
      <trkpt lat="44.42519" lon="5.58208">
        <ele>965.4</ele>
        <time>2021-05-09T12:14:13Z</time>
      </trkpt>
      <trkpt lat="44.42512" lon="5.58201">
        <ele>965.3</ele>
        <time>2021-05-09T12:14:14Z</time>
      </trkpt>
      <trkpt lat="44.42506" lon="5.58192">
        <ele>965.4</ele>
        <time>2021-05-09T12:14:15Z</time>
      </trkpt>
      <trkpt lat="44.42502" lon="5.58181">
        <ele>965.9</ele>
        <time>2021-05-09T12:14:16Z</time>
      </trkpt>
      <trkpt lat="44.42501" lon="5.58167">
        <ele>967.1</ele>
        <time>2021-05-09T12:14:17Z</time>
      </trkpt>
      <trkpt lat="44.42502" lon="5.58152">
        <ele>966.6</ele>
        <time>2021-05-09T12:14:18Z</time>
      </trkpt>
      <trkpt lat="44.42504" lon="5.58122">
        <ele>965.4</ele>
        <time>2021-05-09T12:14:20Z</time>
      </trkpt>
      <trkpt lat="44.42498" lon="5.58082">
        <ele>962.5</ele>
        <time>2021-05-09T12:14:23Z</time>
      </trkpt>
      <trkpt lat="44.42493" lon="5.58064">
        <ele>959.8</ele>
        <time>2021-05-09T12:14:25Z</time>
      </trkpt>
      <trkpt lat="44.4249" lon="5.58057">
        <ele>958.6</ele>
        <time>2021-05-09T12:14:26Z</time>
      </trkpt>
      <trkpt lat="44.42485" lon="5.58055">
        <ele>957.7</ele>
        <time>2021-05-09T12:14:27Z</time>
      </trkpt>
      <trkpt lat="44.4248" lon="5.58058">
        <ele>957.2</ele>
        <time>2021-05-09T12:14:28Z</time>
      </trkpt>
      <trkpt lat="44.42476" lon="5.58065">
        <ele>957.3</ele>
        <time>2021-05-09T12:14:29Z</time>
      </trkpt>
      <trkpt lat="44.42471" lon="5.58086">
        <ele>958.6</ele>
        <time>2021-05-09T12:14:31Z</time>
      </trkpt>
      <trkpt lat="44.42467" lon="5.58097">
        <ele>958.6</ele>
        <time>2021-05-09T12:14:32Z</time>
      </trkpt>
      <trkpt lat="44.42461" lon="5.58106">
        <ele>958.3</ele>
        <time>2021-05-09T12:14:33Z</time>
      </trkpt>
      <trkpt lat="44.42431" lon="5.58119">
        <ele>954.7</ele>
        <time>2021-05-09T12:14:37Z</time>
      </trkpt>
      <trkpt lat="44.42386" lon="5.58157">
        <ele>950.9</ele>
        <time>2021-05-09T12:14:43Z</time>
      </trkpt>
      <trkpt lat="44.42342" lon="5.58169">
        <ele>945.1</ele>
        <time>2021-05-09T12:14:48Z</time>
      </trkpt>
      <trkpt lat="44.42334" lon="5.58174">
        <ele>943.7</ele>
        <time>2021-05-09T12:14:49Z</time>
      </trkpt>
      <trkpt lat="44.42293" lon="5.58231">
        <ele>937.9</ele>
        <time>2021-05-09T12:14:55Z</time>
      </trkpt>
      <trkpt lat="44.42274" lon="5.58244">
        <ele>936.5</ele>
        <time>2021-05-09T12:14:57Z</time>
      </trkpt>
      <trkpt lat="44.41976" lon="5.58334">
        <ele>909.3</ele>
        <time>2021-05-09T12:15:27Z</time>
      </trkpt>
      <trkpt lat="44.41879" lon="5.58368">
        <ele>901.3</ele>
        <time>2021-05-09T12:15:37Z</time>
      </trkpt>
      <trkpt lat="44.4187" lon="5.58369">
        <ele>900.6</ele>
        <time>2021-05-09T12:15:38Z</time>
      </trkpt>
      <trkpt lat="44.41863" lon="5.58366">
        <ele>900</ele>
        <time>2021-05-09T12:15:39Z</time>
      </trkpt>
      <trkpt lat="44.41856" lon="5.58361">
        <ele>899.3</ele>
        <time>2021-05-09T12:15:40Z</time>
      </trkpt>
      <trkpt lat="44.41851" lon="5.58338">
        <ele>898.7</ele>
        <time>2021-05-09T12:15:42Z</time>
      </trkpt>
      <trkpt lat="44.41851" lon="5.58325">
        <ele>898.2</ele>
        <time>2021-05-09T12:15:43Z</time>
      </trkpt>
      <trkpt lat="44.41849" lon="5.58302">
        <ele>896.8</ele>
        <time>2021-05-09T12:15:45Z</time>
      </trkpt>
      <trkpt lat="44.41845" lon="5.58296">
        <ele>896</ele>
        <time>2021-05-09T12:15:46Z</time>
      </trkpt>
      <trkpt lat="44.4184" lon="5.58294">
        <ele>895.4</ele>
        <time>2021-05-09T12:15:47Z</time>
      </trkpt>
      <trkpt lat="44.41777" lon="5.58365">
        <ele>890.1</ele>
        <time>2021-05-09T12:15:57Z</time>
      </trkpt>
      <trkpt lat="44.41748" lon="5.58408">
        <ele>886</ele>
        <time>2021-05-09T12:16:02Z</time>
      </trkpt>
      <trkpt lat="44.41733" lon="5.58424">
        <ele>884.6</ele>
        <time>2021-05-09T12:16:04Z</time>
      </trkpt>
      <trkpt lat="44.41586" lon="5.58511">
        <ele>876.6</ele>
        <time>2021-05-09T12:16:24Z</time>
      </trkpt>
      <trkpt lat="44.41579" lon="5.58515">
        <ele>876.4</ele>
        <time>2021-05-09T12:16:26Z</time>
      </trkpt>
      <trkpt lat="44.41571" lon="5.58511">
        <ele>876.3</ele>
        <time>2021-05-09T12:16:30Z</time>
      </trkpt>
      <trkpt lat="44.41565" lon="5.58508">
        <ele>876.3</ele>
        <time>2021-05-09T12:18:38Z</time>
      </trkpt>
      <trkpt lat="44.41535" lon="5.5832">
        <ele>876.7</ele>
        <time>2021-05-09T12:19:08Z</time>
      </trkpt>
      <trkpt lat="44.4151" lon="5.58118">
        <ele>876.7</ele>
        <time>2021-05-09T12:19:29Z</time>
      </trkpt>
      <trkpt lat="44.41521" lon="5.57983">
        <ele>871.7</ele>
        <time>2021-05-09T12:19:39Z</time>
      </trkpt>
      <trkpt lat="44.41537" lon="5.5785">
        <ele>863.7</ele>
        <time>2021-05-09T12:19:48Z</time>
      </trkpt>
      <trkpt lat="44.41535" lon="5.57786">
        <ele>860.7</ele>
        <time>2021-05-09T12:19:52Z</time>
      </trkpt>
      <trkpt lat="44.4152" lon="5.57719">
        <ele>857.7</ele>
        <time>2021-05-09T12:19:56Z</time>
      </trkpt>
      <trkpt lat="44.41456" lon="5.57521">
        <ele>846.1</ele>
        <time>2021-05-09T12:20:08Z</time>
      </trkpt>
      <trkpt lat="44.41391" lon="5.56965">
        <ele>827.1</ele>
        <time>2021-05-09T12:20:39Z</time>
      </trkpt>
      <trkpt lat="44.41372" lon="5.56706">
        <ele>830.3</ele>
        <time>2021-05-09T12:21:04Z</time>
      </trkpt>
      <trkpt lat="44.41387" lon="5.5644">
        <ele>829.9</ele>
        <time>2021-05-09T12:21:29Z</time>
      </trkpt>
      <trkpt lat="44.4138" lon="5.56398">
        <ele>828.7</ele>
        <time>2021-05-09T12:21:33Z</time>
      </trkpt>
      <trkpt lat="44.41362" lon="5.56347">
        <ele>827.9</ele>
        <time>2021-05-09T12:21:39Z</time>
      </trkpt>
      <trkpt lat="44.41327" lon="5.56295">
        <ele>830.2</ele>
        <time>2021-05-09T12:21:48Z</time>
      </trkpt>
      <trkpt lat="44.41299" lon="5.56254">
        <ele>831.2</ele>
        <time>2021-05-09T12:21:56Z</time>
      </trkpt>
      <trkpt lat="44.41292" lon="5.56238">
        <ele>831.3</ele>
        <time>2021-05-09T12:21:59Z</time>
      </trkpt>
      <trkpt lat="44.41282" lon="5.56196">
        <ele>831.8</ele>
        <time>2021-05-09T12:22:06Z</time>
      </trkpt>
      <trkpt lat="44.4128" lon="5.56135">
        <ele>832.9</ele>
        <time>2021-05-09T12:22:14Z</time>
      </trkpt>
      <trkpt lat="44.4129" lon="5.56057">
        <ele>836</ele>
        <time>2021-05-09T12:22:22Z</time>
      </trkpt>
      <trkpt lat="44.41286" lon="5.56009">
        <ele>834.7</ele>
        <time>2021-05-09T12:22:28Z</time>
      </trkpt>
      <trkpt lat="44.41289" lon="5.55986">
        <ele>834.9</ele>
        <time>2021-05-09T12:22:32Z</time>
      </trkpt>
      <trkpt lat="44.41312" lon="5.55916">
        <ele>836.8</ele>
        <time>2021-05-09T12:22:50Z</time>
      </trkpt>
      <trkpt lat="44.4132" lon="5.55902">
        <ele>836.9</ele>
        <time>2021-05-09T12:22:54Z</time>
      </trkpt>
      <trkpt lat="44.4133" lon="5.55893">
        <ele>837.9</ele>
        <time>2021-05-09T12:22:58Z</time>
      </trkpt>
      <trkpt lat="44.41429" lon="5.55853">
        <ele>844</ele>
        <time>2021-05-09T12:23:30Z</time>
      </trkpt>
      <trkpt lat="44.41459" lon="5.5584">
        <ele>846</ele>
        <time>2021-05-09T12:23:38Z</time>
      </trkpt>
      <trkpt lat="44.41509" lon="5.55798">
        <ele>847.8</ele>
        <time>2021-05-09T12:23:52Z</time>
      </trkpt>
      <trkpt lat="44.41532" lon="5.55786">
        <ele>850.2</ele>
        <time>2021-05-09T12:23:58Z</time>
      </trkpt>
      <trkpt lat="44.41539" lon="5.55779">
        <ele>850.7</ele>
        <time>2021-05-09T12:24:00Z</time>
      </trkpt>
      <trkpt lat="44.41542" lon="5.55767">
        <ele>849.9</ele>
        <time>2021-05-09T12:24:02Z</time>
      </trkpt>
      <trkpt lat="44.41532" lon="5.55702">
        <ele>845.5</ele>
        <time>2021-05-09T12:24:11Z</time>
      </trkpt>
      <trkpt lat="44.41533" lon="5.55681">
        <ele>845.4</ele>
        <time>2021-05-09T12:24:15Z</time>
      </trkpt>
      <trkpt lat="44.41538" lon="5.55657">
        <ele>846.2</ele>
        <time>2021-05-09T12:24:19Z</time>
      </trkpt>
      <trkpt lat="44.41546" lon="5.55642">
        <ele>847.6</ele>
        <time>2021-05-09T12:24:22Z</time>
      </trkpt>
      <trkpt lat="44.41553" lon="5.55634">
        <ele>848.6</ele>
        <time>2021-05-09T12:24:24Z</time>
      </trkpt>
      <trkpt lat="44.41565" lon="5.55624">
        <ele>850</ele>
        <time>2021-05-09T12:24:27Z</time>
      </trkpt>
      <trkpt lat="44.41572" lon="5.55618">
        <ele>850.7</ele>
        <time>2021-05-09T12:24:29Z</time>
      </trkpt>
      <trkpt lat="44.41575" lon="5.55612">
        <ele>850.9</ele>
        <time>2021-05-09T12:24:30Z</time>
      </trkpt>
      <trkpt lat="44.41578" lon="5.55606">
        <ele>851.1</ele>
        <time>2021-05-09T12:24:31Z</time>
      </trkpt>
      <trkpt lat="44.41578" lon="5.55599">
        <ele>851</ele>
        <time>2021-05-09T12:24:32Z</time>
      </trkpt>
      <trkpt lat="44.41576" lon="5.55592">
        <ele>850.7</ele>
        <time>2021-05-09T12:24:33Z</time>
      </trkpt>
      <trkpt lat="44.41571" lon="5.55585">
        <ele>850.3</ele>
        <time>2021-05-09T12:24:34Z</time>
      </trkpt>
      <trkpt lat="44.41566" lon="5.55582">
        <ele>850.1</ele>
        <time>2021-05-09T12:24:35Z</time>
      </trkpt>
      <trkpt lat="44.4155" lon="5.55584">
        <ele>849</ele>
        <time>2021-05-09T12:24:38Z</time>
      </trkpt>
      <trkpt lat="44.41542" lon="5.55582">
        <ele>848.6</ele>
        <time>2021-05-09T12:24:40Z</time>
      </trkpt>
      <trkpt lat="44.41529" lon="5.55574">
        <ele>848.6</ele>
        <time>2021-05-09T12:24:43Z</time>
      </trkpt>
      <trkpt lat="44.41521" lon="5.5556">
        <ele>849.4</ele>
        <time>2021-05-09T12:24:46Z</time>
      </trkpt>
      <trkpt lat="44.41502" lon="5.55514">
        <ele>852</ele>
        <time>2021-05-09T12:24:56Z</time>
      </trkpt>
      <trkpt lat="44.41498" lon="5.55507">
        <ele>852.5</ele>
        <time>2021-05-09T12:24:58Z</time>
      </trkpt>
      <trkpt lat="44.41483" lon="5.55495">
        <ele>854.4</ele>
        <time>2021-05-09T12:25:04Z</time>
      </trkpt>
      <trkpt lat="44.41446" lon="5.55478">
        <ele>857.4</ele>
        <time>2021-05-09T12:25:18Z</time>
      </trkpt>
      <trkpt lat="44.4143" lon="5.55465">
        <ele>858.8</ele>
        <time>2021-05-09T12:25:24Z</time>
      </trkpt>
      <trkpt lat="44.41407" lon="5.55443">
        <ele>859.7</ele>
        <time>2021-05-09T12:25:34Z</time>
      </trkpt>
      <trkpt lat="44.41402" lon="5.5544">
        <ele>859.5</ele>
        <time>2021-05-09T12:25:37Z</time>
      </trkpt>
      <trkpt lat="44.41396" lon="5.5544">
        <ele>859</ele>
        <time>2021-05-09T12:25:40Z</time>
      </trkpt>
    </trkseg>
  </trk>
</gpx>